PWSweather.com
Personal Weather Stations
Station Observations
KCAKERNV93238
Kernville Downtown, Kernville, CA 93238

Kernville DowntownKernville, CA 93238

Lat: 35.754209, Lon: -118.42456

Elevation: 2664

Station Type: Ambient Weather 2902A

High Low Average
Temperature 64.6°F18.1°C 43.9°F6.6°C 52.0°F11.1°C
Dew Point 49.5°F9.7°C 35.8°F2.1°C 44.2°F6.8°C
Winds 7.4 mph 11.9 kmh Calm Calm 1.0 mph E1.6 kmh E
Wind Gusts 9.2 mph14.8 kmh -- 1.0 mph1.6 kmh
Humidity 98% 37% 78%
Pressure 29.91 in1012.9 mb 29.77 in1008.1 mb -
Precipitation 1.15 in29.2 mm - -
Hour Temp Dew Point Humidity Winds Wind Gusts Pressure Precip Precip Rate Daily Precip Total
12:02 AM 44.1°F6.7°C 42.8°F6.0°C 95% 0.9 mph NE1.4 kmh NE 1.1 mph1.8 kmh 29.86 in1011.2 mb 0.31 in7.9 mm 9.30 in236.2 mm 0.01 in0.3 mm
12:04 AM 44.1°F6.7°C 42.8°F6.0°C 95% 1.1 mph NE1.8 kmh NE 1.1 mph1.8 kmh 29.86 in1011.2 mb 0.31 in7.9 mm 0.00 in0.0 mm 0.01 in0.3 mm
12:05 AM 44.1°F6.7°C 42.8°F6.0°C 95% 0.7 mph NE1.1 kmh NE 1.1 mph1.8 kmh 29.86 in1011.2 mb 0.35 in8.9 mm 2.40 in61.0 mm 0.02 in0.5 mm
12:07 AM 44.1°F6.7°C 42.8°F6.0°C 95% 0.7 mph NE1.1 kmh NE 1.1 mph1.8 kmh 29.87 in1011.5 mb 0.31 in7.9 mm 0.00 in0.0 mm 0.03 in0.8 mm
12:08 AM 44.1°F6.7°C 42.8°F6.0°C 95% 2.9 mph N4.7 kmh N 3.4 mph5.5 kmh 29.86 in1011.2 mb 0.24 in6.1 mm 0.00 in0.0 mm 0.03 in0.8 mm
12:09 AM 44.1°F6.7°C 42.8°F6.0°C 95% 2.0 mph NE3.2 kmh NE 3.4 mph5.5 kmh 29.87 in1011.5 mb 0.24 in6.1 mm 0.00 in0.0 mm 0.04 in1.0 mm
12:10 AM 44.1°F6.7°C 42.8°F6.0°C 95% 1.6 mph NE2.6 kmh NE 2.2 mph3.5 kmh 29.87 in1011.5 mb 0.24 in6.1 mm 0.00 in0.0 mm 0.04 in1.0 mm
12:11 AM 44.1°F6.7°C 42.8°F6.0°C 95% 2.0 mph NE3.2 kmh NE 2.2 mph3.5 kmh 29.86 in1011.2 mb 0.24 in6.1 mm 0.00 in0.0 mm 0.05 in1.3 mm
12:12 AM 44.1°F6.7°C 42.8°F6.0°C 95% 0.9 mph NE1.4 kmh NE 1.1 mph1.8 kmh 29.86 in1011.2 mb 0.24 in6.1 mm 0.00 in0.0 mm 0.05 in1.3 mm
12:13 AM 44.1°F6.7°C 42.8°F6.0°C 95% 2.7 mph NW4.3 kmh NW 3.4 mph5.5 kmh 29.87 in1011.5 mb 0.19 in4.8 mm 0.00 in0.0 mm 0.05 in1.3 mm
12:14 AM 44.1°F6.7°C 42.8°F6.0°C 95% 4.3 mph NW6.9 kmh NW 5.8 mph9.3 kmh 29.86 in1011.2 mb 0.19 in4.8 mm 0.00 in0.0 mm 0.05 in1.3 mm
12:15 AM 44.1°F6.7°C 42.8°F6.0°C 95% 2.0 mph N3.2 kmh N 2.2 mph3.5 kmh 29.86 in1011.2 mb 0.19 in4.8 mm 0.00 in0.0 mm 0.05 in1.3 mm
12:16 AM 44.1°F6.7°C 42.8°F6.0°C 95% 3.1 mph N5.0 kmh N 4.5 mph7.2 kmh 29.86 in1011.2 mb 0.12 in3.0 mm 0.00 in0.0 mm 0.05 in1.3 mm
12:17 AM 44.1°F6.7°C 42.8°F6.0°C 95% 2.9 mph N4.7 kmh N 3.4 mph5.5 kmh 29.86 in1011.2 mb 0.19 in4.8 mm 4.20 in106.7 mm 0.06 in1.5 mm
12:18 AM 44.1°F6.7°C 42.8°F6.0°C 95% 2.9 mph N4.7 kmh N 3.4 mph5.5 kmh 29.87 in1011.5 mb 0.19 in4.8 mm 0.00 in0.0 mm 0.06 in1.5 mm
12:19 AM 44.1°F6.7°C 42.8°F6.0°C 95% 2.9 mph N4.7 kmh N 3.4 mph5.5 kmh 29.86 in1011.2 mb 0.14 in3.6 mm 0.00 in0.0 mm 0.06 in1.5 mm
12:20 AM 44.1°F6.7°C 42.8°F6.0°C 95% 2.9 mph N4.7 kmh N 3.4 mph5.5 kmh 29.86 in1011.2 mb 0.14 in3.6 mm 0.00 in0.0 mm 0.06 in1.5 mm
12:21 AM 44.1°F6.7°C 42.8°F6.0°C 95% 2.9 mph N4.7 kmh N 3.4 mph5.5 kmh 29.86 in1011.2 mb 0.07 in1.8 mm 0.00 in0.0 mm 0.06 in1.5 mm
12:22 AM 44.1°F6.7°C 42.8°F6.0°C 95% 2.9 mph N4.7 kmh N 3.4 mph5.5 kmh 29.86 in1011.2 mb 0.07 in1.8 mm 0.00 in0.0 mm 0.06 in1.5 mm
12:23 AM 44.1°F6.7°C 42.8°F6.0°C 95% 2.9 mph N4.7 kmh N 3.4 mph5.5 kmh 29.86 in1011.2 mb 0.07 in1.8 mm 0.00 in0.0 mm 0.06 in1.5 mm
12:24 AM 44.1°F6.7°C 42.8°F6.0°C 95% 2.9 mph N4.7 kmh N 3.4 mph5.5 kmh 29.86 in1011.2 mb 0.07 in1.8 mm 0.00 in0.0 mm 0.06 in1.5 mm
12:25 AM 44.1°F6.7°C 42.8°F6.0°C 95% 2.9 mph N4.7 kmh N 3.4 mph5.5 kmh 29.85 in1010.8 mb 0.07 in1.8 mm 0.00 in0.0 mm 0.06 in1.5 mm
12:26 AM 44.1°F6.7°C 42.8°F6.0°C 95% 2.9 mph N4.7 kmh N 3.4 mph5.5 kmh 29.86 in1011.2 mb 0.07 in1.8 mm 0.00 in0.0 mm 0.06 in1.5 mm
12:28 AM 44.1°F6.7°C 42.8°F6.0°C 95% 2.9 mph N4.7 kmh N 3.4 mph5.5 kmh 29.85 in1010.8 mb 0.00 in0.0 mm 0.00 in0.0 mm 0.06 in1.5 mm
12:29 AM 44.2°F6.8°C 42.9°F6.1°C 95% 3.8 mph NW6.1 kmh NW 4.5 mph7.2 kmh 29.85 in1010.8 mb 0.28 in7.1 mm 16.80 in426.7 mm 0.11 in2.8 mm
12:30 AM 44.2°F6.8°C 42.9°F6.1°C 95% 3.8 mph NW6.1 kmh NW 4.5 mph7.2 kmh 29.85 in1010.8 mb 0.28 in7.1 mm 0.00 in0.0 mm 0.11 in2.8 mm
12:31 AM 44.2°F6.8°C 42.9°F6.1°C 95% 3.8 mph NW6.1 kmh NW 4.5 mph7.2 kmh 29.84 in1010.5 mb 0.28 in7.1 mm 0.00 in0.0 mm 0.11 in2.8 mm
12:32 AM 44.2°F6.8°C 42.9°F6.1°C 95% 3.8 mph NW6.1 kmh NW 4.5 mph7.2 kmh 29.85 in1010.8 mb 0.28 in7.1 mm 0.00 in0.0 mm 0.11 in2.8 mm
12:33 AM 44.2°F6.8°C 43.1°F6.2°C 96% 2.5 mph W4.0 kmh W 4.5 mph7.2 kmh 29.85 in1010.8 mb 0.28 in7.1 mm 0.00 in0.0 mm 0.11 in2.8 mm
12:34 AM 44.2°F6.8°C 42.9°F6.1°C 95% 3.1 mph WNW5.0 kmh WNW 3.4 mph5.5 kmh 29.84 in1010.5 mb 0.35 in8.9 mm 4.20 in106.7 mm 0.12 in3.0 mm
12:35 AM 44.2°F6.8°C 42.9°F6.1°C 95% 3.1 mph WNW5.0 kmh WNW 3.4 mph5.5 kmh 29.85 in1010.8 mb 0.35 in8.9 mm 0.00 in0.0 mm 0.12 in3.0 mm
12:36 AM 44.2°F6.8°C 42.9°F6.1°C 95% 3.1 mph WNW5.0 kmh WNW 3.4 mph5.5 kmh 29.85 in1010.8 mb 0.35 in8.9 mm 0.00 in0.0 mm 0.12 in3.0 mm
12:37 AM 44.2°F6.8°C 42.9°F6.1°C 95% 3.1 mph WNW5.0 kmh WNW 3.4 mph5.5 kmh 29.85 in1010.8 mb 0.35 in8.9 mm 0.00 in0.0 mm 0.12 in3.0 mm
12:38 AM 44.2°F6.8°C 42.9°F6.1°C 95% 3.1 mph WNW5.0 kmh WNW 3.4 mph5.5 kmh 29.85 in1010.8 mb 0.07 in1.8 mm 0.00 in0.0 mm 0.12 in3.0 mm
12:39 AM 44.2°F6.8°C 42.9°F6.1°C 95% 3.1 mph WNW5.0 kmh WNW 3.4 mph5.5 kmh 29.85 in1010.8 mb 0.07 in1.8 mm 0.00 in0.0 mm 0.12 in3.0 mm
12:40 AM 44.2°F6.8°C 42.9°F6.1°C 95% 3.1 mph WNW5.0 kmh WNW 3.4 mph5.5 kmh 29.85 in1010.8 mb 0.07 in1.8 mm 0.00 in0.0 mm 0.12 in3.0 mm
12:41 AM 44.2°F6.8°C 42.9°F6.1°C 95% 0.9 mph NNE1.4 kmh NNE 1.1 mph1.8 kmh 29.85 in1010.8 mb 0.07 in1.8 mm 0.00 in0.0 mm 0.12 in3.0 mm
12:42 AM 44.2°F6.8°C 42.9°F6.1°C 95% 2.0 mph NE3.2 kmh NE 3.4 mph5.5 kmh 29.84 in1010.5 mb 0.19 in4.8 mm 7.20 in182.9 mm 0.14 in3.6 mm
12:43 AM 44.2°F6.8°C 42.9°F6.1°C 95% 1.3 mph NNE2.1 kmh NNE 2.2 mph3.5 kmh 29.84 in1010.5 mb 0.24 in6.1 mm 3.00 in76.2 mm 0.15 in3.8 mm
12:44 AM 44.2°F6.8°C 42.9°F6.1°C 95% 2.0 mph NE3.2 kmh NE 2.2 mph3.5 kmh 29.85 in1010.8 mb 0.17 in4.3 mm 0.00 in0.0 mm 0.15 in3.8 mm
12:45 AM 44.2°F6.8°C 42.9°F6.1°C 95% 2.2 mph NNE3.5 kmh NNE 2.2 mph3.5 kmh 29.84 in1010.5 mb 0.17 in4.3 mm 0.00 in0.0 mm 0.15 in3.8 mm
12:46 AM 44.2°F6.8°C 42.9°F6.1°C 95% 2.7 mph NNE4.3 kmh NNE 3.4 mph5.5 kmh 29.84 in1010.5 mb 0.17 in4.3 mm 0.00 in0.0 mm 0.15 in3.8 mm
12:47 AM 44.2°F6.8°C 42.9°F6.1°C 95% 2.7 mph NNE4.3 kmh NNE 3.4 mph5.5 kmh 29.84 in1010.5 mb 0.17 in4.3 mm 0.00 in0.0 mm 0.15 in3.8 mm
12:48 AM 44.2°F6.8°C 42.9°F6.1°C 95% 2.2 mph N3.5 kmh N 2.2 mph3.5 kmh 29.84 in1010.5 mb 0.24 in6.1 mm 4.20 in106.7 mm 0.16 in4.1 mm
12:49 AM 44.2°F6.8°C 42.9°F6.1°C 95% 2.7 mph N4.3 kmh N 3.4 mph5.5 kmh 29.84 in1010.5 mb 0.24 in6.1 mm 0.00 in0.0 mm 0.16 in4.1 mm
12:50 AM 44.2°F6.8°C 42.9°F6.1°C 95% 3.4 mph N5.5 kmh N 3.4 mph5.5 kmh 29.83 in1010.2 mb 0.24 in6.1 mm 0.00 in0.0 mm 0.16 in4.1 mm
12:52 AM 44.2°F6.8°C 42.9°F6.1°C 95% 1.3 mph NNE2.1 kmh NNE 2.2 mph3.5 kmh 29.83 in1010.2 mb 0.19 in4.8 mm 0.00 in0.0 mm 0.17 in4.3 mm
12:53 AM 44.2°F6.8°C 42.9°F6.1°C 95% 1.3 mph NNE2.1 kmh NNE 2.2 mph3.5 kmh 29.84 in1010.5 mb 0.14 in3.6 mm 0.00 in0.0 mm 0.17 in4.3 mm
12:54 AM 44.2°F6.8°C 42.9°F6.1°C 95% 1.3 mph NNE2.1 kmh NNE 2.2 mph3.5 kmh 29.83 in1010.2 mb 0.14 in3.6 mm 0.00 in0.0 mm 0.17 in4.3 mm
12:55 AM 44.2°F6.8°C 42.9°F6.1°C 95% 1.3 mph NNE2.1 kmh NNE 2.2 mph3.5 kmh 29.84 in1010.5 mb 0.14 in3.6 mm 0.00 in0.0 mm 0.17 in4.3 mm
12:56 AM 44.2°F6.8°C 42.9°F6.1°C 95% 1.3 mph NNE2.1 kmh NNE 2.2 mph3.5 kmh 29.84 in1010.5 mb 0.14 in3.6 mm 0.00 in0.0 mm 0.17 in4.3 mm
12:57 AM 44.2°F6.8°C 42.9°F6.1°C 95% 1.3 mph NNE2.1 kmh NNE 2.2 mph3.5 kmh 29.84 in1010.5 mb 0.14 in3.6 mm 0.00 in0.0 mm 0.17 in4.3 mm
12:59 AM 44.2°F6.8°C 42.9°F6.1°C 95% 1.3 mph NNE2.1 kmh NNE 2.2 mph3.5 kmh 29.84 in1010.5 mb 0.07 in1.8 mm 0.00 in0.0 mm 0.17 in4.3 mm
01:00 AM 44.2°F6.8°C 42.9°F6.1°C 95% 1.3 mph NNE2.1 kmh NNE 2.2 mph3.5 kmh 29.84 in1010.5 mb 0.07 in1.8 mm 0.00 in0.0 mm 0.17 in4.3 mm
01:01 AM 44.2°F6.8°C 42.9°F6.1°C 95% 0.9 mph NE1.4 kmh NE 1.1 mph1.8 kmh 29.84 in1010.5 mb 0.00 in0.0 mm 0.00 in0.0 mm 0.17 in4.3 mm
01:02 AM 44.2°F6.8°C 42.9°F6.1°C 95% 0.9 mph NE1.4 kmh NE 1.1 mph1.8 kmh 29.85 in1010.8 mb 0.00 in0.0 mm 0.00 in0.0 mm 0.17 in4.3 mm
01:03 AM 44.2°F6.8°C 42.9°F6.1°C 95% 0.9 mph NE1.4 kmh NE 1.1 mph1.8 kmh 29.84 in1010.5 mb 0.00 in0.0 mm 0.00 in0.0 mm 0.17 in4.3 mm
01:04 AM 44.2°F6.8°C 42.9°F6.1°C 95% 0.9 mph NE1.4 kmh NE 1.1 mph1.8 kmh 29.84 in1010.5 mb 0.00 in0.0 mm 0.00 in0.0 mm 0.17 in4.3 mm
01:05 AM 44.2°F6.8°C 42.9°F6.1°C 95% 0.9 mph NE1.4 kmh NE 1.1 mph1.8 kmh 29.85 in1010.8 mb 0.00 in0.0 mm 0.00 in0.0 mm 0.17 in4.3 mm
01:06 AM 44.2°F6.8°C 42.9°F6.1°C 95% 0.9 mph NE1.4 kmh NE 1.1 mph1.8 kmh 29.85 in1010.8 mb 0.00 in0.0 mm 0.00 in0.0 mm 0.17 in4.3 mm
01:07 AM 44.2°F6.8°C 42.9°F6.1°C 95% 0.9 mph NE1.4 kmh NE 1.1 mph1.8 kmh 29.85 in1010.8 mb 0.00 in0.0 mm 0.00 in0.0 mm 0.17 in4.3 mm
01:08 AM 44.2°F6.8°C 42.9°F6.1°C 95% 0.9 mph NE1.4 kmh NE 1.1 mph1.8 kmh 29.85 in1010.8 mb 0.00 in0.0 mm 0.00 in0.0 mm 0.17 in4.3 mm
01:09 AM 44.1°F6.7°C 42.8°F6.0°C 95% 0.9 mph E1.4 kmh E 1.1 mph1.8 kmh 29.86 in1011.2 mb 0.17 in4.3 mm 10.20 in259.1 mm 0.20 in5.1 mm
01:10 AM 44.1°F6.7°C 42.8°F6.0°C 95% 0.9 mph E1.4 kmh E 1.1 mph1.8 kmh 29.86 in1011.2 mb 0.17 in4.3 mm 0.00 in0.0 mm 0.20 in5.1 mm
01:11 AM 44.1°F6.7°C 42.8°F6.0°C 95% 0.9 mph E1.4 kmh E 1.1 mph1.8 kmh 29.85 in1010.8 mb 0.17 in4.3 mm 0.00 in0.0 mm 0.20 in5.1 mm
01:12 AM 44.1°F6.7°C 42.8°F6.0°C 95% 0.2 mph WSW0.3 kmh WSW 1.1 mph1.8 kmh 29.85 in1010.8 mb 0.28 in7.1 mm 6.60 in167.6 mm 0.22 in5.6 mm
01:13 AM 44.1°F6.7°C 42.8°F6.0°C 95% 0.2 mph WSW0.3 kmh WSW 1.1 mph1.8 kmh 29.86 in1011.2 mb 0.28 in7.1 mm 0.00 in0.0 mm 0.22 in5.6 mm
01:14 AM 44.1°F6.7°C 42.8°F6.0°C 95% 0.2 mph WSW0.3 kmh WSW 1.1 mph1.8 kmh 29.85 in1010.8 mb 0.28 in7.1 mm 0.00 in0.0 mm 0.22 in5.6 mm
01:15 AM 44.1°F6.7°C 42.8°F6.0°C 95% 0.2 mph WSW0.3 kmh WSW 1.1 mph1.8 kmh 29.85 in1010.8 mb 0.28 in7.1 mm 0.00 in0.0 mm 0.22 in5.6 mm
01:18 AM 44.4°F6.9°C 43.1°F6.2°C 95% 0.2 mph E0.3 kmh E 1.1 mph1.8 kmh 29.86 in1011.2 mb 0.40 in10.2 mm 2.40 in61.0 mm 0.24 in6.1 mm
01:19 AM 44.4°F6.9°C 43.1°F6.2°C 95% 0.2 mph E0.3 kmh E 1.1 mph1.8 kmh 29.86 in1011.2 mb 0.24 in6.1 mm 0.00 in0.0 mm 0.24 in6.1 mm
01:20 AM 44.4°F6.9°C 43.1°F6.2°C 95% Calm Calm -- 29.85 in1010.8 mb 0.31 in7.9 mm 4.20 in106.7 mm 0.25 in6.4 mm
01:21 AM 44.4°F6.9°C 43.1°F6.2°C 95% Calm Calm -- 29.85 in1010.8 mb 0.19 in4.8 mm 0.00 in0.0 mm 0.25 in6.4 mm
01:23 AM 44.4°F6.9°C 43.1°F6.2°C 95% Calm Calm -- 29.85 in1010.8 mb 0.19 in4.8 mm 0.00 in0.0 mm 0.25 in6.4 mm
01:24 AM 44.4°F6.9°C 43.1°F6.2°C 95% Calm Calm -- 29.86 in1011.2 mb 0.19 in4.8 mm 0.00 in0.0 mm 0.25 in6.4 mm
01:25 AM 44.4°F6.9°C 43.1°F6.2°C 95% Calm Calm -- 29.86 in1011.2 mb 0.19 in4.8 mm 0.00 in0.0 mm 0.25 in6.4 mm
01:26 AM 44.4°F6.9°C 43.1°F6.2°C 95% Calm Calm -- 29.86 in1011.2 mb 0.19 in4.8 mm 0.00 in0.0 mm 0.25 in6.4 mm
01:28 AM 44.4°F6.9°C 43.1°F6.2°C 95% Calm Calm -- 29.86 in1011.2 mb 0.07 in1.8 mm 0.00 in0.0 mm 0.25 in6.4 mm
01:29 AM 44.4°F6.9°C 43.1°F6.2°C 95% Calm Calm -- 29.87 in1011.5 mb 0.07 in1.8 mm 0.00 in0.0 mm 0.25 in6.4 mm
01:30 AM 44.4°F6.9°C 43.1°F6.2°C 95% Calm Calm -- 29.86 in1011.2 mb 0.07 in1.8 mm 0.00 in0.0 mm 0.25 in6.4 mm
01:31 AM 44.4°F6.9°C 43.1°F6.2°C 95% Calm Calm -- 29.86 in1011.2 mb 0.00 in0.0 mm 0.00 in0.0 mm 0.25 in6.4 mm
01:32 AM 44.4°F6.9°C 43.1°F6.2°C 95% Calm Calm -- 29.86 in1011.2 mb 0.00 in0.0 mm 0.00 in0.0 mm 0.25 in6.4 mm
01:33 AM 44.4°F6.9°C 43.1°F6.2°C 95% Calm Calm -- 29.86 in1011.2 mb 0.00 in0.0 mm 0.00 in0.0 mm 0.25 in6.4 mm
01:34 AM 44.4°F6.9°C 43.1°F6.2°C 95% Calm Calm -- 29.86 in1011.2 mb 0.00 in0.0 mm 0.00 in0.0 mm 0.25 in6.4 mm
01:35 AM -- -- - - N N -- 29.84 in1010.5 mb 0.00 in0.0 mm 0.00 in0.0 mm 1.48 in37.6 mm
01:36 AM -- -- - - N N -- 29.86 in1011.2 mb 0.00 in0.0 mm 0.00 in0.0 mm 1.48 in37.6 mm
01:37 AM -- -- - - N N -- 29.84 in1010.5 mb 0.00 in0.0 mm 0.00 in0.0 mm 1.48 in37.6 mm
01:38 AM -- -- - - N N -- 29.85 in1010.8 mb 0.00 in0.0 mm 0.00 in0.0 mm 1.48 in37.6 mm
01:39 AM -- -- - - N N -- 29.85 in1010.8 mb 0.00 in0.0 mm 0.00 in0.0 mm 1.48 in37.6 mm
01:42 AM -- -- - - N N -- 29.84 in1010.5 mb 0.00 in0.0 mm 0.00 in0.0 mm 1.48 in37.6 mm
01:43 AM -- -- - - N N -- 29.83 in1010.2 mb 0.00 in0.0 mm 0.00 in0.0 mm 1.48 in37.6 mm
01:44 AM -- -- - - N N -- 29.82 in1009.8 mb 0.00 in0.0 mm 0.00 in0.0 mm 1.48 in37.6 mm
01:45 AM -- -- - - N N -- 29.83 in1010.2 mb 0.00 in0.0 mm 0.00 in0.0 mm 1.48 in37.6 mm
01:46 AM -- -- - - N N -- 29.83 in1010.2 mb 0.00 in0.0 mm 0.00 in0.0 mm 1.48 in37.6 mm
01:47 AM -- -- - - N N -- 29.83 in1010.2 mb 0.00 in0.0 mm 0.00 in0.0 mm 1.48 in37.6 mm
01:48 AM -- -- - - N N -- 29.83 in1010.2 mb 0.00 in0.0 mm 0.00 in0.0 mm 1.48 in37.6 mm
01:49 AM -- -- - - N N -- 29.82 in1009.8 mb 0.00 in0.0 mm 0.00 in0.0 mm 1.48 in37.6 mm
01:50 AM -- -- - - N N -- 29.82 in1009.8 mb 0.00 in0.0 mm 0.00 in0.0 mm 1.48 in37.6 mm
01:51 AM -- -- - - N N -- 29.82 in1009.8 mb 0.00 in0.0 mm 0.00 in0.0 mm 1.48 in37.6 mm
01:53 AM -- -- - - N N -- 29.82 in1009.8 mb 0.00 in0.0 mm 0.00 in0.0 mm 1.48 in37.6 mm
01:54 AM -- -- - - N N -- 29.82 in1009.8 mb 0.00 in0.0 mm 0.00 in0.0 mm 1.48 in37.6 mm
01:55 AM -- -- - - N N -- 29.82 in1009.8 mb 0.00 in0.0 mm 0.00 in0.0 mm 1.48 in37.6 mm
01:56 AM -- -- - - N N -- 29.82 in1009.8 mb 0.00 in0.0 mm 0.00 in0.0 mm 1.48 in37.6 mm
01:57 AM -- -- - - N N -- 29.82 in1009.8 mb 0.00 in0.0 mm 0.00 in0.0 mm 1.48 in37.6 mm
01:58 AM -- -- - - N N -- 29.83 in1010.2 mb 0.00 in0.0 mm 0.00 in0.0 mm 1.48 in37.6 mm
01:59 AM -- -- - - N N -- 29.82 in1009.8 mb 0.00 in0.0 mm 0.00 in0.0 mm 1.48 in37.6 mm
02:00 AM -- -- - - N N -- 29.82 in1009.8 mb 0.00 in0.0 mm 0.00 in0.0 mm 1.48 in37.6 mm
02:01 AM -- -- - - N N -- 29.83 in1010.2 mb 0.00 in0.0 mm 0.00 in0.0 mm 1.48 in37.6 mm
02:02 AM -- -- - - N N -- 29.82 in1009.8 mb 0.00 in0.0 mm 0.00 in0.0 mm 1.48 in37.6 mm
02:03 AM -- -- - - N N -- 29.82 in1009.8 mb 0.00 in0.0 mm 0.00 in0.0 mm 1.48 in37.6 mm
02:05 AM -- -- - - N N -- 29.82 in1009.8 mb 0.00 in0.0 mm 0.00 in0.0 mm 1.48 in37.6 mm
02:07 AM -- -- - - N N -- 29.82 in1009.8 mb 0.00 in0.0 mm 0.00 in0.0 mm 1.48 in37.6 mm
02:08 AM -- -- - - N N -- 29.82 in1009.8 mb 0.00 in0.0 mm 0.00 in0.0 mm 1.48 in37.6 mm
02:09 AM -- -- - - N N -- 29.83 in1010.2 mb 0.00 in0.0 mm 0.00 in0.0 mm 1.48 in37.6 mm
02:10 AM -- -- - - N N -- 29.83 in1010.2 mb 0.00 in0.0 mm 0.00 in0.0 mm 1.48 in37.6 mm
02:11 AM -- -- - - N N -- 29.83 in1010.2 mb 0.00 in0.0 mm 0.00 in0.0 mm 1.48 in37.6 mm
02:13 AM -- -- - - N N -- 29.82 in1009.8 mb 0.00 in0.0 mm 0.00 in0.0 mm 1.48 in37.6 mm
02:15 AM 44.1°F6.7°C 43.0°F6.1°C 96% 1.8 mph NNE2.9 kmh NNE 2.2 mph3.5 kmh 29.81 in1009.5 mb 1.13 in28.7 mm 33.90 in861.1 mm 0.44 in11.2 mm
02:16 AM 44.1°F6.7°C 42.8°F6.0°C 95% 2.2 mph NNW3.5 kmh NNW 2.2 mph3.5 kmh 29.82 in1009.8 mb 1.20 in30.5 mm 4.20 in106.7 mm 0.45 in11.4 mm
02:17 AM 44.2°F6.8°C 42.9°F6.1°C 95% 2.0 mph NW3.2 kmh NW 2.2 mph3.5 kmh 29.81 in1009.5 mb 1.20 in30.5 mm 0.00 in0.0 mm 0.45 in11.4 mm
02:19 AM 44.2°F6.8°C 43.1°F6.2°C 96% 2.5 mph N4.0 kmh N 3.4 mph5.5 kmh 29.81 in1009.5 mb 1.20 in30.5 mm 0.00 in0.0 mm 0.45 in11.4 mm
02:20 AM 44.2°F6.8°C 43.1°F6.2°C 96% 2.5 mph N4.0 kmh N 3.4 mph5.5 kmh 29.81 in1009.5 mb 1.20 in30.5 mm 0.00 in0.0 mm 0.45 in11.4 mm
02:21 AM 44.2°F6.8°C 43.1°F6.2°C 96% 2.5 mph N4.0 kmh N 3.4 mph5.5 kmh 29.81 in1009.5 mb 1.20 in30.5 mm 0.00 in0.0 mm 0.45 in11.4 mm
02:22 AM 44.2°F6.8°C 43.1°F6.2°C 96% 2.5 mph N4.0 kmh N 3.4 mph5.5 kmh 29.81 in1009.5 mb 1.20 in30.5 mm 0.00 in0.0 mm 0.45 in11.4 mm
02:23 AM 44.2°F6.8°C 43.1°F6.2°C 96% 2.5 mph N4.0 kmh N 3.4 mph5.5 kmh 29.81 in1009.5 mb 1.20 in30.5 mm 0.00 in0.0 mm 0.45 in11.4 mm
02:25 AM 44.2°F6.8°C 43.4°F6.3°C 97% 2.2 mph N3.5 kmh N 2.2 mph3.5 kmh 29.80 in1009.1 mb 0.12 in3.0 mm 0.00 in0.0 mm 0.46 in11.7 mm
02:27 AM 44.2°F6.8°C 43.4°F6.3°C 97% 2.2 mph N3.5 kmh N 2.2 mph3.5 kmh 29.80 in1009.1 mb 0.05 in1.3 mm 0.00 in0.0 mm 0.46 in11.7 mm
02:28 AM 44.1°F6.7°C 43.3°F6.3°C 97% 2.2 mph N3.5 kmh N 2.2 mph3.5 kmh 29.80 in1009.1 mb 0.17 in4.3 mm 7.20 in182.9 mm 0.48 in12.2 mm
02:29 AM 44.2°F6.8°C 43.4°F6.3°C 97% 4.0 mph NW6.4 kmh NW 4.5 mph7.2 kmh 29.79 in1008.8 mb 0.24 in6.1 mm 4.20 in106.7 mm 0.49 in12.4 mm
02:30 AM 44.1°F6.7°C 43.3°F6.3°C 97% 2.9 mph N4.7 kmh N 3.4 mph5.5 kmh 29.81 in1009.5 mb 0.24 in6.1 mm 0.00 in0.0 mm 0.49 in12.4 mm
02:32 AM 44.1°F6.7°C 43.3°F6.3°C 97% 2.9 mph N4.7 kmh N 3.4 mph5.5 kmh 29.80 in1009.1 mb 0.28 in7.1 mm 1.20 in30.5 mm 0.50 in12.7 mm
02:33 AM 44.1°F6.7°C 43.3°F6.3°C 97% 2.9 mph N4.7 kmh N 3.4 mph5.5 kmh 29.80 in1009.1 mb 0.28 in7.1 mm 0.00 in0.0 mm 0.50 in12.7 mm
02:34 AM 44.1°F6.7°C 43.3°F6.3°C 97% 1.1 mph NNE1.8 kmh NNE 1.1 mph1.8 kmh 29.81 in1009.5 mb 0.28 in7.1 mm 0.00 in0.0 mm 0.50 in12.7 mm
02:35 AM 44.1°F6.7°C 43.3°F6.3°C 97% 1.6 mph NNE2.6 kmh NNE 2.2 mph3.5 kmh 29.81 in1009.5 mb 0.24 in6.1 mm 0.00 in0.0 mm 0.50 in12.7 mm
02:36 AM 44.1°F6.7°C 43.3°F6.3°C 97% 1.6 mph NNE2.6 kmh NNE 2.2 mph3.5 kmh 29.80 in1009.1 mb 0.24 in6.1 mm 0.00 in0.0 mm 0.50 in12.7 mm
02:37 AM 44.1°F6.7°C 43.3°F6.3°C 97% 1.6 mph NNE2.6 kmh NNE 2.2 mph3.5 kmh 29.81 in1009.5 mb 0.24 in6.1 mm 0.00 in0.0 mm 0.50 in12.7 mm
02:38 AM 44.1°F6.7°C 43.3°F6.3°C 97% 0.9 mph NNE1.4 kmh NNE 1.1 mph1.8 kmh 29.81 in1009.5 mb 0.12 in3.0 mm 0.00 in0.0 mm 0.50 in12.7 mm
02:39 AM 44.1°F6.7°C 43.3°F6.3°C 97% 0.9 mph NNE1.4 kmh NNE 1.1 mph1.8 kmh 29.81 in1009.5 mb 0.05 in1.3 mm 0.00 in0.0 mm 0.50 in12.7 mm
02:40 AM 44.1°F6.7°C 43.3°F6.3°C 97% Calm Calm -- 29.81 in1009.5 mb 0.12 in3.0 mm 4.20 in106.7 mm 0.51 in13.0 mm
02:41 AM 44.1°F6.7°C 43.3°F6.3°C 97% Calm Calm -- 29.81 in1009.5 mb 0.07 in1.8 mm 0.00 in0.0 mm 0.51 in13.0 mm
02:42 AM 44.1°F6.7°C 43.3°F6.3°C 97% Calm Calm -- 29.81 in1009.5 mb 0.07 in1.8 mm 0.00 in0.0 mm 0.51 in13.0 mm
02:43 AM 44.1°F6.7°C 43.3°F6.3°C 97% Calm Calm -- 29.82 in1009.8 mb 0.07 in1.8 mm 0.00 in0.0 mm 0.51 in13.0 mm
02:44 AM 44.1°F6.7°C 43.3°F6.3°C 97% Calm Calm -- 29.81 in1009.5 mb 0.07 in1.8 mm 0.00 in0.0 mm 0.51 in13.0 mm
02:45 AM 44.1°F6.7°C 43.3°F6.3°C 97% Calm Calm -- 29.81 in1009.5 mb 0.07 in1.8 mm 0.00 in0.0 mm 0.51 in13.0 mm
02:46 AM 44.1°F6.7°C 43.3°F6.3°C 97% Calm Calm -- 29.81 in1009.5 mb 0.07 in1.8 mm 0.00 in0.0 mm 0.51 in13.0 mm
02:47 AM 44.1°F6.7°C 43.3°F6.3°C 97% Calm Calm -- 29.81 in1009.5 mb 0.07 in1.8 mm 0.00 in0.0 mm 0.51 in13.0 mm
02:48 AM 44.1°F6.7°C 43.3°F6.3°C 97% Calm Calm -- 29.81 in1009.5 mb 0.07 in1.8 mm 0.00 in0.0 mm 0.51 in13.0 mm
02:49 AM 44.1°F6.7°C 43.3°F6.3°C 97% Calm Calm -- 29.82 in1009.8 mb 0.07 in1.8 mm 0.00 in0.0 mm 0.51 in13.0 mm
02:50 AM 44.1°F6.7°C 43.3°F6.3°C 97% Calm Calm -- 29.81 in1009.5 mb 0.00 in0.0 mm 0.00 in0.0 mm 0.51 in13.0 mm
02:51 AM 44.1°F6.7°C 43.3°F6.3°C 97% Calm Calm -- 29.81 in1009.5 mb 0.00 in0.0 mm 0.00 in0.0 mm 0.51 in13.0 mm
02:52 AM 44.1°F6.7°C 43.3°F6.3°C 97% 1.3 mph N2.1 kmh N 2.2 mph3.5 kmh 29.81 in1009.5 mb 0.31 in7.9 mm 18.60 in472.4 mm 0.56 in14.2 mm
02:53 AM 44.1°F6.7°C 43.3°F6.3°C 97% 1.3 mph N2.1 kmh N 2.2 mph3.5 kmh 29.81 in1009.5 mb 0.31 in7.9 mm 0.00 in0.0 mm 0.56 in14.2 mm
02:54 AM 44.1°F6.7°C 43.3°F6.3°C 97% 1.3 mph N2.1 kmh N 2.2 mph3.5 kmh 29.81 in1009.5 mb 0.31 in7.9 mm 0.00 in0.0 mm 0.56 in14.2 mm
02:55 AM 44.1°F6.7°C 43.3°F6.3°C 97% 1.3 mph N2.1 kmh N 2.2 mph3.5 kmh 29.81 in1009.5 mb 0.31 in7.9 mm 0.00 in0.0 mm 0.56 in14.2 mm
02:56 AM 44.1°F6.7°C 43.3°F6.3°C 97% 1.3 mph N2.1 kmh N 2.2 mph3.5 kmh 29.81 in1009.5 mb 0.31 in7.9 mm 0.00 in0.0 mm 0.56 in14.2 mm
02:57 AM 44.1°F6.7°C 43.3°F6.3°C 97% 1.3 mph N2.1 kmh N 2.2 mph3.5 kmh 29.80 in1009.1 mb 0.31 in7.9 mm 0.00 in0.0 mm 0.56 in14.2 mm
02:59 AM 44.1°F6.7°C 43.3°F6.3°C 97% 1.3 mph N2.1 kmh N 2.2 mph3.5 kmh 29.80 in1009.1 mb 0.31 in7.9 mm 0.00 in0.0 mm 0.56 in14.2 mm
03:00 AM 44.1°F6.7°C 43.3°F6.3°C 97% 1.3 mph N2.1 kmh N 2.2 mph3.5 kmh 29.80 in1009.1 mb 0.31 in7.9 mm 0.00 in0.0 mm 0.56 in14.2 mm
03:01 AM 44.1°F6.7°C 43.3°F6.3°C 97% 1.3 mph N2.1 kmh N 2.2 mph3.5 kmh 29.80 in1009.1 mb 0.31 in7.9 mm 0.00 in0.0 mm 0.56 in14.2 mm
03:02 AM 44.1°F6.7°C 43.3°F6.3°C 97% 1.3 mph N2.1 kmh N 2.2 mph3.5 kmh 29.80 in1009.1 mb 0.00 in0.0 mm 0.00 in0.0 mm 0.56 in14.2 mm
03:03 AM 44.1°F6.7°C 43.3°F6.3°C 97% 1.3 mph N2.1 kmh N 2.2 mph3.5 kmh 29.80 in1009.1 mb 0.00 in0.0 mm 0.00 in0.0 mm 0.56 in14.2 mm
03:04 AM 44.1°F6.7°C 43.3°F6.3°C 97% 1.3 mph N2.1 kmh N 2.2 mph3.5 kmh 29.80 in1009.1 mb 0.00 in0.0 mm 0.00 in0.0 mm 0.56 in14.2 mm
03:05 AM 44.1°F6.7°C 43.3°F6.3°C 97% 1.3 mph N2.1 kmh N 2.2 mph3.5 kmh 29.80 in1009.1 mb 0.00 in0.0 mm 0.00 in0.0 mm 0.56 in14.2 mm
03:06 AM -- -- - - N N -- 29.80 in1009.1 mb 0.00 in0.0 mm 0.00 in0.0 mm 3.29 in83.6 mm
03:07 AM -- -- - - N N -- 29.80 in1009.1 mb 0.00 in0.0 mm 0.00 in0.0 mm 3.29 in83.6 mm
03:08 AM -- -- - - N N -- 29.80 in1009.1 mb 0.00 in0.0 mm 0.00 in0.0 mm 3.29 in83.6 mm
03:09 AM -- -- - - N N -- 29.80 in1009.1 mb 0.00 in0.0 mm 0.00 in0.0 mm 3.29 in83.6 mm
03:10 AM -- -- - - N N -- 29.79 in1008.8 mb 0.00 in0.0 mm 0.00 in0.0 mm 3.29 in83.6 mm
03:11 AM -- -- - - N N -- 29.80 in1009.1 mb 0.00 in0.0 mm 0.00 in0.0 mm 3.29 in83.6 mm
03:12 AM -- -- - - N N -- 29.80 in1009.1 mb 0.00 in0.0 mm 0.00 in0.0 mm 3.29 in83.6 mm
03:13 AM -- -- - - N N -- 29.80 in1009.1 mb 0.00 in0.0 mm 0.00 in0.0 mm 3.29 in83.6 mm
03:14 AM -- -- - - N N -- 29.80 in1009.1 mb 0.00 in0.0 mm 0.00 in0.0 mm 3.29 in83.6 mm
03:15 AM -- -- - - N N -- 29.80 in1009.1 mb 0.00 in0.0 mm 0.00 in0.0 mm 3.29 in83.6 mm
03:16 AM -- -- - - N N -- 29.80 in1009.1 mb 0.00 in0.0 mm 0.00 in0.0 mm 3.29 in83.6 mm
03:17 AM -- -- - - N N -- 29.80 in1009.1 mb 0.00 in0.0 mm 0.00 in0.0 mm 3.29 in83.6 mm
03:18 AM -- -- - - N N -- 29.80 in1009.1 mb 0.00 in0.0 mm 0.00 in0.0 mm 3.29 in83.6 mm
03:19 AM -- -- - - N N -- 29.80 in1009.1 mb 0.00 in0.0 mm 0.00 in0.0 mm 3.29 in83.6 mm
03:21 AM -- -- - - N N -- 29.80 in1009.1 mb 0.00 in0.0 mm 0.00 in0.0 mm 3.29 in83.6 mm
03:22 AM 44.2°F6.8°C 43.4°F6.3°C 97% 1.1 mph NE1.8 kmh NE 1.1 mph1.8 kmh 29.80 in1009.1 mb 0.90 in22.9 mm 54.00 in1371.6 mm 0.71 in18.0 mm
03:23 AM 44.4°F6.9°C 43.6°F6.4°C 97% 1.1 mph NE1.8 kmh NE 1.1 mph1.8 kmh 29.79 in1008.8 mb 0.90 in22.9 mm 0.00 in0.0 mm 0.71 in18.0 mm
03:24 AM 44.4°F6.9°C 43.6°F6.4°C 97% 0.9 mph NE1.4 kmh NE 2.2 mph3.5 kmh 29.80 in1009.1 mb 0.94 in23.9 mm 2.40 in61.0 mm 0.72 in18.3 mm
03:25 AM 44.4°F6.9°C 43.6°F6.4°C 97% 2.0 mph NE3.2 kmh NE 2.2 mph3.5 kmh 29.81 in1009.5 mb 0.94 in23.9 mm 0.00 in0.0 mm 0.72 in18.3 mm
03:26 AM 44.4°F6.9°C 43.6°F6.4°C 97% 2.0 mph NE3.2 kmh NE 2.2 mph3.5 kmh 29.79 in1008.8 mb 0.94 in23.9 mm 0.00 in0.0 mm 0.72 in18.3 mm
03:27 AM 44.4°F6.9°C 43.6°F6.4°C 97% 2.0 mph NE3.2 kmh NE 2.2 mph3.5 kmh 29.80 in1009.1 mb 0.94 in23.9 mm 0.00 in0.0 mm 0.72 in18.3 mm
03:28 AM 44.4°F6.9°C 43.6°F6.4°C 97% 2.0 mph NE3.2 kmh NE 2.2 mph3.5 kmh 29.81 in1009.5 mb 0.94 in23.9 mm 0.00 in0.0 mm 0.72 in18.3 mm
03:29 AM 44.4°F6.9°C 43.6°F6.4°C 97% 2.0 mph NE3.2 kmh NE 2.2 mph3.5 kmh 29.80 in1009.1 mb 0.94 in23.9 mm 0.00 in0.0 mm 0.72 in18.3 mm
03:30 AM 44.4°F6.9°C 43.6°F6.4°C 97% 2.0 mph NE3.2 kmh NE 2.2 mph3.5 kmh 29.81 in1009.5 mb 0.94 in23.9 mm 0.00 in0.0 mm 0.72 in18.3 mm
03:31 AM 44.4°F6.9°C 43.6°F6.4°C 97% 2.0 mph NE3.2 kmh NE 2.2 mph3.5 kmh 29.80 in1009.1 mb 0.94 in23.9 mm 0.00 in0.0 mm 0.72 in18.3 mm
03:32 AM 44.4°F6.9°C 43.6°F6.4°C 97% 2.0 mph NE3.2 kmh NE 2.2 mph3.5 kmh 29.80 in1009.1 mb 0.05 in1.3 mm 0.00 in0.0 mm 0.72 in18.3 mm
03:33 AM 44.4°F6.9°C 43.6°F6.4°C 97% 2.0 mph NE3.2 kmh NE 2.2 mph3.5 kmh 29.81 in1009.5 mb 0.05 in1.3 mm 0.00 in0.0 mm 0.72 in18.3 mm
03:34 AM 44.4°F6.9°C 43.6°F6.4°C 97% 2.0 mph NE3.2 kmh NE 2.2 mph3.5 kmh 29.81 in1009.5 mb 0.00 in0.0 mm 0.00 in0.0 mm 0.72 in18.3 mm
03:36 AM 44.4°F6.9°C 43.6°F6.4°C 97% 2.0 mph NE3.2 kmh NE 2.2 mph3.5 kmh 29.81 in1009.5 mb 0.00 in0.0 mm 0.00 in0.0 mm 0.72 in18.3 mm
03:37 AM 44.4°F6.9°C 43.6°F6.4°C 97% 2.0 mph NE3.2 kmh NE 2.2 mph3.5 kmh 29.81 in1009.5 mb 0.00 in0.0 mm 0.00 in0.0 mm 0.72 in18.3 mm
03:38 AM -- -- - - N N -- 29.81 in1009.5 mb 0.00 in0.0 mm 0.00 in0.0 mm 4.23 in107.4 mm
03:41 AM -- -- - - N N -- 29.81 in1009.5 mb 0.00 in0.0 mm 0.00 in0.0 mm 4.23 in107.4 mm
03:43 AM -- -- - - N N -- 29.81 in1009.5 mb 0.00 in0.0 mm 0.00 in0.0 mm 4.23 in107.4 mm
03:44 AM 44.2°F6.8°C 43.4°F6.3°C 97% 0.9 mph E1.4 kmh E 1.1 mph1.8 kmh 29.80 in1009.1 mb 0.00 in0.0 mm 0.00 in0.0 mm 0.72 in18.3 mm
03:47 AM 44.2°F6.8°C 43.7°F6.5°C 98% 0.7 mph ENE1.1 kmh ENE 1.1 mph1.8 kmh 29.80 in1009.1 mb 0.50 in12.7 mm 10.00 in254.0 mm 0.80 in20.3 mm
03:48 AM 44.2°F6.8°C 43.7°F6.5°C 98% 0.2 mph ENE0.3 kmh ENE 1.1 mph1.8 kmh 29.80 in1009.1 mb 0.54 in13.7 mm 2.40 in61.0 mm 0.81 in20.6 mm
03:49 AM 44.2°F6.8°C 43.7°F6.5°C 98% 1.3 mph ENE2.1 kmh ENE 2.2 mph3.5 kmh 29.80 in1009.1 mb 0.61 in15.5 mm 4.20 in106.7 mm 0.82 in20.8 mm
03:51 AM 44.2°F6.8°C 43.7°F6.5°C 98% 1.6 mph NE2.6 kmh NE 2.2 mph3.5 kmh 29.80 in1009.1 mb 0.61 in15.5 mm 0.00 in0.0 mm 0.82 in20.8 mm
03:52 AM 44.2°F6.8°C 43.7°F6.5°C 98% 1.6 mph NE2.6 kmh NE 2.2 mph3.5 kmh 29.79 in1008.8 mb 0.61 in15.5 mm 0.00 in0.0 mm 0.82 in20.8 mm
03:53 AM 44.2°F6.8°C 43.7°F6.5°C 98% 1.6 mph NE2.6 kmh NE 2.2 mph3.5 kmh 29.80 in1009.1 mb 0.61 in15.5 mm 0.00 in0.0 mm 0.82 in20.8 mm
03:54 AM 44.2°F6.8°C 43.7°F6.5°C 98% Calm Calm -- 29.81 in1009.5 mb 0.61 in15.5 mm 0.00 in0.0 mm 0.82 in20.8 mm
03:56 AM 44.2°F6.8°C 43.7°F6.5°C 98% Calm Calm -- 29.80 in1009.1 mb 0.66 in16.8 mm 1.50 in38.1 mm 0.83 in21.1 mm
03:57 AM 44.2°F6.8°C 43.7°F6.5°C 98% 2.2 mph NE3.5 kmh NE 2.2 mph3.5 kmh 29.81 in1009.5 mb 0.17 in4.3 mm 0.00 in0.0 mm 0.83 in21.1 mm
03:59 AM 44.2°F6.8°C 43.7°F6.5°C 98% Calm Calm -- 29.81 in1009.5 mb 0.12 in3.0 mm 0.00 in0.0 mm 0.84 in21.3 mm
04:00 AM 44.2°F6.8°C 43.7°F6.5°C 98% 0.9 mph NNE1.4 kmh NNE 1.1 mph1.8 kmh 29.80 in1009.1 mb 0.12 in3.0 mm 0.00 in0.0 mm 0.84 in21.3 mm
04:01 AM 44.1°F6.7°C 43.6°F6.4°C 98% 1.8 mph NNE2.9 kmh NNE 2.2 mph3.5 kmh 29.80 in1009.1 mb 0.12 in3.0 mm 0.00 in0.0 mm 0.84 in21.3 mm
04:02 AM 44.1°F6.7°C 43.6°F6.4°C 98% 1.8 mph NNE2.9 kmh NNE 2.2 mph3.5 kmh 29.81 in1009.5 mb 0.12 in3.0 mm 0.00 in0.0 mm 0.84 in21.3 mm
04:03 AM 44.1°F6.7°C 43.6°F6.4°C 98% Calm Calm -- 29.80 in1009.1 mb 0.12 in3.0 mm 0.00 in0.0 mm 0.84 in21.3 mm
04:04 AM 44.1°F6.7°C 43.6°F6.4°C 98% Calm Calm -- 29.81 in1009.5 mb 0.12 in3.0 mm 0.00 in0.0 mm 0.85 in21.6 mm
04:06 AM 44.2°F6.8°C 43.7°F6.5°C 98% Calm Calm -- 29.81 in1009.5 mb 0.19 in4.8 mm 2.10 in53.3 mm 0.86 in21.8 mm
04:07 AM 44.1°F6.7°C 43.6°F6.4°C 98% Calm Calm -- 29.81 in1009.5 mb 0.24 in6.1 mm 3.00 in76.2 mm 0.87 in22.1 mm
04:08 AM 44.1°F6.7°C 43.6°F6.4°C 98% Calm Calm -- 29.81 in1009.5 mb 0.24 in6.1 mm 0.00 in0.0 mm 0.87 in22.1 mm
04:09 AM 44.1°F6.7°C 43.6°F6.4°C 98% Calm Calm -- 29.81 in1009.5 mb 0.24 in6.1 mm 0.00 in0.0 mm 0.88 in22.4 mm
04:10 AM 44.1°F6.7°C 43.6°F6.4°C 98% Calm Calm -- 29.81 in1009.5 mb 0.24 in6.1 mm 0.00 in0.0 mm 0.88 in22.4 mm
04:11 AM 44.1°F6.7°C 43.6°F6.4°C 98% Calm Calm -- 29.81 in1009.5 mb 0.24 in6.1 mm 0.00 in0.0 mm 0.88 in22.4 mm
04:12 AM 44.1°F6.7°C 43.6°F6.4°C 98% Calm Calm -- 29.81 in1009.5 mb 0.28 in7.1 mm 2.40 in61.0 mm 0.89 in22.6 mm
04:13 AM 44.1°F6.7°C 43.6°F6.4°C 98% Calm Calm -- 29.81 in1009.5 mb 0.24 in6.1 mm 0.00 in0.0 mm 0.89 in22.6 mm
04:14 AM 44.1°F6.7°C 43.6°F6.4°C 98% Calm Calm -- 29.81 in1009.5 mb 0.24 in6.1 mm 0.00 in0.0 mm 0.89 in22.6 mm
04:16 AM 44.1°F6.7°C 43.6°F6.4°C 98% Calm Calm -- 29.81 in1009.5 mb 0.19 in4.8 mm 0.00 in0.0 mm 0.90 in22.9 mm
04:17 AM 44.1°F6.7°C 43.6°F6.4°C 98% 0.7 mph NE1.1 kmh NE 1.1 mph1.8 kmh 29.81 in1009.5 mb 0.19 in4.8 mm 0.00 in0.0 mm 0.90 in22.9 mm
04:19 AM 44.1°F6.7°C 43.6°F6.4°C 98% Calm Calm -- 29.80 in1009.1 mb 0.19 in4.8 mm 0.00 in0.0 mm 0.90 in22.9 mm
04:20 AM 44.1°F6.7°C 43.6°F6.4°C 98% Calm Calm -- 29.80 in1009.1 mb 0.17 in4.3 mm 0.00 in0.0 mm 0.91 in23.1 mm
04:21 AM 44.1°F6.7°C 43.6°F6.4°C 98% Calm Calm -- 29.80 in1009.1 mb 0.17 in4.3 mm 0.00 in0.0 mm 0.91 in23.1 mm
04:24 AM 44.1°F6.7°C 43.6°F6.4°C 98% Calm Calm -- 29.78 in1008.5 mb 0.19 in4.8 mm 0.40 in10.2 mm 0.92 in23.4 mm
04:25 AM 44.1°F6.7°C 43.6°F6.4°C 98% Calm Calm -- 29.79 in1008.8 mb 0.19 in4.8 mm 0.00 in0.0 mm 0.93 in23.6 mm
04:26 AM 44.1°F6.7°C 43.6°F6.4°C 98% Calm Calm -- 29.79 in1008.8 mb 0.19 in4.8 mm 0.00 in0.0 mm 0.93 in23.6 mm
04:27 AM 44.1°F6.7°C 43.6°F6.4°C 98% Calm Calm -- 29.78 in1008.5 mb 0.24 in6.1 mm 3.00 in76.2 mm 0.94 in23.9 mm
04:28 AM 44.1°F6.7°C 43.6°F6.4°C 98% Calm Calm -- 29.79 in1008.8 mb 0.24 in6.1 mm 0.00 in0.0 mm 0.94 in23.9 mm
04:30 AM 44.1°F6.7°C 43.6°F6.4°C 98% Calm Calm -- 29.79 in1008.8 mb 0.19 in4.8 mm 0.00 in0.0 mm 0.94 in23.9 mm
04:31 AM 44.1°F6.7°C 43.6°F6.4°C 98% Calm Calm -- 29.79 in1008.8 mb 0.26 in6.6 mm 4.20 in106.7 mm 0.95 in24.1 mm
04:32 AM 44.1°F6.7°C 43.6°F6.4°C 98% Calm Calm -- 29.79 in1008.8 mb 0.19 in4.8 mm 0.00 in0.0 mm 0.95 in24.1 mm
04:33 AM 44.1°F6.7°C 43.6°F6.4°C 98% Calm Calm -- 29.80 in1009.1 mb 0.19 in4.8 mm 0.00 in0.0 mm 0.95 in24.1 mm
04:34 AM 44.1°F6.7°C 43.6°F6.4°C 98% Calm Calm -- 29.79 in1008.8 mb 0.19 in4.8 mm 0.00 in0.0 mm 0.95 in24.1 mm
04:35 AM 44.1°F6.7°C 43.6°F6.4°C 98% 1.8 mph NE2.9 kmh NE 2.2 mph3.5 kmh 29.80 in1009.1 mb 0.12 in3.0 mm 0.00 in0.0 mm 0.95 in24.1 mm
04:36 AM 44.1°F6.7°C 43.6°F6.4°C 98% 1.3 mph NE2.1 kmh NE 2.2 mph3.5 kmh 29.80 in1009.1 mb 0.12 in3.0 mm 0.00 in0.0 mm 0.95 in24.1 mm
04:37 AM 44.1°F6.7°C 43.6°F6.4°C 98% 1.1 mph NE1.8 kmh NE 1.1 mph1.8 kmh 29.80 in1009.1 mb 0.12 in3.0 mm 0.00 in0.0 mm 0.96 in24.4 mm
04:38 AM 44.1°F6.7°C 43.6°F6.4°C 98% 0.2 mph ENE0.3 kmh ENE 1.1 mph1.8 kmh 29.79 in1008.8 mb 0.12 in3.0 mm 0.00 in0.0 mm 0.96 in24.4 mm
04:39 AM 43.9°F6.6°C 43.4°F6.3°C 98% Calm Calm -- 29.80 in1009.1 mb 0.19 in4.8 mm 4.20 in106.7 mm 0.97 in24.6 mm
04:40 AM 43.9°F6.6°C 43.4°F6.3°C 98% Calm Calm -- 29.79 in1008.8 mb 0.12 in3.0 mm 0.00 in0.0 mm 0.97 in24.6 mm
04:41 AM 43.9°F6.6°C 43.4°F6.3°C 98% Calm Calm -- 29.79 in1008.8 mb 0.12 in3.0 mm 0.00 in0.0 mm 0.97 in24.6 mm
04:43 AM 43.9°F6.6°C 43.4°F6.3°C 98% Calm Calm -- 29.78 in1008.5 mb 0.12 in3.0 mm 0.00 in0.0 mm 0.97 in24.6 mm
04:44 AM 44.1°F6.7°C 43.6°F6.4°C 98% 1.6 mph ENE2.6 kmh ENE 2.2 mph3.5 kmh 29.78 in1008.5 mb 0.12 in3.0 mm 0.00 in0.0 mm 0.97 in24.6 mm
04:45 AM 44.1°F6.7°C 43.6°F6.4°C 98% 1.6 mph ENE2.6 kmh ENE 2.2 mph3.5 kmh 29.79 in1008.8 mb 0.12 in3.0 mm 0.00 in0.0 mm 0.97 in24.6 mm
04:46 AM 44.1°F6.7°C 43.6°F6.4°C 98% 1.8 mph NE2.9 kmh NE 2.2 mph3.5 kmh 29.78 in1008.5 mb 0.17 in4.3 mm 3.00 in76.2 mm 0.98 in24.9 mm
04:47 AM 44.1°F6.7°C 43.6°F6.4°C 98% 1.3 mph NE2.1 kmh NE 2.2 mph3.5 kmh 29.78 in1008.5 mb 0.19 in4.8 mm 1.20 in30.5 mm 0.99 in25.1 mm
04:49 AM 44.1°F6.7°C 43.6°F6.4°C 98% 1.3 mph NE2.1 kmh NE 2.2 mph3.5 kmh 29.78 in1008.5 mb 0.19 in4.8 mm 0.00 in0.0 mm 0.99 in25.1 mm
04:50 AM 44.1°F6.7°C 43.6°F6.4°C 98% 1.3 mph NE2.1 kmh NE 2.2 mph3.5 kmh 29.78 in1008.5 mb 0.12 in3.0 mm 0.00 in0.0 mm 0.99 in25.1 mm
04:51 AM 44.1°F6.7°C 43.6°F6.4°C 98% 1.3 mph NE2.1 kmh NE 2.2 mph3.5 kmh 29.78 in1008.5 mb 0.12 in3.0 mm 0.00 in0.0 mm 0.99 in25.1 mm
04:53 AM 44.1°F6.7°C 43.6°F6.4°C 98% Calm Calm -- 29.78 in1008.5 mb 0.17 in4.3 mm 1.50 in38.1 mm 1.00 in25.4 mm
04:54 AM 44.1°F6.7°C 43.6°F6.4°C 98% Calm Calm -- 29.78 in1008.5 mb 0.24 in6.1 mm 4.20 in106.7 mm 1.01 in25.7 mm
04:55 AM 44.1°F6.7°C 43.6°F6.4°C 98% Calm Calm -- 29.77 in1008.1 mb 0.24 in6.1 mm 0.00 in0.0 mm 1.01 in25.7 mm
04:56 AM 44.1°F6.7°C 43.6°F6.4°C 98% Calm Calm -- 29.78 in1008.5 mb 0.19 in4.8 mm 0.00 in0.0 mm 1.01 in25.7 mm
04:57 AM 44.1°F6.7°C 43.6°F6.4°C 98% Calm Calm -- 29.77 in1008.1 mb 0.12 in3.0 mm 0.00 in0.0 mm 1.01 in25.7 mm
04:58 AM 44.1°F6.7°C 43.6°F6.4°C 98% Calm Calm -- 29.77 in1008.1 mb 0.12 in3.0 mm 0.00 in0.0 mm 1.01 in25.7 mm
04:59 AM 44.1°F6.7°C 43.6°F6.4°C 98% Calm Calm -- 29.77 in1008.1 mb 0.12 in3.0 mm 0.00 in0.0 mm 1.01 in25.7 mm
05:00 AM 44.1°F6.7°C 43.6°F6.4°C 98% Calm Calm -- 29.77 in1008.1 mb 0.12 in3.0 mm 0.00 in0.0 mm 1.01 in25.7 mm
05:01 AM 44.1°F6.7°C 43.6°F6.4°C 98% Calm Calm -- 29.78 in1008.5 mb 0.12 in3.0 mm 0.00 in0.0 mm 1.01 in25.7 mm
05:02 AM 44.1°F6.7°C 43.6°F6.4°C 98% Calm Calm -- 29.77 in1008.1 mb 0.07 in1.8 mm 0.00 in0.0 mm 1.01 in25.7 mm
05:04 AM 44.1°F6.7°C 43.6°F6.4°C 98% Calm Calm -- 29.78 in1008.5 mb 0.00 in0.0 mm 0.00 in0.0 mm 1.01 in25.7 mm
05:05 AM 44.1°F6.7°C 43.6°F6.4°C 98% Calm Calm -- 29.78 in1008.5 mb 0.00 in0.0 mm 0.00 in0.0 mm 1.01 in25.7 mm
05:06 AM 44.1°F6.7°C 43.6°F6.4°C 98% Calm Calm -- 29.78 in1008.5 mb 0.00 in0.0 mm 0.00 in0.0 mm 1.01 in25.7 mm
05:07 AM -- -- - - N N -- 29.78 in1008.5 mb 0.00 in0.0 mm 0.00 in0.0 mm 5.45 in138.4 mm
05:09 AM -- -- - - N N -- 29.77 in1008.1 mb 0.00 in0.0 mm 0.00 in0.0 mm 5.45 in138.4 mm
05:10 AM -- -- - - N N -- 29.78 in1008.5 mb 0.00 in0.0 mm 0.00 in0.0 mm 5.45 in138.4 mm
05:11 AM 43.9°F6.6°C 43.4°F6.3°C 98% 0.7 mph ENE1.1 kmh ENE 1.1 mph1.8 kmh 29.78 in1008.5 mb 0.00 in0.0 mm 0.00 in0.0 mm 1.01 in25.7 mm
05:13 AM 44.1°F6.7°C 43.6°F6.4°C 98% 0.9 mph ENE1.4 kmh ENE 1.1 mph1.8 kmh 29.78 in1008.5 mb 0.00 in0.0 mm 0.00 in0.0 mm 1.01 in25.7 mm
05:14 AM 44.1°F6.7°C 43.6°F6.4°C 98% 1.1 mph ENE1.8 kmh ENE 1.1 mph1.8 kmh 29.77 in1008.1 mb 0.00 in0.0 mm 0.00 in0.0 mm 1.01 in25.7 mm
05:15 AM 44.1°F6.7°C 43.6°F6.4°C 98% 0.9 mph ENE1.4 kmh ENE 1.1 mph1.8 kmh 29.78 in1008.5 mb 0.00 in0.0 mm 0.00 in0.0 mm 1.01 in25.7 mm
05:16 AM 44.1°F6.7°C 43.6°F6.4°C 98% Calm Calm -- 29.78 in1008.5 mb 0.00 in0.0 mm 0.00 in0.0 mm 1.01 in25.7 mm
05:17 AM 44.1°F6.7°C 43.6°F6.4°C 98% Calm Calm -- 29.78 in1008.5 mb 0.00 in0.0 mm 0.00 in0.0 mm 1.01 in25.7 mm
05:18 AM 44.1°F6.7°C 43.6°F6.4°C 98% Calm Calm -- 29.78 in1008.5 mb 0.00 in0.0 mm 0.00 in0.0 mm 1.01 in25.7 mm
05:19 AM 44.1°F6.7°C 43.6°F6.4°C 98% 1.1 mph ENE1.8 kmh ENE 1.1 mph1.8 kmh 29.78 in1008.5 mb 0.00 in0.0 mm 0.00 in0.0 mm 1.01 in25.7 mm
05:20 AM 44.1°F6.7°C 43.6°F6.4°C 98% 0.7 mph NE1.1 kmh NE 1.1 mph1.8 kmh 29.79 in1008.8 mb 0.00 in0.0 mm 0.00 in0.0 mm 1.01 in25.7 mm
05:21 AM 44.1°F6.7°C 43.6°F6.4°C 98% 0.2 mph NE0.3 kmh NE 1.1 mph1.8 kmh 29.79 in1008.8 mb 0.00 in0.0 mm 0.00 in0.0 mm 1.01 in25.7 mm
05:22 AM 44.1°F6.7°C 43.6°F6.4°C 98% Calm Calm -- 29.79 in1008.8 mb 0.00 in0.0 mm 0.00 in0.0 mm 1.01 in25.7 mm
05:23 AM 44.1°F6.7°C 43.6°F6.4°C 98% 0.2 mph ENE0.3 kmh ENE 1.1 mph1.8 kmh 29.79 in1008.8 mb 0.00 in0.0 mm 0.00 in0.0 mm 1.01 in25.7 mm
05:24 AM 44.1°F6.7°C 43.6°F6.4°C 98% 0.2 mph ENE0.3 kmh ENE 1.1 mph1.8 kmh 29.79 in1008.8 mb 0.00 in0.0 mm 0.00 in0.0 mm 1.01 in25.7 mm
05:25 AM 44.1°F6.7°C 43.6°F6.4°C 98% 0.7 mph ENE1.1 kmh ENE 1.1 mph1.8 kmh 29.79 in1008.8 mb 0.00 in0.0 mm 0.00 in0.0 mm 1.01 in25.7 mm
05:26 AM 44.1°F6.7°C 43.6°F6.4°C 98% Calm Calm -- 29.79 in1008.8 mb 0.00 in0.0 mm 0.00 in0.0 mm 1.01 in25.7 mm
05:27 AM 44.1°F6.7°C 43.6°F6.4°C 98% Calm Calm -- 29.80 in1009.1 mb 0.00 in0.0 mm 0.00 in0.0 mm 1.01 in25.7 mm
05:28 AM 44.1°F6.7°C 43.6°F6.4°C 98% Calm Calm -- 29.80 in1009.1 mb 0.00 in0.0 mm 0.00 in0.0 mm 1.01 in25.7 mm
05:29 AM 44.1°F6.7°C 43.6°F6.4°C 98% Calm Calm -- 29.79 in1008.8 mb 0.00 in0.0 mm 0.00 in0.0 mm 1.01 in25.7 mm
05:30 AM 44.1°F6.7°C 43.6°F6.4°C 98% Calm Calm -- 29.78 in1008.5 mb 0.00 in0.0 mm 0.00 in0.0 mm 1.01 in25.7 mm
05:31 AM 44.1°F6.7°C 43.6°F6.4°C 98% Calm Calm -- 29.78 in1008.5 mb 0.00 in0.0 mm 0.00 in0.0 mm 1.01 in25.7 mm
05:32 AM 44.1°F6.7°C 43.6°F6.4°C 98% 0.7 mph ENE1.1 kmh ENE 1.1 mph1.8 kmh 29.78 in1008.5 mb 0.00 in0.0 mm 0.00 in0.0 mm 1.01 in25.7 mm
05:33 AM 44.1°F6.7°C 43.6°F6.4°C 98% 1.1 mph ESE1.8 kmh ESE 1.1 mph1.8 kmh 29.79 in1008.8 mb 0.00 in0.0 mm 0.00 in0.0 mm 1.01 in25.7 mm
05:34 AM 44.1°F6.7°C 43.6°F6.4°C 98% 0.9 mph ESE1.4 kmh ESE 1.1 mph1.8 kmh 29.80 in1009.1 mb 0.00 in0.0 mm 0.00 in0.0 mm 1.01 in25.7 mm
05:35 AM 44.1°F6.7°C 43.6°F6.4°C 98% Calm Calm -- 29.80 in1009.1 mb 0.00 in0.0 mm 0.00 in0.0 mm 1.01 in25.7 mm
05:36 AM 44.1°F6.7°C 43.6°F6.4°C 98% Calm Calm -- 29.80 in1009.1 mb 0.00 in0.0 mm 0.00 in0.0 mm 1.01 in25.7 mm
05:37 AM 44.1°F6.7°C 43.6°F6.4°C 98% Calm Calm -- 29.80 in1009.1 mb 0.00 in0.0 mm 0.00 in0.0 mm 1.01 in25.7 mm
05:38 AM 44.1°F6.7°C 43.6°F6.4°C 98% 0.2 mph ESE0.3 kmh ESE 1.1 mph1.8 kmh 29.80 in1009.1 mb 0.00 in0.0 mm 0.00 in0.0 mm 1.01 in25.7 mm
05:39 AM 44.1°F6.7°C 43.6°F6.4°C 98% 0.9 mph ESE1.4 kmh ESE 1.1 mph1.8 kmh 29.80 in1009.1 mb 0.00 in0.0 mm 0.00 in0.0 mm 1.01 in25.7 mm
05:41 AM 44.1°F6.7°C 43.6°F6.4°C 98% Calm Calm -- 29.80 in1009.1 mb 0.00 in0.0 mm 0.00 in0.0 mm 1.01 in25.7 mm
05:42 AM 44.1°F6.7°C 43.6°F6.4°C 98% Calm Calm -- 29.81 in1009.5 mb 0.00 in0.0 mm 0.00 in0.0 mm 1.01 in25.7 mm
05:43 AM 44.1°F6.7°C 43.6°F6.4°C 98% 0.2 mph ESE0.3 kmh ESE 1.1 mph1.8 kmh 29.81 in1009.5 mb 0.00 in0.0 mm 0.00 in0.0 mm 1.01 in25.7 mm
05:44 AM 44.1°F6.7°C 43.6°F6.4°C 98% 0.4 mph ESE0.6 kmh ESE 1.1 mph1.8 kmh 29.80 in1009.1 mb 0.00 in0.0 mm 0.00 in0.0 mm 1.01 in25.7 mm
05:45 AM 44.1°F6.7°C 43.6°F6.4°C 98% 0.7 mph ESE1.1 kmh ESE 1.1 mph1.8 kmh 29.80 in1009.1 mb 0.00 in0.0 mm 0.00 in0.0 mm 1.01 in25.7 mm
05:46 AM 44.1°F6.7°C 43.6°F6.4°C 98% Calm Calm -- 29.80 in1009.1 mb 0.00 in0.0 mm 0.00 in0.0 mm 1.01 in25.7 mm
05:47 AM 44.1°F6.7°C 43.6°F6.4°C 98% 0.7 mph ESE1.1 kmh ESE 1.1 mph1.8 kmh 29.80 in1009.1 mb 0.00 in0.0 mm 0.00 in0.0 mm 1.01 in25.7 mm
05:48 AM 44.1°F6.7°C 43.6°F6.4°C 98% 2.2 mph ENE3.5 kmh ENE 2.2 mph3.5 kmh 29.79 in1008.8 mb 0.00 in0.0 mm 0.00 in0.0 mm 1.01 in25.7 mm
05:49 AM 44.2°F6.8°C 43.7°F6.5°C 98% 0.7 mph NE1.1 kmh NE 1.1 mph1.8 kmh 29.79 in1008.8 mb 0.00 in0.0 mm 0.00 in0.0 mm 1.01 in25.7 mm
05:50 AM 44.2°F6.8°C 43.7°F6.5°C 98% Calm Calm -- 29.78 in1008.5 mb 0.00 in0.0 mm 0.00 in0.0 mm 1.01 in25.7 mm
05:51 AM 44.2°F6.8°C 43.7°F6.5°C 98% 0.2 mph NE0.3 kmh NE 1.1 mph1.8 kmh 29.78 in1008.5 mb 0.00 in0.0 mm 0.00 in0.0 mm 1.01 in25.7 mm
05:52 AM 44.2°F6.8°C 43.7°F6.5°C 98% 1.3 mph SE2.1 kmh SE 2.2 mph3.5 kmh 29.80 in1009.1 mb 0.00 in0.0 mm 0.00 in0.0 mm 1.01 in25.7 mm
05:53 AM 44.2°F6.8°C 43.7°F6.5°C 98% 3.8 mph W6.1 kmh W 6.9 mph11.1 kmh 29.80 in1009.1 mb 0.00 in0.0 mm 0.00 in0.0 mm 1.01 in25.7 mm
05:54 AM 44.2°F6.8°C 43.7°F6.5°C 98% 2.2 mph NW3.5 kmh NW 3.4 mph5.5 kmh 29.80 in1009.1 mb 0.00 in0.0 mm 0.00 in0.0 mm 1.01 in25.7 mm
05:55 AM 44.2°F6.8°C 43.7°F6.5°C 98% 3.4 mph N5.5 kmh N 4.5 mph7.2 kmh 29.80 in1009.1 mb 0.00 in0.0 mm 0.00 in0.0 mm 1.01 in25.7 mm
05:56 AM 44.2°F6.8°C 43.7°F6.5°C 98% 1.8 mph ENE2.9 kmh ENE 2.2 mph3.5 kmh 29.80 in1009.1 mb 0.05 in1.3 mm 3.00 in76.2 mm 1.02 in25.9 mm
05:57 AM 44.2°F6.8°C 43.7°F6.5°C 98% 1.3 mph E2.1 kmh E 2.2 mph3.5 kmh 29.80 in1009.1 mb 0.05 in1.3 mm 0.00 in0.0 mm 1.02 in25.9 mm
05:58 AM 44.2°F6.8°C 43.7°F6.5°C 98% Calm Calm -- 29.80 in1009.1 mb 0.05 in1.3 mm 0.00 in0.0 mm 1.02 in25.9 mm
06:00 AM 44.2°F6.8°C 43.7°F6.5°C 98% 0.4 mph E0.6 kmh E 1.1 mph1.8 kmh 29.79 in1008.8 mb 0.05 in1.3 mm 0.00 in0.0 mm 1.02 in25.9 mm
06:01 AM 44.2°F6.8°C 43.7°F6.5°C 98% 2.5 mph NNE4.0 kmh NNE 3.4 mph5.5 kmh 29.78 in1008.5 mb 0.05 in1.3 mm 0.00 in0.0 mm 1.02 in25.9 mm
06:02 AM 44.2°F6.8°C 43.7°F6.5°C 98% 1.8 mph ENE2.9 kmh ENE 2.2 mph3.5 kmh 29.78 in1008.5 mb 0.05 in1.3 mm 0.00 in0.0 mm 1.02 in25.9 mm
06:03 AM 44.2°F6.8°C 43.7°F6.5°C 98% 1.8 mph ENE2.9 kmh ENE 2.2 mph3.5 kmh 29.79 in1008.8 mb 0.05 in1.3 mm 0.00 in0.0 mm 1.02 in25.9 mm
06:05 AM 44.2°F6.8°C 43.7°F6.5°C 98% 2.9 mph NNE4.7 kmh NNE 4.5 mph7.2 kmh 29.78 in1008.5 mb 0.05 in1.3 mm 0.00 in0.0 mm 1.02 in25.9 mm
06:06 AM 44.4°F6.9°C 43.9°F6.6°C 98% 4.9 mph WNW7.9 kmh WNW 6.9 mph11.1 kmh 29.78 in1008.5 mb 0.00 in0.0 mm 0.00 in0.0 mm 1.02 in25.9 mm
06:08 AM 44.4°F6.9°C 43.9°F6.6°C 98% 4.5 mph NW7.2 kmh NW 4.5 mph7.2 kmh 29.79 in1008.8 mb 0.00 in0.0 mm 0.00 in0.0 mm 1.02 in25.9 mm
06:09 AM 44.8°F7.1°C 43.7°F6.5°C 96% 2.5 mph N4.0 kmh N 3.4 mph5.5 kmh 29.78 in1008.5 mb 0.00 in0.0 mm 0.00 in0.0 mm 1.02 in25.9 mm
06:11 AM 45.0°F7.2°C 43.9°F6.6°C 96% 2.5 mph NW4.0 kmh NW 3.4 mph5.5 kmh 29.78 in1008.5 mb 0.00 in0.0 mm 0.00 in0.0 mm 1.02 in25.9 mm
06:12 AM 45.0°F7.2°C 43.7°F6.5°C 95% Calm Calm -- 29.77 in1008.1 mb 0.00 in0.0 mm 0.00 in0.0 mm 1.02 in25.9 mm
06:13 AM 45.1°F7.3°C 43.8°F6.6°C 95% 1.3 mph ENE2.1 kmh ENE 2.2 mph3.5 kmh 29.78 in1008.5 mb 0.00 in0.0 mm 0.00 in0.0 mm 1.02 in25.9 mm
06:14 AM 45.1°F7.3°C 43.8°F6.6°C 95% 1.8 mph E2.9 kmh E 2.2 mph3.5 kmh 29.78 in1008.5 mb 0.00 in0.0 mm 0.00 in0.0 mm 1.02 in25.9 mm
06:15 AM 45.0°F7.2°C 43.9°F6.6°C 96% 0.9 mph E1.4 kmh E 1.1 mph1.8 kmh 29.78 in1008.5 mb 0.00 in0.0 mm 0.00 in0.0 mm 1.02 in25.9 mm
06:16 AM 44.8°F7.1°C 43.7°F6.5°C 96% Calm Calm -- 29.78 in1008.5 mb 0.00 in0.0 mm 0.00 in0.0 mm 1.02 in25.9 mm
06:18 AM 44.8°F7.1°C 43.7°F6.5°C 96% Calm Calm -- 29.78 in1008.5 mb 0.00 in0.0 mm 0.00 in0.0 mm 1.02 in25.9 mm
06:19 AM 44.8°F7.1°C 43.5°F6.4°C 95% 1.1 mph SE1.8 kmh SE 1.1 mph1.8 kmh 29.78 in1008.5 mb 0.00 in0.0 mm 0.00 in0.0 mm 1.02 in25.9 mm
06:21 AM 45.5°F7.5°C 43.6°F6.4°C 93% 0.4 mph E0.6 kmh E 1.1 mph1.8 kmh 29.78 in1008.5 mb 0.00 in0.0 mm 0.00 in0.0 mm 1.02 in25.9 mm
06:22 AM 45.9°F7.7°C 44.3°F6.8°C 94% Calm Calm -- 29.78 in1008.5 mb 0.00 in0.0 mm 0.00 in0.0 mm 1.02 in25.9 mm
06:23 AM 45.9°F7.7°C 44.3°F6.8°C 94% 1.1 mph E1.8 kmh E 1.1 mph1.8 kmh 29.79 in1008.8 mb 0.00 in0.0 mm 0.00 in0.0 mm 1.02 in25.9 mm
06:25 AM 45.7°F7.6°C 44.4°F6.9°C 95% Calm Calm -- 29.79 in1008.8 mb 0.00 in0.0 mm 0.00 in0.0 mm 1.02 in25.9 mm
06:26 AM 45.7°F7.6°C 44.4°F6.9°C 95% 1.1 mph E1.8 kmh E 1.1 mph1.8 kmh 29.79 in1008.8 mb 0.00 in0.0 mm 0.00 in0.0 mm 1.02 in25.9 mm
06:27 AM 45.5°F7.5°C 44.2°F6.8°C 95% 1.3 mph E2.1 kmh E 2.2 mph3.5 kmh 29.79 in1008.8 mb 0.00 in0.0 mm 0.00 in0.0 mm 1.02 in25.9 mm
06:28 AM 45.5°F7.5°C 44.4°F6.9°C 96% 2.2 mph SE3.5 kmh SE 2.2 mph3.5 kmh 29.79 in1008.8 mb 0.00 in0.0 mm 0.00 in0.0 mm 1.02 in25.9 mm
06:29 AM 45.1°F7.3°C 44.0°F6.7°C 96% 2.0 mph E3.2 kmh E 2.2 mph3.5 kmh 29.78 in1008.5 mb 0.00 in0.0 mm 0.00 in0.0 mm 1.02 in25.9 mm
06:30 AM 45.1°F7.3°C 44.0°F6.7°C 96% 2.0 mph E3.2 kmh E 2.2 mph3.5 kmh 29.79 in1008.8 mb 0.00 in0.0 mm 0.00 in0.0 mm 1.02 in25.9 mm
06:31 AM 45.1°F7.3°C 44.0°F6.7°C 96% 2.2 mph SE3.5 kmh SE 2.2 mph3.5 kmh 29.78 in1008.5 mb 0.00 in0.0 mm 0.00 in0.0 mm 1.02 in25.9 mm
06:32 AM 45.1°F7.3°C 44.0°F6.7°C 96% 1.3 mph SE2.1 kmh SE 2.2 mph3.5 kmh 29.79 in1008.8 mb 0.07 in1.8 mm 4.20 in106.7 mm 1.03 in26.2 mm
06:33 AM 45.1°F7.3°C 44.0°F6.7°C 96% 0.9 mph SE1.4 kmh SE 2.2 mph3.5 kmh 29.79 in1008.8 mb 0.07 in1.8 mm 0.00 in0.0 mm 1.03 in26.2 mm
06:35 AM 45.1°F7.3°C 44.0°F6.7°C 96% 0.9 mph SE1.4 kmh SE 2.2 mph3.5 kmh 29.80 in1009.1 mb 0.07 in1.8 mm 0.00 in0.0 mm 1.03 in26.2 mm
06:37 AM 45.1°F7.3°C 44.0°F6.7°C 96% 0.9 mph SE1.4 kmh SE 2.2 mph3.5 kmh 29.79 in1008.8 mb 0.07 in1.8 mm 0.00 in0.0 mm 1.03 in26.2 mm
06:38 AM 45.1°F7.3°C 44.0°F6.7°C 96% 0.9 mph SE1.4 kmh SE 2.2 mph3.5 kmh 29.78 in1008.5 mb 0.07 in1.8 mm 0.00 in0.0 mm 1.03 in26.2 mm
06:39 AM 45.1°F7.3°C 44.0°F6.7°C 96% 0.9 mph SE1.4 kmh SE 2.2 mph3.5 kmh 29.78 in1008.5 mb 0.07 in1.8 mm 0.00 in0.0 mm 1.03 in26.2 mm
06:40 AM 45.1°F7.3°C 44.0°F6.7°C 96% 0.9 mph E1.4 kmh E 1.1 mph1.8 kmh 29.78 in1008.5 mb 0.07 in1.8 mm 0.00 in0.0 mm 1.03 in26.2 mm
06:42 AM 45.1°F7.3°C 44.0°F6.7°C 96% 0.9 mph E1.4 kmh E 1.1 mph1.8 kmh 29.78 in1008.5 mb 0.07 in1.8 mm 0.00 in0.0 mm 1.03 in26.2 mm
06:43 AM 45.1°F7.3°C 44.0°F6.7°C 96% Calm Calm -- 29.79 in1008.8 mb 0.12 in3.0 mm 3.00 in76.2 mm 1.05 in26.7 mm
06:44 AM 45.1°F7.3°C 44.0°F6.7°C 96% Calm Calm -- 29.79 in1008.8 mb 0.12 in3.0 mm 0.00 in0.0 mm 1.05 in26.7 mm
06:45 AM 45.1°F7.3°C 44.0°F6.7°C 96% Calm Calm -- 29.79 in1008.8 mb 0.12 in3.0 mm 0.00 in0.0 mm 1.05 in26.7 mm
06:47 AM 45.1°F7.3°C 44.0°F6.7°C 96% Calm Calm -- 29.79 in1008.8 mb 0.12 in3.0 mm 0.00 in0.0 mm 1.05 in26.7 mm
06:48 AM 45.1°F7.3°C 44.0°F6.7°C 96% Calm Calm -- 29.80 in1009.1 mb 0.12 in3.0 mm 0.00 in0.0 mm 1.05 in26.7 mm
06:49 AM 45.1°F7.3°C 44.0°F6.7°C 96% Calm Calm -- 29.79 in1008.8 mb 0.12 in3.0 mm 0.00 in0.0 mm 1.05 in26.7 mm
06:50 AM 45.1°F7.3°C 44.0°F6.7°C 96% Calm Calm -- 29.80 in1009.1 mb 0.12 in3.0 mm 0.00 in0.0 mm 1.05 in26.7 mm
06:51 AM 45.1°F7.3°C 44.0°F6.7°C 96% Calm Calm -- 29.81 in1009.5 mb 0.12 in3.0 mm 0.00 in0.0 mm 1.05 in26.7 mm
06:52 AM 45.1°F7.3°C 44.0°F6.7°C 96% Calm Calm -- 29.81 in1009.5 mb 0.00 in0.0 mm 0.00 in0.0 mm 1.05 in26.7 mm
06:53 AM 45.1°F7.3°C 44.0°F6.7°C 96% Calm Calm -- 29.81 in1009.5 mb 0.00 in0.0 mm 0.00 in0.0 mm 1.05 in26.7 mm
06:55 AM 45.1°F7.3°C 44.3°F6.8°C 97% 2.7 mph SE4.3 kmh SE 4.5 mph7.2 kmh 29.81 in1009.5 mb 0.00 in0.0 mm 0.00 in0.0 mm 1.05 in26.7 mm
06:57 AM 45.3°F7.4°C 44.2°F6.8°C 96% 2.2 mph ENE3.5 kmh ENE 2.2 mph3.5 kmh 29.81 in1009.5 mb 0.00 in0.0 mm 0.00 in0.0 mm 1.05 in26.7 mm
07:00 AM 45.3°F7.4°C 44.5°F6.9°C 97% 0.2 mph ENE0.3 kmh ENE 1.1 mph1.8 kmh 29.82 in1009.8 mb 0.00 in0.0 mm 0.00 in0.0 mm 1.05 in26.7 mm
07:01 AM 45.3°F7.4°C 44.5°F6.9°C 97% 0.7 mph ENE1.1 kmh ENE 1.1 mph1.8 kmh 29.81 in1009.5 mb 0.00 in0.0 mm 0.00 in0.0 mm 1.05 in26.7 mm
07:02 AM 45.3°F7.4°C 44.5°F6.9°C 97% Calm Calm -- 29.81 in1009.5 mb 0.00 in0.0 mm 0.00 in0.0 mm 1.05 in26.7 mm
07:03 AM 45.3°F7.4°C 44.5°F6.9°C 97% Calm Calm -- 29.81 in1009.5 mb 0.00 in0.0 mm 0.00 in0.0 mm 1.05 in26.7 mm
07:04 AM 45.3°F7.4°C 44.5°F6.9°C 97% Calm Calm -- 29.81 in1009.5 mb 0.00 in0.0 mm 0.00 in0.0 mm 1.05 in26.7 mm
07:05 AM 45.3°F7.4°C 44.5°F6.9°C 97% Calm Calm -- 29.81 in1009.5 mb 0.00 in0.0 mm 0.00 in0.0 mm 1.05 in26.7 mm
07:06 AM 45.1°F7.3°C 44.3°F6.8°C 97% 0.7 mph ENE1.1 kmh ENE 1.1 mph1.8 kmh 29.81 in1009.5 mb 0.00 in0.0 mm 0.00 in0.0 mm 1.05 in26.7 mm
07:07 AM 45.1°F7.3°C 44.3°F6.8°C 97% Calm Calm -- 29.81 in1009.5 mb 0.07 in1.8 mm 4.20 in106.7 mm 1.06 in26.9 mm
07:08 AM 45.0°F7.2°C 44.2°F6.8°C 97% 0.9 mph E1.4 kmh E 1.1 mph1.8 kmh 29.81 in1009.5 mb 0.07 in1.8 mm 0.00 in0.0 mm 1.06 in26.9 mm
07:09 AM 45.0°F7.2°C 44.2°F6.8°C 97% 0.2 mph E0.3 kmh E 1.1 mph1.8 kmh 29.81 in1009.5 mb 0.07 in1.8 mm 0.00 in0.0 mm 1.06 in26.9 mm
07:10 AM 45.0°F7.2°C 44.5°F6.9°C 98% 0.2 mph E0.3 kmh E 1.1 mph1.8 kmh 29.81 in1009.5 mb 0.07 in1.8 mm 0.00 in0.0 mm 1.06 in26.9 mm
07:11 AM 45.0°F7.2°C 44.5°F6.9°C 98% 0.9 mph E1.4 kmh E 1.1 mph1.8 kmh 29.81 in1009.5 mb 0.07 in1.8 mm 0.00 in0.0 mm 1.06 in26.9 mm
07:13 AM 45.0°F7.2°C 44.5°F6.9°C 98% 0.9 mph E1.4 kmh E 1.1 mph1.8 kmh 29.81 in1009.5 mb 0.07 in1.8 mm 0.00 in0.0 mm 1.06 in26.9 mm
07:14 AM 45.0°F7.2°C 44.5°F6.9°C 98% Calm Calm -- 29.81 in1009.5 mb 0.07 in1.8 mm 0.00 in0.0 mm 1.06 in26.9 mm
07:17 AM 45.0°F7.2°C 44.5°F6.9°C 98% Calm Calm -- 29.80 in1009.1 mb 0.00 in0.0 mm 0.00 in0.0 mm 1.06 in26.9 mm
07:18 AM 45.0°F7.2°C 44.5°F6.9°C 98% Calm Calm -- 29.80 in1009.1 mb 0.00 in0.0 mm 0.00 in0.0 mm 1.06 in26.9 mm
07:19 AM 45.0°F7.2°C 44.5°F6.9°C 98% Calm Calm -- 29.80 in1009.1 mb 0.00 in0.0 mm 0.00 in0.0 mm 1.06 in26.9 mm
07:20 AM 45.0°F7.2°C 44.5°F6.9°C 98% 0.2 mph E0.3 kmh E 1.1 mph1.8 kmh 29.79 in1008.8 mb 0.00 in0.0 mm 0.00 in0.0 mm 1.06 in26.9 mm
07:21 AM 45.0°F7.2°C 44.5°F6.9°C 98% 0.4 mph E0.6 kmh E 1.1 mph1.8 kmh 29.79 in1008.8 mb 0.00 in0.0 mm 0.00 in0.0 mm 1.06 in26.9 mm
07:22 AM 45.0°F7.2°C 44.5°F6.9°C 98% Calm Calm -- 29.80 in1009.1 mb 0.00 in0.0 mm 0.00 in0.0 mm 1.06 in26.9 mm
07:23 AM 45.0°F7.2°C 44.5°F6.9°C 98% 0.4 mph E0.6 kmh E 1.1 mph1.8 kmh 29.79 in1008.8 mb 0.00 in0.0 mm 0.00 in0.0 mm 1.06 in26.9 mm
07:24 AM 45.1°F7.3°C 44.6°F7.0°C 98% 1.3 mph ENE2.1 kmh ENE 2.2 mph3.5 kmh 29.79 in1008.8 mb 0.00 in0.0 mm 0.00 in0.0 mm 1.06 in26.9 mm
07:25 AM 45.3°F7.4°C 44.8°F7.1°C 98% 2.2 mph NE3.5 kmh NE 2.2 mph3.5 kmh 29.79 in1008.8 mb 0.00 in0.0 mm 0.00 in0.0 mm 1.06 in26.9 mm
07:27 AM 45.3°F7.4°C 44.8°F7.1°C 98% 0.7 mph NE1.1 kmh NE 1.1 mph1.8 kmh 29.79 in1008.8 mb 0.05 in1.3 mm 1.50 in38.1 mm 1.07 in27.2 mm
07:28 AM 45.5°F7.5°C 45.0°F7.2°C 98% 1.3 mph NNE2.1 kmh NNE 2.2 mph3.5 kmh 29.78 in1008.5 mb 0.05 in1.3 mm 0.00 in0.0 mm 1.07 in27.2 mm
07:29 AM 45.5°F7.5°C 45.0°F7.2°C 98% 2.0 mph NW3.2 kmh NW 2.2 mph3.5 kmh 29.79 in1008.8 mb 0.05 in1.3 mm 0.00 in0.0 mm 1.07 in27.2 mm
07:30 AM 45.5°F7.5°C 45.0°F7.2°C 98% 0.9 mph NNE1.4 kmh NNE 1.1 mph1.8 kmh 29.80 in1009.1 mb 0.05 in1.3 mm 0.00 in0.0 mm 1.07 in27.2 mm
07:31 AM 45.3°F7.4°C 44.8°F7.1°C 98% 1.3 mph NNE2.1 kmh NNE 2.2 mph3.5 kmh 29.79 in1008.8 mb 0.05 in1.3 mm 0.00 in0.0 mm 1.07 in27.2 mm
07:32 AM 45.5°F7.5°C 45.0°F7.2°C 98% 0.7 mph NNE1.1 kmh NNE 1.1 mph1.8 kmh 29.79 in1008.8 mb 0.05 in1.3 mm 0.00 in0.0 mm 1.07 in27.2 mm
07:33 AM 45.5°F7.5°C 45.0°F7.2°C 98% 1.1 mph NE1.8 kmh NE 1.1 mph1.8 kmh 29.79 in1008.8 mb 0.05 in1.3 mm 0.00 in0.0 mm 1.07 in27.2 mm
07:34 AM 45.7°F7.6°C 45.2°F7.3°C 98% 0.4 mph NE0.6 kmh NE 1.1 mph1.8 kmh 29.80 in1009.1 mb 0.05 in1.3 mm 0.00 in0.0 mm 1.07 in27.2 mm
07:35 AM 45.7°F7.6°C 45.2°F7.3°C 98% Calm Calm -- 29.80 in1009.1 mb 0.05 in1.3 mm 0.00 in0.0 mm 1.07 in27.2 mm
07:37 AM 45.7°F7.6°C 45.2°F7.3°C 98% Calm Calm -- 29.80 in1009.1 mb 0.00 in0.0 mm 0.00 in0.0 mm 1.07 in27.2 mm
07:38 AM 45.7°F7.6°C 45.2°F7.3°C 98% Calm Calm -- 29.79 in1008.8 mb 0.00 in0.0 mm 0.00 in0.0 mm 1.07 in27.2 mm
07:40 AM 45.7°F7.6°C 45.2°F7.3°C 98% Calm Calm -- 29.79 in1008.8 mb 0.00 in0.0 mm 0.00 in0.0 mm 1.07 in27.2 mm
07:42 AM 45.7°F7.6°C 45.2°F7.3°C 98% Calm Calm -- 29.80 in1009.1 mb 0.00 in0.0 mm 0.00 in0.0 mm 1.07 in27.2 mm
07:44 AM 45.7°F7.6°C 45.2°F7.3°C 98% Calm Calm -- 29.79 in1008.8 mb 0.00 in0.0 mm 0.00 in0.0 mm 1.07 in27.2 mm
07:47 AM 45.7°F7.6°C 45.2°F7.3°C 98% Calm Calm -- 29.80 in1009.1 mb 0.00 in0.0 mm 0.00 in0.0 mm 1.07 in27.2 mm
07:48 AM 45.7°F7.6°C 45.2°F7.3°C 98% Calm Calm -- 29.80 in1009.1 mb 0.00 in0.0 mm 0.00 in0.0 mm 1.07 in27.2 mm
07:49 AM 45.7°F7.6°C 45.2°F7.3°C 98% Calm Calm -- 29.80 in1009.1 mb 0.00 in0.0 mm 0.00 in0.0 mm 1.07 in27.2 mm
07:50 AM -- -- - - N N -- 29.80 in1009.1 mb 0.00 in0.0 mm 0.00 in0.0 mm 5.74 in145.8 mm
07:51 AM -- -- - - N N -- 29.80 in1009.1 mb 0.00 in0.0 mm 0.00 in0.0 mm 5.74 in145.8 mm
07:52 AM 46.0°F7.8°C 45.5°F7.5°C 98% Calm Calm -- 29.80 in1009.1 mb 0.00 in0.0 mm 0.00 in0.0 mm 1.07 in27.2 mm
07:54 AM 46.2°F7.9°C 45.4°F7.4°C 97% Calm Calm -- 29.80 in1009.1 mb 0.00 in0.0 mm 0.00 in0.0 mm 1.07 in27.2 mm
07:55 AM 46.2°F7.9°C 45.4°F7.4°C 97% 0.7 mph NE1.1 kmh NE 1.1 mph1.8 kmh 29.79 in1008.8 mb 0.00 in0.0 mm 0.00 in0.0 mm 1.07 in27.2 mm
07:56 AM 46.4°F8.0°C 45.6°F7.6°C 97% 2.2 mph NE3.5 kmh NE 2.2 mph3.5 kmh 29.80 in1009.1 mb 0.00 in0.0 mm 0.00 in0.0 mm 1.07 in27.2 mm
07:57 AM 46.4°F8.0°C 45.6°F7.6°C 97% 1.8 mph N2.9 kmh N 2.2 mph3.5 kmh 29.80 in1009.1 mb 0.00 in0.0 mm 0.00 in0.0 mm 1.07 in27.2 mm
07:58 AM 46.6°F8.1°C 45.8°F7.7°C 97% 1.3 mph N2.1 kmh N 2.2 mph3.5 kmh 29.81 in1009.5 mb 0.00 in0.0 mm 0.00 in0.0 mm 1.07 in27.2 mm
08:00 AM 46.8°F8.2°C 45.7°F7.6°C 96% Calm Calm -- 29.79 in1008.8 mb 0.00 in0.0 mm 0.00 in0.0 mm 1.07 in27.2 mm
08:01 AM 46.8°F8.2°C 45.4°F7.4°C 95% Calm Calm -- 29.79 in1008.8 mb 0.00 in0.0 mm 0.00 in0.0 mm 1.07 in27.2 mm
08:02 AM 46.9°F8.3°C 45.5°F7.5°C 95% Calm Calm -- 29.80 in1009.1 mb 0.00 in0.0 mm 0.00 in0.0 mm 1.07 in27.2 mm
08:04 AM 47.1°F8.4°C 45.7°F7.6°C 95% 0.2 mph E0.3 kmh E 1.1 mph1.8 kmh 29.80 in1009.1 mb 0.00 in0.0 mm 0.00 in0.0 mm 1.07 in27.2 mm
08:06 AM 47.1°F8.4°C 45.7°F7.6°C 95% 0.4 mph E0.6 kmh E 1.1 mph1.8 kmh 29.80 in1009.1 mb 0.00 in0.0 mm 0.00 in0.0 mm 1.07 in27.2 mm
08:07 AM 47.3°F8.5°C 46.2°F7.9°C 96% 0.7 mph E1.1 kmh E 1.1 mph1.8 kmh 29.80 in1009.1 mb 0.00 in0.0 mm 0.00 in0.0 mm 1.07 in27.2 mm
08:08 AM 47.3°F8.5°C 46.2°F7.9°C 96% Calm Calm -- 29.80 in1009.1 mb 0.00 in0.0 mm 0.00 in0.0 mm 1.07 in27.2 mm
08:09 AM 47.3°F8.5°C 46.2°F7.9°C 96% Calm Calm -- 29.80 in1009.1 mb 0.00 in0.0 mm 0.00 in0.0 mm 1.07 in27.2 mm
08:13 AM 47.3°F8.5°C 46.2°F7.9°C 96% 0.2 mph E0.3 kmh E 1.1 mph1.8 kmh 29.81 in1009.5 mb 0.00 in0.0 mm 0.00 in0.0 mm 1.07 in27.2 mm
08:14 AM 47.3°F8.5°C 46.2°F7.9°C 96% 0.4 mph E0.6 kmh E 1.1 mph1.8 kmh 29.81 in1009.5 mb 0.00 in0.0 mm 0.00 in0.0 mm 1.07 in27.2 mm
08:15 AM 47.5°F8.6°C 46.4°F8.0°C 96% 0.4 mph E0.6 kmh E 1.1 mph1.8 kmh 29.81 in1009.5 mb 0.00 in0.0 mm 0.00 in0.0 mm 1.07 in27.2 mm
08:16 AM 47.5°F8.6°C 46.4°F8.0°C 96% 0.9 mph ENE1.4 kmh ENE 1.1 mph1.8 kmh 29.81 in1009.5 mb 0.00 in0.0 mm 0.00 in0.0 mm 1.07 in27.2 mm
08:17 AM 47.7°F8.7°C 46.6°F8.1°C 96% 0.4 mph ENE0.6 kmh ENE 1.1 mph1.8 kmh 29.81 in1009.5 mb 0.00 in0.0 mm 0.00 in0.0 mm 1.07 in27.2 mm
08:18 AM 47.7°F8.7°C 46.6°F8.1°C 96% 0.2 mph ENE0.3 kmh ENE 1.1 mph1.8 kmh 29.80 in1009.1 mb 0.00 in0.0 mm 0.00 in0.0 mm 1.07 in27.2 mm
08:19 AM 47.8°F8.8°C 46.7°F8.2°C 96% 0.2 mph ENE0.3 kmh ENE 1.1 mph1.8 kmh 29.81 in1009.5 mb 0.00 in0.0 mm 0.00 in0.0 mm 1.07 in27.2 mm
08:20 AM 47.8°F8.8°C 46.7°F8.2°C 96% 1.1 mph ENE1.8 kmh ENE 1.1 mph1.8 kmh 29.81 in1009.5 mb 0.00 in0.0 mm 0.00 in0.0 mm 1.07 in27.2 mm
08:21 AM 47.8°F8.8°C 46.7°F8.2°C 96% Calm Calm -- 29.81 in1009.5 mb 0.00 in0.0 mm 0.00 in0.0 mm 1.07 in27.2 mm
08:22 AM 48.0°F8.9°C 46.9°F8.3°C 96% 0.9 mph ENE1.4 kmh ENE 1.1 mph1.8 kmh 29.81 in1009.5 mb 0.00 in0.0 mm 0.00 in0.0 mm 1.07 in27.2 mm
08:23 AM 48.4°F9.1°C 47.3°F8.5°C 96% 1.1 mph ENE1.8 kmh ENE 1.1 mph1.8 kmh 29.81 in1009.5 mb 0.00 in0.0 mm 0.00 in0.0 mm 1.07 in27.2 mm
08:24 AM 48.6°F9.2°C 47.2°F8.4°C 95% 1.1 mph ENE1.8 kmh ENE 1.1 mph1.8 kmh 29.81 in1009.5 mb 0.00 in0.0 mm 0.00 in0.0 mm 1.07 in27.2 mm
08:26 AM 49.1°F9.5°C 47.4°F8.6°C 94% 1.1 mph NE1.8 kmh NE 1.1 mph1.8 kmh 29.81 in1009.5 mb 0.00 in0.0 mm 0.00 in0.0 mm 1.07 in27.2 mm
08:27 AM 49.1°F9.5°C 47.2°F8.4°C 93% 1.6 mph NE2.6 kmh NE 2.2 mph3.5 kmh 29.81 in1009.5 mb 0.00 in0.0 mm 0.00 in0.0 mm 1.07 in27.2 mm
08:28 AM 49.3°F9.6°C 47.4°F8.6°C 93% 2.5 mph N4.0 kmh N 3.4 mph5.5 kmh 29.80 in1009.1 mb 0.00 in0.0 mm 0.00 in0.0 mm 1.07 in27.2 mm
08:29 AM 49.6°F9.8°C 47.7°F8.7°C 93% 2.0 mph NNE3.2 kmh NNE 2.2 mph3.5 kmh 29.80 in1009.1 mb 0.00 in0.0 mm 0.00 in0.0 mm 1.07 in27.2 mm
08:30 AM 49.8°F9.9°C 47.9°F8.8°C 93% 0.7 mph NE1.1 kmh NE 1.1 mph1.8 kmh 29.81 in1009.5 mb 0.00 in0.0 mm 0.00 in0.0 mm 1.07 in27.2 mm
08:31 AM 50.0°F10.0°C 48.1°F8.9°C 93% 2.5 mph N4.0 kmh N 3.4 mph5.5 kmh 29.81 in1009.5 mb 0.00 in0.0 mm 0.00 in0.0 mm 1.07 in27.2 mm
08:32 AM 50.2°F10.1°C 48.5°F9.2°C 94% 0.2 mph NE0.3 kmh NE 1.1 mph1.8 kmh 29.80 in1009.1 mb 0.00 in0.0 mm 0.00 in0.0 mm 1.07 in27.2 mm
08:34 AM 50.7°F10.4°C 48.5°F9.2°C 92% Calm Calm -- 29.80 in1009.1 mb 0.00 in0.0 mm 0.00 in0.0 mm 1.07 in27.2 mm
08:35 AM 51.1°F10.6°C 48.6°F9.2°C 91% Calm Calm -- 29.81 in1009.5 mb 0.00 in0.0 mm 0.00 in0.0 mm 1.07 in27.2 mm
08:36 AM 51.6°F10.9°C 49.4°F9.7°C 92% Calm Calm -- 29.81 in1009.5 mb 0.00 in0.0 mm 0.00 in0.0 mm 1.07 in27.2 mm
08:37 AM 52.0°F11.1°C 48.9°F9.4°C 89% Calm Calm -- 29.80 in1009.1 mb 0.00 in0.0 mm 0.00 in0.0 mm 1.07 in27.2 mm
08:38 AM 52.0°F11.1°C 49.2°F9.6°C 90% Calm Calm -- 29.81 in1009.5 mb 0.00 in0.0 mm 0.00 in0.0 mm 1.07 in27.2 mm
08:40 AM 52.2°F11.2°C 49.1°F9.5°C 89% Calm Calm -- 29.81 in1009.5 mb 0.00 in0.0 mm 0.00 in0.0 mm 1.07 in27.2 mm
08:41 AM 51.8°F11.0°C 48.7°F9.3°C 89% 2.9 mph N4.7 kmh N 3.4 mph5.5 kmh 29.80 in1009.1 mb 0.00 in0.0 mm 0.00 in0.0 mm 1.07 in27.2 mm
08:42 AM 51.6°F10.9°C 48.5°F9.2°C 89% Calm Calm -- 29.81 in1009.5 mb 0.00 in0.0 mm 0.00 in0.0 mm 1.07 in27.2 mm
08:43 AM 51.6°F10.9°C 49.1°F9.5°C 91% Calm Calm -- 29.81 in1009.5 mb 0.00 in0.0 mm 0.00 in0.0 mm 1.07 in27.2 mm
08:46 AM 52.3°F11.3°C 49.2°F9.6°C 89% 1.3 mph NNE2.1 kmh NNE 2.2 mph3.5 kmh 29.80 in1009.1 mb 0.00 in0.0 mm 0.00 in0.0 mm 1.07 in27.2 mm
08:47 AM 52.3°F11.3°C 49.2°F9.6°C 89% 1.3 mph NNE2.1 kmh NNE 2.2 mph3.5 kmh 29.80 in1009.1 mb 0.00 in0.0 mm 0.00 in0.0 mm 1.07 in27.2 mm
08:48 AM 52.2°F11.2°C 48.8°F9.3°C 88% 1.8 mph NNE2.9 kmh NNE 2.2 mph3.5 kmh 29.81 in1009.5 mb 0.00 in0.0 mm 0.00 in0.0 mm 1.07 in27.2 mm
08:49 AM 52.0°F11.1°C 48.6°F9.2°C 88% Calm Calm -- 29.81 in1009.5 mb 0.00 in0.0 mm 0.00 in0.0 mm 1.07 in27.2 mm
08:50 AM 52.0°F11.1°C 48.6°F9.2°C 88% Calm Calm -- 29.81 in1009.5 mb 0.00 in0.0 mm 0.00 in0.0 mm 1.07 in27.2 mm
08:51 AM 52.0°F11.1°C 48.9°F9.4°C 89% 0.9 mph NE1.4 kmh NE 1.1 mph1.8 kmh 29.81 in1009.5 mb 0.00 in0.0 mm 0.00 in0.0 mm 1.07 in27.2 mm
08:52 AM 52.3°F11.3°C 49.2°F9.6°C 89% 0.2 mph NE0.3 kmh NE 1.1 mph1.8 kmh 29.81 in1009.5 mb 0.00 in0.0 mm 0.00 in0.0 mm 1.07 in27.2 mm
08:53 AM 52.3°F11.3°C 49.2°F9.6°C 89% Calm Calm -- 29.81 in1009.5 mb 0.00 in0.0 mm 0.00 in0.0 mm 1.07 in27.2 mm
08:54 AM 52.3°F11.3°C 49.2°F9.6°C 89% Calm Calm -- 29.81 in1009.5 mb 0.00 in0.0 mm 0.00 in0.0 mm 1.07 in27.2 mm
08:55 AM 52.7°F11.5°C 49.2°F9.6°C 88% 1.1 mph NE1.8 kmh NE 1.1 mph1.8 kmh 29.81 in1009.5 mb 0.00 in0.0 mm 0.00 in0.0 mm 1.07 in27.2 mm
08:56 AM 52.7°F11.5°C 48.9°F9.4°C 87% 0.9 mph NE1.4 kmh NE 1.1 mph1.8 kmh 29.81 in1009.5 mb 0.00 in0.0 mm 0.00 in0.0 mm 1.07 in27.2 mm
08:58 AM 52.7°F11.5°C 47.7°F8.7°C 83% 1.3 mph NE2.1 kmh NE 2.2 mph3.5 kmh 29.81 in1009.5 mb 0.00 in0.0 mm 0.00 in0.0 mm 1.07 in27.2 mm
09:00 AM 52.7°F11.5°C 48.3°F9.1°C 85% 3.4 mph W5.5 kmh W 4.5 mph7.2 kmh 29.81 in1009.5 mb 0.00 in0.0 mm 0.00 in0.0 mm 1.07 in27.2 mm
09:01 AM 52.7°F11.5°C 48.9°F9.4°C 87% 1.1 mph NE1.8 kmh NE 1.1 mph1.8 kmh 29.82 in1009.8 mb 0.00 in0.0 mm 0.00 in0.0 mm 1.07 in27.2 mm
09:02 AM 52.2°F11.2°C 48.4°F9.1°C 87% 2.2 mph WSW3.5 kmh WSW 3.4 mph5.5 kmh 29.81 in1009.5 mb 0.00 in0.0 mm 0.00 in0.0 mm 1.07 in27.2 mm
09:03 AM 52.0°F11.1°C 47.9°F8.8°C 86% 4.0 mph NW6.4 kmh NW 4.5 mph7.2 kmh 29.81 in1009.5 mb 0.00 in0.0 mm 0.00 in0.0 mm 1.07 in27.2 mm
09:04 AM 51.6°F10.9°C 47.6°F8.7°C 86% 3.8 mph NW6.1 kmh NW 4.5 mph7.2 kmh 29.81 in1009.5 mb 0.00 in0.0 mm 0.00 in0.0 mm 1.07 in27.2 mm
09:05 AM 51.6°F10.9°C 48.5°F9.2°C 89% 2.2 mph NNE3.5 kmh NNE 3.4 mph5.5 kmh 29.81 in1009.5 mb 0.00 in0.0 mm 0.00 in0.0 mm 1.07 in27.2 mm
09:06 AM 51.6°F10.9°C 48.2°F9.0°C 88% 2.2 mph NNW3.5 kmh NNW 3.4 mph5.5 kmh 29.81 in1009.5 mb 0.00 in0.0 mm 0.00 in0.0 mm 1.07 in27.2 mm
09:07 AM 51.6°F10.9°C 47.9°F8.8°C 87% 2.2 mph N3.5 kmh N 2.2 mph3.5 kmh 29.82 in1009.8 mb 0.00 in0.0 mm 0.00 in0.0 mm 1.07 in27.2 mm
09:08 AM 51.6°F10.9°C 47.6°F8.7°C 86% 0.7 mph NE1.1 kmh NE 1.1 mph1.8 kmh 29.80 in1009.1 mb 0.00 in0.0 mm 0.00 in0.0 mm 1.07 in27.2 mm
09:10 AM 52.2°F11.2°C 47.8°F8.8°C 85% 0.2 mph NE0.3 kmh NE 1.1 mph1.8 kmh 29.81 in1009.5 mb 0.00 in0.0 mm 0.00 in0.0 mm 1.07 in27.2 mm
09:11 AM 52.2°F11.2°C 49.1°F9.5°C 89% Calm Calm -- 29.81 in1009.5 mb 0.00 in0.0 mm 0.00 in0.0 mm 1.07 in27.2 mm
09:14 AM 52.5°F11.4°C 49.0°F9.4°C 88% Calm Calm -- 29.81 in1009.5 mb 0.00 in0.0 mm 0.00 in0.0 mm 1.07 in27.2 mm
09:16 AM 52.5°F11.4°C 47.8°F8.8°C 84% 2.2 mph NNE3.5 kmh NNE 2.2 mph3.5 kmh 29.81 in1009.5 mb 0.00 in0.0 mm 0.00 in0.0 mm 1.07 in27.2 mm
09:18 AM 52.5°F11.4°C 46.8°F8.2°C 81% 1.8 mph NE2.9 kmh NE 2.2 mph3.5 kmh 29.81 in1009.5 mb 0.00 in0.0 mm 0.00 in0.0 mm 1.07 in27.2 mm
09:19 AM 52.5°F11.4°C 47.2°F8.4°C 82% 1.6 mph SE2.6 kmh SE 2.2 mph3.5 kmh 29.82 in1009.8 mb 0.00 in0.0 mm 0.00 in0.0 mm 1.07 in27.2 mm
09:22 AM 52.9°F11.6°C 48.2°F9.0°C 84% Calm Calm -- 29.81 in1009.5 mb 0.00 in0.0 mm 0.00 in0.0 mm 1.07 in27.2 mm
09:23 AM 53.2°F11.8°C 47.5°F8.6°C 81% 0.7 mph ESE1.1 kmh ESE 1.1 mph1.8 kmh 29.81 in1009.5 mb 0.00 in0.0 mm 0.00 in0.0 mm 1.07 in27.2 mm
09:24 AM 53.2°F11.8°C 47.8°F8.8°C 82% 0.9 mph E1.4 kmh E 1.1 mph1.8 kmh 29.82 in1009.8 mb 0.00 in0.0 mm 0.00 in0.0 mm 1.07 in27.2 mm
09:26 AM 53.2°F11.8°C 49.1°F9.5°C 86% Calm Calm -- 29.82 in1009.8 mb 0.00 in0.0 mm 0.00 in0.0 mm 1.07 in27.2 mm
09:27 AM 53.2°F11.8°C 48.2°F9.0°C 83% Calm Calm -- 29.81 in1009.5 mb 0.00 in0.0 mm 0.00 in0.0 mm 1.07 in27.2 mm
09:28 AM 53.2°F11.8°C 46.9°F8.3°C 79% 0.9 mph E1.4 kmh E 1.1 mph1.8 kmh 29.81 in1009.5 mb 0.00 in0.0 mm 0.00 in0.0 mm 1.07 in27.2 mm
09:29 AM 53.4°F11.9°C 46.4°F8.0°C 77% Calm Calm -- 29.81 in1009.5 mb 0.00 in0.0 mm 0.00 in0.0 mm 1.07 in27.2 mm
09:30 AM 53.4°F11.9°C 47.7°F8.7°C 81% Calm Calm -- 29.81 in1009.5 mb 0.00 in0.0 mm 0.00 in0.0 mm 1.07 in27.2 mm
09:31 AM 53.8°F12.1°C 48.1°F8.9°C 81% 0.2 mph E0.3 kmh E 1.1 mph1.8 kmh 29.81 in1009.5 mb 0.00 in0.0 mm 0.00 in0.0 mm 1.07 in27.2 mm
09:32 AM 54.3°F12.4°C 47.6°F8.7°C 78% 0.2 mph E0.3 kmh E 1.1 mph1.8 kmh 29.81 in1009.5 mb 0.00 in0.0 mm 0.00 in0.0 mm 1.07 in27.2 mm
09:33 AM 54.7°F12.6°C 46.9°F8.3°C 75% Calm Calm -- 29.81 in1009.5 mb 0.00 in0.0 mm 0.00 in0.0 mm 1.07 in27.2 mm
09:34 AM 54.7°F12.6°C 48.0°F8.9°C 78% Calm Calm -- 29.82 in1009.8 mb 0.00 in0.0 mm 0.00 in0.0 mm 1.07 in27.2 mm
09:37 AM 54.9°F12.7°C 46.8°F8.2°C 74% Calm Calm -- 29.82 in1009.8 mb 0.00 in0.0 mm 0.00 in0.0 mm 1.07 in27.2 mm
09:38 AM 54.9°F12.7°C 46.4°F8.0°C 73% Calm Calm -- 29.81 in1009.5 mb 0.00 in0.0 mm 0.00 in0.0 mm 1.07 in27.2 mm
09:39 AM 55.0°F12.8°C 46.1°F7.8°C 72% Calm Calm -- 29.82 in1009.8 mb 0.00 in0.0 mm 0.00 in0.0 mm 1.07 in27.2 mm
09:40 AM 55.8°F13.2°C 46.9°F8.3°C 72% Calm Calm -- 29.81 in1009.5 mb 0.00 in0.0 mm 0.00 in0.0 mm 1.07 in27.2 mm
09:41 AM 55.9°F13.3°C 46.3°F7.9°C 70% 1.3 mph E2.1 kmh E 2.2 mph3.5 kmh 29.81 in1009.5 mb 0.00 in0.0 mm 0.00 in0.0 mm 1.07 in27.2 mm
09:42 AM 55.9°F13.3°C 46.3°F7.9°C 70% 0.4 mph E0.6 kmh E 1.1 mph1.8 kmh 29.82 in1009.8 mb 0.00 in0.0 mm 0.00 in0.0 mm 1.07 in27.2 mm
09:43 AM 56.3°F13.5°C 47.8°F8.8°C 73% Calm Calm -- 29.81 in1009.5 mb 0.00 in0.0 mm 0.00 in0.0 mm 1.07 in27.2 mm
09:44 AM 56.3°F13.5°C 48.1°F8.9°C 74% 0.2 mph E0.3 kmh E 1.1 mph1.8 kmh 29.81 in1009.5 mb 0.00 in0.0 mm 0.00 in0.0 mm 1.07 in27.2 mm
09:45 AM 56.8°F13.8°C 47.1°F8.4°C 70% 0.9 mph E1.4 kmh E 1.1 mph1.8 kmh 29.81 in1009.5 mb 0.00 in0.0 mm 0.00 in0.0 mm 1.07 in27.2 mm
09:46 AM 57.0°F13.9°C 48.8°F9.3°C 74% Calm Calm -- 29.82 in1009.8 mb 0.00 in0.0 mm 0.00 in0.0 mm 1.07 in27.2 mm
09:47 AM 57.0°F13.9°C 46.5°F8.1°C 68% 0.2 mph E0.3 kmh E 1.1 mph1.8 kmh 29.82 in1009.8 mb 0.00 in0.0 mm 0.00 in0.0 mm 1.07 in27.2 mm
09:49 AM 57.0°F13.9°C 48.4°F9.1°C 73% Calm Calm -- 29.81 in1009.5 mb 0.00 in0.0 mm 0.00 in0.0 mm 1.07 in27.2 mm
09:50 AM 57.4°F14.1°C 48.8°F9.3°C 73% Calm Calm -- 29.81 in1009.5 mb 0.00 in0.0 mm 0.00 in0.0 mm 1.07 in27.2 mm
09:51 AM 57.7°F14.3°C 48.0°F8.9°C 70% Calm Calm -- 29.82 in1009.8 mb 0.00 in0.0 mm 0.00 in0.0 mm 1.07 in27.2 mm
09:54 AM 58.3°F14.6°C 48.9°F9.4°C 71% Calm Calm -- 29.82 in1009.8 mb 0.00 in0.0 mm 0.00 in0.0 mm 1.07 in27.2 mm
09:56 AM 58.5°F14.7°C 49.1°F9.5°C 71% 0.7 mph E1.1 kmh E 1.1 mph1.8 kmh 29.82 in1009.8 mb 0.00 in0.0 mm 0.00 in0.0 mm 1.07 in27.2 mm
09:57 AM 58.5°F14.7°C 48.4°F9.1°C 69% 0.9 mph E1.4 kmh E 1.1 mph1.8 kmh 29.83 in1010.2 mb 0.00 in0.0 mm 0.00 in0.0 mm 1.07 in27.2 mm
09:58 AM 58.5°F14.7°C 49.5°F9.7°C 72% Calm Calm -- 29.82 in1009.8 mb 0.00 in0.0 mm 0.00 in0.0 mm 1.07 in27.2 mm
10:00 AM 58.1°F14.5°C 49.1°F9.5°C 72% 0.7 mph E1.1 kmh E 1.1 mph1.8 kmh 29.82 in1009.8 mb 0.00 in0.0 mm 0.00 in0.0 mm 1.07 in27.2 mm
10:02 AM 57.9°F14.4°C 48.6°F9.2°C 71% Calm Calm -- 29.81 in1009.5 mb 0.00 in0.0 mm 0.00 in0.0 mm 1.07 in27.2 mm
10:04 AM 57.9°F14.4°C 49.3°F9.6°C 73% 0.2 mph E0.3 kmh E 1.1 mph1.8 kmh 29.81 in1009.5 mb 0.00 in0.0 mm 0.00 in0.0 mm 1.07 in27.2 mm
10:07 AM 58.3°F14.6°C 48.2°F9.0°C 69% 0.2 mph E0.3 kmh E 1.1 mph1.8 kmh 29.81 in1009.5 mb 0.00 in0.0 mm 0.00 in0.0 mm 1.07 in27.2 mm
10:08 AM 58.5°F14.7°C 49.1°F9.5°C 71% Calm Calm -- 29.82 in1009.8 mb 0.00 in0.0 mm 0.00 in0.0 mm 1.07 in27.2 mm
10:09 AM 58.3°F14.6°C 48.9°F9.4°C 71% Calm Calm -- 29.82 in1009.8 mb 0.00 in0.0 mm 0.00 in0.0 mm 1.07 in27.2 mm
10:10 AM 58.3°F14.6°C 48.2°F9.0°C 69% Calm Calm -- 29.81 in1009.5 mb 0.00 in0.0 mm 0.00 in0.0 mm 1.07 in27.2 mm
10:11 AM 58.3°F14.6°C 48.6°F9.2°C 70% 0.2 mph E0.3 kmh E 1.1 mph1.8 kmh 29.82 in1009.8 mb 0.00 in0.0 mm 0.00 in0.0 mm 1.07 in27.2 mm
10:12 AM 57.9°F14.4°C 48.9°F9.4°C 72% Calm Calm -- 29.82 in1009.8 mb 0.00 in0.0 mm 0.00 in0.0 mm 1.07 in27.2 mm
10:13 AM 57.6°F14.2°C 49.0°F9.4°C 73% Calm Calm -- 29.82 in1009.8 mb 0.00 in0.0 mm 0.00 in0.0 mm 1.07 in27.2 mm
10:16 AM 57.6°F14.2°C 47.5°F8.6°C 69% 1.1 mph E1.8 kmh E 1.1 mph1.8 kmh 29.81 in1009.5 mb 0.00 in0.0 mm 0.00 in0.0 mm 1.07 in27.2 mm
10:18 AM 57.4°F14.1°C 48.4°F9.1°C 72% 0.9 mph E1.4 kmh E 1.1 mph1.8 kmh 29.82 in1009.8 mb 0.00 in0.0 mm 0.00 in0.0 mm 1.07 in27.2 mm
10:19 AM 57.2°F14.0°C 47.9°F8.8°C 71% 0.7 mph E1.1 kmh E 1.1 mph1.8 kmh 29.81 in1009.5 mb 0.00 in0.0 mm 0.00 in0.0 mm 1.07 in27.2 mm
10:20 AM 57.0°F13.9°C 47.3°F8.5°C 70% 0.9 mph E1.4 kmh E 1.1 mph1.8 kmh 29.82 in1009.8 mb 0.00 in0.0 mm 0.00 in0.0 mm 1.07 in27.2 mm
10:21 AM 56.7°F13.7°C 47.8°F8.8°C 72% 0.4 mph E0.6 kmh E 1.1 mph1.8 kmh 29.82 in1009.8 mb 0.00 in0.0 mm 0.00 in0.0 mm 1.07 in27.2 mm
10:22 AM 56.7°F13.7°C 48.5°F9.2°C 74% 0.7 mph E1.1 kmh E 1.1 mph1.8 kmh 29.82 in1009.8 mb 0.00 in0.0 mm 0.00 in0.0 mm 1.07 in27.2 mm
10:23 AM 56.7°F13.7°C 48.5°F9.2°C 74% 1.3 mph E2.1 kmh E 2.2 mph3.5 kmh 29.81 in1009.5 mb 0.00 in0.0 mm 0.00 in0.0 mm 1.07 in27.2 mm
10:24 AM 56.8°F13.8°C 48.6°F9.2°C 74% 1.3 mph ESE2.1 kmh ESE 2.2 mph3.5 kmh 29.82 in1009.8 mb 0.00 in0.0 mm 0.00 in0.0 mm 1.07 in27.2 mm
10:25 AM 56.7°F13.7°C 48.1°F8.9°C 73% 1.8 mph SE2.9 kmh SE 3.4 mph5.5 kmh 29.82 in1009.8 mb 0.00 in0.0 mm 0.00 in0.0 mm 1.07 in27.2 mm
10:26 AM 56.7°F13.7°C 47.4°F8.6°C 71% 3.4 mph SE5.5 kmh SE 4.5 mph7.2 kmh 29.82 in1009.8 mb 0.00 in0.0 mm 0.00 in0.0 mm 1.07 in27.2 mm
10:27 AM 56.5°F13.6°C 46.8°F8.2°C 70% 3.1 mph SSE5.0 kmh SSE 3.4 mph5.5 kmh 29.82 in1009.8 mb 0.00 in0.0 mm 0.00 in0.0 mm 1.07 in27.2 mm
10:28 AM 56.3°F13.5°C 47.0°F8.3°C 71% 2.2 mph SSE3.5 kmh SSE 3.4 mph5.5 kmh 29.82 in1009.8 mb 0.00 in0.0 mm 0.00 in0.0 mm 1.07 in27.2 mm
10:29 AM 56.5°F13.6°C 47.9°F8.8°C 73% 1.3 mph SE2.1 kmh SE 2.2 mph3.5 kmh 29.82 in1009.8 mb 0.00 in0.0 mm 0.00 in0.0 mm 1.07 in27.2 mm
10:30 AM 56.5°F13.6°C 46.8°F8.2°C 70% 2.2 mph SE3.5 kmh SE 2.2 mph3.5 kmh 29.82 in1009.8 mb 0.00 in0.0 mm 0.00 in0.0 mm 1.07 in27.2 mm
10:31 AM 56.7°F13.7°C 47.0°F8.3°C 70% 1.8 mph SE2.9 kmh SE 2.2 mph3.5 kmh 29.82 in1009.8 mb 0.00 in0.0 mm 0.00 in0.0 mm 1.07 in27.2 mm
10:32 AM 56.8°F13.8°C 47.5°F8.6°C 71% 0.4 mph ESE0.6 kmh ESE 1.1 mph1.8 kmh 29.83 in1010.2 mb 0.00 in0.0 mm 0.00 in0.0 mm 1.07 in27.2 mm
10:33 AM 57.0°F13.9°C 47.3°F8.5°C 70% 2.2 mph ESE3.5 kmh ESE 2.2 mph3.5 kmh 29.81 in1009.5 mb 0.00 in0.0 mm 0.00 in0.0 mm 1.07 in27.2 mm
10:37 AM 57.7°F14.3°C 48.0°F8.9°C 70% 0.9 mph SE1.4 kmh SE 1.1 mph1.8 kmh 29.81 in1009.5 mb 0.00 in0.0 mm 0.00 in0.0 mm 1.07 in27.2 mm
10:39 AM 58.8°F14.9°C 47.9°F8.8°C 67% 0.2 mph E0.3 kmh E 1.1 mph1.8 kmh 29.82 in1009.8 mb 0.00 in0.0 mm 0.00 in0.0 mm 1.07 in27.2 mm
10:40 AM 58.5°F14.7°C 47.2°F8.4°C 66% 1.1 mph E1.8 kmh E 1.1 mph1.8 kmh 29.82 in1009.8 mb 0.00 in0.0 mm 0.00 in0.0 mm 1.07 in27.2 mm
10:41 AM 58.3°F14.6°C 47.4°F8.6°C 67% Calm Calm -- 29.82 in1009.8 mb 0.00 in0.0 mm 0.00 in0.0 mm 1.07 in27.2 mm
10:42 AM 58.3°F14.6°C 46.6°F8.1°C 65% 1.1 mph E1.8 kmh E 1.1 mph1.8 kmh 29.82 in1009.8 mb 0.00 in0.0 mm 0.00 in0.0 mm 1.07 in27.2 mm
10:43 AM 58.8°F14.9°C 47.9°F8.8°C 67% 0.2 mph E0.3 kmh E 1.1 mph1.8 kmh 29.82 in1009.8 mb 0.00 in0.0 mm 0.00 in0.0 mm 1.07 in27.2 mm
10:46 AM 59.4°F15.2°C 47.6°F8.7°C 65% Calm Calm -- 29.82 in1009.8 mb 0.00 in0.0 mm 0.00 in0.0 mm 1.07 in27.2 mm
10:47 AM 60.1°F15.6°C 46.6°F8.1°C 61% Calm Calm -- 29.82 in1009.8 mb 0.00 in0.0 mm 0.00 in0.0 mm 1.07 in27.2 mm
10:49 AM 61.0°F16.1°C 47.0°F8.3°C 60% 0.9 mph E1.4 kmh E 1.1 mph1.8 kmh 29.82 in1009.8 mb 0.00 in0.0 mm 0.00 in0.0 mm 1.07 in27.2 mm
10:50 AM 61.3°F16.3°C 47.3°F8.5°C 60% 1.1 mph E1.8 kmh E 2.2 mph3.5 kmh 29.82 in1009.8 mb 0.00 in0.0 mm 0.00 in0.0 mm 1.07 in27.2 mm
10:51 AM 61.3°F16.3°C 48.6°F9.2°C 63% 0.9 mph E1.4 kmh E 1.1 mph1.8 kmh 29.81 in1009.5 mb 0.00 in0.0 mm 0.00 in0.0 mm 1.07 in27.2 mm
10:52 AM 61.2°F16.2°C 49.3°F9.6°C 65% 0.4 mph E0.6 kmh E 1.1 mph1.8 kmh 29.82 in1009.8 mb 0.00 in0.0 mm 0.00 in0.0 mm 1.07 in27.2 mm
10:53 AM 61.2°F16.2°C 48.5°F9.2°C 63% 1.1 mph E1.8 kmh E 1.1 mph1.8 kmh 29.82 in1009.8 mb 0.00 in0.0 mm 0.00 in0.0 mm 1.07 in27.2 mm
10:55 AM 61.0°F16.1°C 48.3°F9.1°C 63% 2.2 mph E3.5 kmh E 2.2 mph3.5 kmh 29.81 in1009.5 mb 0.00 in0.0 mm 0.00 in0.0 mm 1.07 in27.2 mm
10:56 AM 61.0°F16.1°C 47.9°F8.8°C 62% 2.2 mph E3.5 kmh E 2.2 mph3.5 kmh 29.81 in1009.5 mb 0.00 in0.0 mm 0.00 in0.0 mm 1.07 in27.2 mm
10:57 AM 60.3°F15.7°C 48.5°F9.2°C 65% 1.3 mph E2.1 kmh E 2.2 mph3.5 kmh 29.82 in1009.8 mb 0.00 in0.0 mm 0.00 in0.0 mm 1.07 in27.2 mm
10:58 AM 60.1°F15.6°C 47.5°F8.6°C 63% 0.4 mph E0.6 kmh E 1.1 mph1.8 kmh 29.81 in1009.5 mb 0.00 in0.0 mm 0.00 in0.0 mm 1.07 in27.2 mm
10:59 AM 60.1°F15.6°C 47.5°F8.6°C 63% 0.9 mph E1.4 kmh E 2.2 mph3.5 kmh 29.81 in1009.5 mb 0.00 in0.0 mm 0.00 in0.0 mm 1.07 in27.2 mm
11:00 AM 60.3°F15.7°C 48.1°F8.9°C 64% 0.2 mph E0.3 kmh E 1.1 mph1.8 kmh 29.81 in1009.5 mb 0.00 in0.0 mm 0.00 in0.0 mm 1.07 in27.2 mm
11:01 AM 60.3°F15.7°C 47.6°F8.7°C 63% 1.8 mph E2.9 kmh E 3.4 mph5.5 kmh 29.81 in1009.5 mb 0.00 in0.0 mm 0.00 in0.0 mm 1.07 in27.2 mm
11:02 AM 60.4°F15.8°C 46.0°F7.8°C 59% 3.6 mph E5.8 kmh E 4.5 mph7.2 kmh 29.81 in1009.5 mb 0.00 in0.0 mm 0.00 in0.0 mm 1.07 in27.2 mm
11:03 AM 60.4°F15.8°C 46.0°F7.8°C 59% 1.3 mph E2.1 kmh E 2.2 mph3.5 kmh 29.82 in1009.8 mb 0.00 in0.0 mm 0.00 in0.0 mm 1.07 in27.2 mm
11:04 AM 60.3°F15.7°C 45.9°F7.7°C 59% 0.7 mph E1.1 kmh E 1.1 mph1.8 kmh 29.81 in1009.5 mb 0.00 in0.0 mm 0.00 in0.0 mm 1.07 in27.2 mm
11:05 AM 60.8°F16.0°C 46.4°F8.0°C 59% 1.1 mph E1.8 kmh E 1.1 mph1.8 kmh 29.81 in1009.5 mb 0.00 in0.0 mm 0.00 in0.0 mm 1.07 in27.2 mm
11:07 AM 61.5°F16.4°C 44.2°F6.8°C 53% 0.9 mph E1.4 kmh E 1.1 mph1.8 kmh 29.82 in1009.8 mb 0.00 in0.0 mm 0.00 in0.0 mm 1.07 in27.2 mm
11:08 AM 61.9°F16.6°C 44.1°F6.7°C 52% 1.8 mph E2.9 kmh E 3.4 mph5.5 kmh 29.81 in1009.5 mb 0.00 in0.0 mm 0.00 in0.0 mm 1.07 in27.2 mm
11:10 AM 62.4°F16.9°C 45.0°F7.2°C 53% 2.9 mph E4.7 kmh E 3.4 mph5.5 kmh 29.82 in1009.8 mb 0.00 in0.0 mm 0.00 in0.0 mm 1.07 in27.2 mm
11:11 AM 62.2°F16.8°C 44.9°F7.2°C 53% 2.2 mph E3.5 kmh E 2.2 mph3.5 kmh 29.81 in1009.5 mb 0.00 in0.0 mm 0.00 in0.0 mm 1.07 in27.2 mm
11:12 AM 62.1°F16.7°C 46.2°F7.9°C 56% 1.3 mph E2.1 kmh E 2.2 mph3.5 kmh 29.81 in1009.5 mb 0.00 in0.0 mm 0.00 in0.0 mm 1.07 in27.2 mm
11:13 AM 62.1°F16.7°C 45.3°F7.4°C 54% 0.7 mph E1.1 kmh E 1.1 mph1.8 kmh 29.81 in1009.5 mb 0.00 in0.0 mm 0.00 in0.0 mm 1.07 in27.2 mm
11:14 AM 62.1°F16.7°C 43.2°F6.2°C 50% 2.2 mph ESE3.5 kmh ESE 3.4 mph5.5 kmh 29.81 in1009.5 mb 0.00 in0.0 mm 0.00 in0.0 mm 1.07 in27.2 mm
11:15 AM 62.1°F16.7°C 44.8°F7.1°C 53% 1.1 mph E1.8 kmh E 1.1 mph1.8 kmh 29.81 in1009.5 mb 0.00 in0.0 mm 0.00 in0.0 mm 1.07 in27.2 mm
11:16 AM 62.1°F16.7°C 43.8°F6.6°C 51% 1.3 mph E2.1 kmh E 2.2 mph3.5 kmh 29.81 in1009.5 mb 0.00 in0.0 mm 0.00 in0.0 mm 1.07 in27.2 mm
11:17 AM 62.2°F16.8°C 43.8°F6.6°C 51% 0.9 mph E1.4 kmh E 1.1 mph1.8 kmh 29.81 in1009.5 mb 0.00 in0.0 mm 0.00 in0.0 mm 1.07 in27.2 mm
11:19 AM 62.8°F17.1°C 44.4°F6.9°C 51% 0.2 mph E0.3 kmh E 1.1 mph1.8 kmh 29.81 in1009.5 mb 0.00 in0.0 mm 0.00 in0.0 mm 1.07 in27.2 mm
11:20 AM 63.1°F17.3°C 44.7°F7.1°C 51% 1.6 mph ESE2.6 kmh ESE 2.2 mph3.5 kmh 29.81 in1009.5 mb 0.00 in0.0 mm 0.00 in0.0 mm 1.07 in27.2 mm
11:24 AM 63.0°F17.2°C 45.6°F7.6°C 53% 2.2 mph SE3.5 kmh SE 2.2 mph3.5 kmh 29.81 in1009.5 mb 0.00 in0.0 mm 0.00 in0.0 mm 1.07 in27.2 mm
11:25 AM 62.4°F16.9°C 44.5°F6.9°C 52% 2.9 mph SE4.7 kmh SE 3.4 mph5.5 kmh 29.81 in1009.5 mb 0.00 in0.0 mm 0.00 in0.0 mm 1.07 in27.2 mm
11:26 AM 62.1°F16.7°C 45.3°F7.4°C 54% 0.4 mph E0.6 kmh E 1.1 mph1.8 kmh 29.81 in1009.5 mb 0.00 in0.0 mm 0.00 in0.0 mm 1.07 in27.2 mm
11:27 AM 61.7°F16.5°C 44.9°F7.2°C 54% 1.6 mph E2.6 kmh E 2.2 mph3.5 kmh 29.81 in1009.5 mb 0.00 in0.0 mm 0.00 in0.0 mm 1.07 in27.2 mm
11:28 AM 61.5°F16.4°C 44.7°F7.1°C 54% 0.9 mph E1.4 kmh E 1.1 mph1.8 kmh 29.81 in1009.5 mb 0.00 in0.0 mm 0.00 in0.0 mm 1.07 in27.2 mm
11:29 AM 61.5°F16.4°C 44.2°F6.8°C 53% Calm Calm -- 29.81 in1009.5 mb 0.00 in0.0 mm 0.00 in0.0 mm 1.07 in27.2 mm
11:30 AM 61.3°F16.3°C 44.0°F6.7°C 53% 1.3 mph E2.1 kmh E 2.2 mph3.5 kmh 29.81 in1009.5 mb 0.00 in0.0 mm 0.00 in0.0 mm 1.07 in27.2 mm
11:31 AM 61.2°F16.2°C 43.9°F6.6°C 53% 1.8 mph E2.9 kmh E 2.2 mph3.5 kmh 29.81 in1009.5 mb 0.00 in0.0 mm 0.00 in0.0 mm 1.07 in27.2 mm
11:32 AM 61.2°F16.2°C 44.4°F6.9°C 54% Calm Calm -- 29.81 in1009.5 mb 0.00 in0.0 mm 0.00 in0.0 mm 1.07 in27.2 mm
11:33 AM 61.2°F16.2°C 43.9°F6.6°C 53% 1.6 mph E2.6 kmh E 2.2 mph3.5 kmh 29.81 in1009.5 mb 0.00 in0.0 mm 0.00 in0.0 mm 1.07 in27.2 mm
11:34 AM 61.5°F16.4°C 43.7°F6.5°C 52% 0.9 mph E1.4 kmh E 1.1 mph1.8 kmh 29.81 in1009.5 mb 0.00 in0.0 mm 0.00 in0.0 mm 1.07 in27.2 mm
11:35 AM 61.5°F16.4°C 44.2°F6.8°C 53% 0.9 mph E1.4 kmh E 1.1 mph1.8 kmh 29.81 in1009.5 mb 0.00 in0.0 mm 0.00 in0.0 mm 1.07 in27.2 mm
11:36 AM 61.5°F16.4°C 45.2°F7.3°C 55% 1.6 mph ENE2.6 kmh ENE 4.5 mph7.2 kmh 29.81 in1009.5 mb 0.00 in0.0 mm 0.00 in0.0 mm 1.07 in27.2 mm
11:37 AM 61.5°F16.4°C 45.7°F7.6°C 56% 1.3 mph E2.1 kmh E 2.2 mph3.5 kmh 29.81 in1009.5 mb 0.00 in0.0 mm 0.00 in0.0 mm 1.07 in27.2 mm
11:38 AM 61.5°F16.4°C 46.6°F8.1°C 58% Calm Calm -- 29.81 in1009.5 mb 0.00 in0.0 mm 0.00 in0.0 mm 1.07 in27.2 mm
11:39 AM 61.5°F16.4°C 45.7°F7.6°C 56% 0.4 mph E0.6 kmh E 1.1 mph1.8 kmh 29.81 in1009.5 mb 0.00 in0.0 mm 0.00 in0.0 mm 1.07 in27.2 mm
11:40 AM 61.9°F16.6°C 46.5°F8.1°C 57% Calm Calm -- 29.81 in1009.5 mb 0.00 in0.0 mm 0.00 in0.0 mm 1.07 in27.2 mm
11:41 AM 61.9°F16.6°C 44.6°F7.0°C 53% 1.3 mph E2.1 kmh E 2.2 mph3.5 kmh 29.81 in1009.5 mb 0.00 in0.0 mm 0.00 in0.0 mm 1.07 in27.2 mm
11:42 AM 61.9°F16.6°C 44.1°F6.7°C 52% Calm Calm -- 29.81 in1009.5 mb 0.00 in0.0 mm 0.00 in0.0 mm 1.07 in27.2 mm
11:43 AM 61.9°F16.6°C 44.6°F7.0°C 53% 1.1 mph E1.8 kmh E 1.1 mph1.8 kmh 29.81 in1009.5 mb 0.00 in0.0 mm 0.00 in0.0 mm 1.07 in27.2 mm
11:45 AM 61.9°F16.6°C 44.1°F6.7°C 52% Calm Calm -- 29.81 in1009.5 mb 0.00 in0.0 mm 0.00 in0.0 mm 1.07 in27.2 mm
11:46 AM 61.9°F16.6°C 42.5°F5.8°C 49% 0.2 mph E0.3 kmh E 1.1 mph1.8 kmh 29.81 in1009.5 mb 0.00 in0.0 mm 0.00 in0.0 mm 1.07 in27.2 mm
11:47 AM 62.2°F16.8°C 42.3°F5.7°C 48% 1.8 mph E2.9 kmh E 2.2 mph3.5 kmh 29.82 in1009.8 mb 0.00 in0.0 mm 0.00 in0.0 mm 1.07 in27.2 mm
11:48 AM 62.4°F16.9°C 41.9°F5.5°C 47% 0.9 mph E1.4 kmh E 1.1 mph1.8 kmh 29.81 in1009.5 mb 0.00 in0.0 mm 0.00 in0.0 mm 1.07 in27.2 mm
11:49 AM 62.4°F16.9°C 41.3°F5.2°C 46% 1.3 mph E2.1 kmh E 2.2 mph3.5 kmh 29.81 in1009.5 mb 0.00 in0.0 mm 0.00 in0.0 mm 1.07 in27.2 mm
11:50 AM 62.4°F16.9°C 41.3°F5.2°C 46% 0.7 mph E1.1 kmh E 2.2 mph3.5 kmh 29.81 in1009.5 mb 0.00 in0.0 mm 0.00 in0.0 mm 1.07 in27.2 mm
11:51 AM 62.2°F16.8°C 42.3°F5.7°C 48% 0.7 mph E1.1 kmh E 1.1 mph1.8 kmh 29.81 in1009.5 mb 0.00 in0.0 mm 0.00 in0.0 mm 1.07 in27.2 mm
11:52 AM 62.2°F16.8°C 41.2°F5.1°C 46% 0.2 mph E0.3 kmh E 1.1 mph1.8 kmh 29.81 in1009.5 mb 0.00 in0.0 mm 0.00 in0.0 mm 1.07 in27.2 mm
11:53 AM 62.6°F17.0°C 42.6°F5.9°C 48% Calm Calm -- 29.81 in1009.5 mb 0.00 in0.0 mm 0.00 in0.0 mm 1.07 in27.2 mm
11:54 AM 62.6°F17.0°C 44.2°F6.8°C 51% 0.2 mph E0.3 kmh E 1.1 mph1.8 kmh 29.81 in1009.5 mb 0.00 in0.0 mm 0.00 in0.0 mm 1.07 in27.2 mm
11:56 AM 63.3°F17.4°C 42.2°F5.7°C 46% 0.9 mph E1.4 kmh E 1.1 mph1.8 kmh 29.81 in1009.5 mb 0.00 in0.0 mm 0.00 in0.0 mm 1.07 in27.2 mm
11:57 AM 63.0°F17.2°C 44.6°F7.0°C 51% 0.7 mph E1.1 kmh E 1.1 mph1.8 kmh 29.81 in1009.5 mb 0.00 in0.0 mm 0.00 in0.0 mm 1.07 in27.2 mm
11:58 AM 63.0°F17.2°C 43.5°F6.4°C 49% 1.3 mph E2.1 kmh E 2.2 mph3.5 kmh 29.81 in1009.5 mb 0.00 in0.0 mm 0.00 in0.0 mm 1.07 in27.2 mm
11:59 AM 63.0°F17.2°C 44.1°F6.7°C 50% 1.3 mph E2.1 kmh E 2.2 mph3.5 kmh 29.80 in1009.1 mb 0.00 in0.0 mm 0.00 in0.0 mm 1.07 in27.2 mm
12:01 PM 63.0°F17.2°C 42.4°F5.8°C 47% 0.2 mph ESE0.3 kmh ESE 1.1 mph1.8 kmh 29.81 in1009.5 mb 0.00 in0.0 mm 0.00 in0.0 mm 1.07 in27.2 mm
12:02 PM 63.1°F17.3°C 43.1°F6.2°C 48% 1.3 mph E2.1 kmh E 2.2 mph3.5 kmh 29.81 in1009.5 mb 0.00 in0.0 mm 0.00 in0.0 mm 1.07 in27.2 mm
12:03 PM 63.5°F17.5°C 41.2°F5.1°C 44% 3.6 mph S5.8 kmh S 4.5 mph7.2 kmh 29.81 in1009.5 mb 0.00 in0.0 mm 0.00 in0.0 mm 1.07 in27.2 mm
12:04 PM 63.5°F17.5°C 42.3°F5.7°C 46% 1.3 mph E2.1 kmh E 2.2 mph3.5 kmh 29.81 in1009.5 mb 0.00 in0.0 mm 0.00 in0.0 mm 1.07 in27.2 mm
12:05 PM 63.3°F17.4°C 42.7°F5.9°C 47% 1.1 mph SE1.8 kmh SE 2.2 mph3.5 kmh 29.81 in1009.5 mb 0.00 in0.0 mm 0.00 in0.0 mm 1.07 in27.2 mm
12:06 PM 63.3°F17.4°C 42.2°F5.7°C 46% 0.2 mph ESE0.3 kmh ESE 1.1 mph1.8 kmh 29.81 in1009.5 mb 0.00 in0.0 mm 0.00 in0.0 mm 1.07 in27.2 mm
12:07 PM 63.1°F17.3°C 42.0°F5.6°C 46% Calm Calm -- 29.81 in1009.5 mb 0.00 in0.0 mm 0.00 in0.0 mm 1.07 in27.2 mm
12:08 PM 63.1°F17.3°C 43.1°F6.2°C 48% Calm Calm -- 29.81 in1009.5 mb 0.00 in0.0 mm 0.00 in0.0 mm 1.07 in27.2 mm
12:09 PM 63.1°F17.3°C 41.4°F5.2°C 45% 0.2 mph E0.3 kmh E 1.1 mph1.8 kmh 29.80 in1009.1 mb 0.00 in0.0 mm 0.00 in0.0 mm 1.07 in27.2 mm
12:10 PM 63.3°F17.4°C 41.6°F5.3°C 45% 0.7 mph E1.1 kmh E 1.1 mph1.8 kmh 29.81 in1009.5 mb 0.00 in0.0 mm 0.00 in0.0 mm 1.07 in27.2 mm
12:11 PM 63.3°F17.4°C 41.6°F5.3°C 45% 0.2 mph E0.3 kmh E 1.1 mph1.8 kmh 29.81 in1009.5 mb 0.00 in0.0 mm 0.00 in0.0 mm 1.07 in27.2 mm
12:13 PM 63.7°F17.6°C 41.4°F5.2°C 44% 1.1 mph ESE1.8 kmh ESE 1.1 mph1.8 kmh 29.80 in1009.1 mb 0.00 in0.0 mm 0.00 in0.0 mm 1.07 in27.2 mm
12:14 PM 63.7°F17.6°C 43.1°F6.2°C 47% Calm Calm -- 29.80 in1009.1 mb 0.00 in0.0 mm 0.00 in0.0 mm 1.07 in27.2 mm
12:17 PM 63.1°F17.3°C 40.8°F4.9°C 44% 2.2 mph E3.5 kmh E 3.4 mph5.5 kmh 29.81 in1009.5 mb 0.00 in0.0 mm 0.00 in0.0 mm 1.07 in27.2 mm
12:20 PM 62.8°F17.1°C 41.7°F5.4°C 46% 0.2 mph E0.3 kmh E 1.1 mph1.8 kmh 29.81 in1009.5 mb 0.00 in0.0 mm 0.00 in0.0 mm 1.07 in27.2 mm
12:21 PM 63.0°F17.2°C 41.9°F5.5°C 46% Calm Calm -- 29.80 in1009.1 mb 0.00 in0.0 mm 0.00 in0.0 mm 1.07 in27.2 mm
12:22 PM 63.1°F17.3°C 39.0°F3.9°C 41% 0.9 mph E1.4 kmh E 1.1 mph1.8 kmh 29.80 in1009.1 mb 0.00 in0.0 mm 0.00 in0.0 mm 1.07 in27.2 mm
12:23 PM 63.5°F17.5°C 40.0°F4.4°C 42% Calm Calm -- 29.81 in1009.5 mb 0.00 in0.0 mm 0.00 in0.0 mm 1.07 in27.2 mm
12:24 PM 63.7°F17.6°C 41.4°F5.2°C 44% 0.9 mph E1.4 kmh E 1.1 mph1.8 kmh 29.80 in1009.1 mb 0.00 in0.0 mm 0.00 in0.0 mm 1.07 in27.2 mm
12:25 PM 63.9°F17.7°C 39.7°F4.3°C 41% 2.2 mph NE3.5 kmh NE 3.4 mph5.5 kmh 29.81 in1009.5 mb 0.00 in0.0 mm 0.00 in0.0 mm 1.07 in27.2 mm
12:26 PM 63.9°F17.7°C 39.1°F3.9°C 40% 2.9 mph E4.7 kmh E 4.5 mph7.2 kmh 29.80 in1009.1 mb 0.00 in0.0 mm 0.00 in0.0 mm 1.07 in27.2 mm
12:27 PM 63.7°F17.6°C 38.9°F3.8°C 40% 2.5 mph NE4.0 kmh NE 3.4 mph5.5 kmh 29.81 in1009.5 mb 0.00 in0.0 mm 0.00 in0.0 mm 1.07 in27.2 mm
12:28 PM 63.3°F17.4°C 39.8°F4.3°C 42% 0.7 mph ENE1.1 kmh ENE 1.1 mph1.8 kmh 29.80 in1009.1 mb 0.00 in0.0 mm 0.00 in0.0 mm 1.07 in27.2 mm
12:29 PM 63.1°F17.3°C 39.0°F3.9°C 41% 0.9 mph NE1.4 kmh NE 1.1 mph1.8 kmh 29.80 in1009.1 mb 0.00 in0.0 mm 0.00 in0.0 mm 1.07 in27.2 mm
12:30 PM 63.1°F17.3°C 40.2°F4.6°C 43% 1.3 mph ENE2.1 kmh ENE 2.2 mph3.5 kmh 29.80 in1009.1 mb 0.00 in0.0 mm 0.00 in0.0 mm 1.07 in27.2 mm
12:32 PM 63.5°F17.5°C 39.4°F4.1°C 41% Calm Calm -- 29.80 in1009.1 mb 0.00 in0.0 mm 0.00 in0.0 mm 1.07 in27.2 mm
12:33 PM 64.0°F17.8°C 40.4°F4.7°C 42% 0.2 mph E0.3 kmh E 1.1 mph1.8 kmh 29.80 in1009.1 mb 0.00 in0.0 mm 0.00 in0.0 mm 1.07 in27.2 mm
12:34 PM 64.4°F18.0°C 39.5°F4.2°C 40% 0.9 mph ENE1.4 kmh ENE 1.1 mph1.8 kmh 29.80 in1009.1 mb 0.00 in0.0 mm 0.00 in0.0 mm 1.07 in27.2 mm
12:35 PM 64.4°F18.0°C 40.2°F4.6°C 41% Calm Calm -- 29.80 in1009.1 mb 0.00 in0.0 mm 0.00 in0.0 mm 1.07 in27.2 mm
12:36 PM 64.4°F18.0°C 40.2°F4.6°C 41% 2.0 mph NE3.2 kmh NE 2.2 mph3.5 kmh 29.79 in1008.8 mb 0.00 in0.0 mm 0.00 in0.0 mm 1.07 in27.2 mm
12:37 PM 64.4°F18.0°C 40.2°F4.6°C 41% 4.0 mph 6.4 kmh 4.5 mph7.2 kmh 29.79 in1008.8 mb 0.00 in0.0 mm 0.00 in0.0 mm 1.07 in27.2 mm
12:39 PM 64.2°F17.9°C 40.6°F4.8°C 42% 1.6 mph N2.6 kmh N 2.2 mph3.5 kmh 29.80 in1009.1 mb 0.00 in0.0 mm 0.00 in0.0 mm 1.07 in27.2 mm
12:40 PM 63.5°F17.5°C 40.0°F4.4°C 42% 1.8 mph SE2.9 kmh SE 3.4 mph5.5 kmh 29.79 in1008.8 mb 0.00 in0.0 mm 0.00 in0.0 mm 1.07 in27.2 mm
12:41 PM 63.9°F17.7°C 39.7°F4.3°C 41% 0.2 mph ESE0.3 kmh ESE 1.1 mph1.8 kmh 29.80 in1009.1 mb 0.00 in0.0 mm 0.00 in0.0 mm 1.07 in27.2 mm
12:42 PM 64.2°F17.9°C 40.0°F4.4°C 41% 0.7 mph SE1.1 kmh SE 1.1 mph1.8 kmh 29.80 in1009.1 mb 0.00 in0.0 mm 0.00 in0.0 mm 1.07 in27.2 mm
12:43 PM 64.4°F18.0°C 41.4°F5.2°C 43% 0.7 mph SE1.1 kmh SE 1.1 mph1.8 kmh 29.79 in1008.8 mb 0.00 in0.0 mm 0.00 in0.0 mm 1.07 in27.2 mm
12:44 PM 64.4°F18.0°C 39.5°F4.2°C 40% 0.2 mph E0.3 kmh E 1.1 mph1.8 kmh 29.79 in1008.8 mb 0.00 in0.0 mm 0.00 in0.0 mm 1.07 in27.2 mm
12:45 PM 64.6°F18.1°C 40.4°F4.7°C 41% 2.2 mph SE3.5 kmh SE 2.2 mph3.5 kmh 29.79 in1008.8 mb 0.00 in0.0 mm 0.00 in0.0 mm 1.07 in27.2 mm
12:46 PM 64.4°F18.0°C 40.2°F4.6°C 41% 0.9 mph ESE1.4 kmh ESE 2.2 mph3.5 kmh 29.79 in1008.8 mb 0.00 in0.0 mm 0.00 in0.0 mm 1.07 in27.2 mm
12:47 PM 64.2°F17.9°C 41.2°F5.1°C 43% 0.2 mph SE0.3 kmh SE 1.1 mph1.8 kmh 29.80 in1009.1 mb 0.00 in0.0 mm 0.00 in0.0 mm 1.07 in27.2 mm
12:48 PM 64.2°F17.9°C 39.4°F4.1°C 40% 1.3 mph SE2.1 kmh SE 2.2 mph3.5 kmh 29.80 in1009.1 mb 0.00 in0.0 mm 0.00 in0.0 mm 1.07 in27.2 mm
12:49 PM 64.4°F18.0°C 40.2°F4.6°C 41% 3.6 mph SE5.8 kmh SE 4.5 mph7.2 kmh 29.79 in1008.8 mb 0.00 in0.0 mm 0.00 in0.0 mm 1.07 in27.2 mm
12:50 PM 64.2°F17.9°C 41.2°F5.1°C 43% 0.9 mph ESE1.4 kmh ESE 1.1 mph1.8 kmh 29.80 in1009.1 mb 0.00 in0.0 mm 0.00 in0.0 mm 1.07 in27.2 mm
12:51 PM 63.5°F17.5°C 39.4°F4.1°C 41% 1.3 mph SE2.1 kmh SE 2.2 mph3.5 kmh 29.79 in1008.8 mb 0.00 in0.0 mm 0.00 in0.0 mm 1.07 in27.2 mm
12:52 PM 63.3°F17.4°C 39.8°F4.3°C 42% 2.9 mph SE4.7 kmh SE 3.4 mph5.5 kmh 29.79 in1008.8 mb 0.00 in0.0 mm 0.00 in0.0 mm 1.07 in27.2 mm
12:53 PM 63.3°F17.4°C 40.4°F4.7°C 43% 2.2 mph SE3.5 kmh SE 2.2 mph3.5 kmh 29.79 in1008.8 mb 0.00 in0.0 mm 0.00 in0.0 mm 1.07 in27.2 mm
12:54 PM 63.0°F17.2°C 38.9°F3.8°C 41% 1.1 mph SE1.8 kmh SE 1.1 mph1.8 kmh 29.79 in1008.8 mb 0.00 in0.0 mm 0.00 in0.0 mm 1.07 in27.2 mm
12:55 PM 63.0°F17.2°C 38.9°F3.8°C 41% 2.7 mph SE4.3 kmh SE 4.5 mph7.2 kmh 29.79 in1008.8 mb 0.00 in0.0 mm 0.00 in0.0 mm 1.07 in27.2 mm
12:57 PM 63.1°F17.3°C 38.4°F3.6°C 40% 2.9 mph SE4.7 kmh SE 4.5 mph7.2 kmh 29.79 in1008.8 mb 0.00 in0.0 mm 0.00 in0.0 mm 1.07 in27.2 mm
12:58 PM 63.1°F17.3°C 39.6°F4.2°C 42% 0.2 mph E0.3 kmh E 1.1 mph1.8 kmh 29.79 in1008.8 mb 0.00 in0.0 mm 0.00 in0.0 mm 1.07 in27.2 mm
12:59 PM 63.1°F17.3°C 39.6°F4.2°C 42% 0.4 mph E0.6 kmh E 1.1 mph1.8 kmh 29.79 in1008.8 mb 0.00 in0.0 mm 0.00 in0.0 mm 1.07 in27.2 mm
01:00 PM 63.3°F17.4°C 40.4°F4.7°C 43% 2.2 mph SE3.5 kmh SE 2.2 mph3.5 kmh 29.79 in1008.8 mb 0.00 in0.0 mm 0.00 in0.0 mm 1.07 in27.2 mm
01:01 PM 63.3°F17.4°C 39.8°F4.3°C 42% 1.3 mph SE2.1 kmh SE 2.2 mph3.5 kmh 29.78 in1008.5 mb 0.00 in0.0 mm 0.00 in0.0 mm 1.07 in27.2 mm
01:02 PM 63.1°F17.3°C 40.2°F4.6°C 43% 2.2 mph SSE3.5 kmh SSE 3.4 mph5.5 kmh 29.79 in1008.8 mb 0.00 in0.0 mm 0.00 in0.0 mm 1.07 in27.2 mm
01:03 PM 63.1°F17.3°C 39.6°F4.2°C 42% 1.1 mph SE1.8 kmh SE 1.1 mph1.8 kmh 29.79 in1008.8 mb 0.00 in0.0 mm 0.00 in0.0 mm 1.07 in27.2 mm
01:04 PM 63.1°F17.3°C 38.4°F3.6°C 40% 2.5 mph SE4.0 kmh SE 3.4 mph5.5 kmh 29.79 in1008.8 mb 0.00 in0.0 mm 0.00 in0.0 mm 1.07 in27.2 mm
01:05 PM 63.1°F17.3°C 39.0°F3.9°C 41% 1.8 mph SE2.9 kmh SE 3.4 mph5.5 kmh 29.78 in1008.5 mb 0.00 in0.0 mm 0.00 in0.0 mm 1.07 in27.2 mm
01:06 PM 63.1°F17.3°C 40.2°F4.6°C 43% 1.8 mph E2.9 kmh E 2.2 mph3.5 kmh 29.79 in1008.8 mb 0.00 in0.0 mm 0.00 in0.0 mm 1.07 in27.2 mm
01:07 PM 63.1°F17.3°C 40.2°F4.6°C 43% 6.0 mph SE9.7 kmh SE 8.1 mph13.0 kmh 29.79 in1008.8 mb 0.00 in0.0 mm 0.00 in0.0 mm 1.07 in27.2 mm
01:09 PM 62.8°F17.1°C 37.5°F3.1°C 39% 2.5 mph SW4.0 kmh SW 3.4 mph5.5 kmh 29.79 in1008.8 mb 0.00 in0.0 mm 0.00 in0.0 mm 1.07 in27.2 mm
01:12 PM 62.2°F16.8°C 38.8°F3.8°C 42% 0.7 mph E1.1 kmh E 1.1 mph1.8 kmh 29.79 in1008.8 mb 0.00 in0.0 mm 0.00 in0.0 mm 1.07 in27.2 mm
01:13 PM 62.2°F16.8°C 38.2°F3.4°C 41% 1.1 mph E1.8 kmh E 1.1 mph1.8 kmh 29.78 in1008.5 mb 0.00 in0.0 mm 0.00 in0.0 mm 1.07 in27.2 mm
01:15 PM 62.2°F16.8°C 40.0°F4.4°C 44% Calm Calm -- 29.79 in1008.8 mb 0.00 in0.0 mm 0.00 in0.0 mm 1.07 in27.2 mm
01:16 PM 62.8°F17.1°C 38.7°F3.7°C 41% 0.9 mph E1.4 kmh E 2.2 mph3.5 kmh 29.78 in1008.5 mb 0.00 in0.0 mm 0.00 in0.0 mm 1.07 in27.2 mm
01:17 PM 63.0°F17.2°C 37.7°F3.2°C 39% 2.7 mph W4.3 kmh W 3.4 mph5.5 kmh 29.79 in1008.8 mb 0.00 in0.0 mm 0.00 in0.0 mm 1.07 in27.2 mm
01:18 PM 63.0°F17.2°C 37.7°F3.2°C 39% 0.9 mph NE1.4 kmh NE 1.1 mph1.8 kmh 29.79 in1008.8 mb 0.00 in0.0 mm 0.00 in0.0 mm 1.07 in27.2 mm
01:19 PM 62.6°F17.0°C 37.3°F2.9°C 39% Calm Calm -- 29.78 in1008.5 mb 0.00 in0.0 mm 0.00 in0.0 mm 1.07 in27.2 mm
01:20 PM 62.6°F17.0°C 38.6°F3.7°C 41% Calm Calm -- 29.78 in1008.5 mb 0.00 in0.0 mm 0.00 in0.0 mm 1.07 in27.2 mm
01:21 PM 62.8°F17.1°C 38.7°F3.7°C 41% 0.7 mph ENE1.1 kmh ENE 1.1 mph1.8 kmh 29.78 in1008.5 mb 0.00 in0.0 mm 0.00 in0.0 mm 1.07 in27.2 mm
01:23 PM 63.5°F17.5°C 42.3°F5.7°C 46% 0.4 mph E0.6 kmh E 1.1 mph1.8 kmh 29.78 in1008.5 mb 0.00 in0.0 mm 0.00 in0.0 mm 1.07 in27.2 mm
01:25 PM 63.9°F17.7°C 41.0°F5.0°C 43% 0.9 mph E1.4 kmh E 1.1 mph1.8 kmh 29.78 in1008.5 mb 0.00 in0.0 mm 0.00 in0.0 mm 1.07 in27.2 mm
01:29 PM 64.4°F18.0°C 42.6°F5.9°C 45% 0.7 mph E1.1 kmh E 1.1 mph1.8 kmh 29.78 in1008.5 mb 0.00 in0.0 mm 0.00 in0.0 mm 1.07 in27.2 mm
01:32 PM 63.9°F17.7°C 40.4°F4.7°C 42% 1.3 mph E2.1 kmh E 2.2 mph3.5 kmh 29.78 in1008.5 mb 0.00 in0.0 mm 0.00 in0.0 mm 1.07 in27.2 mm
01:33 PM 63.7°F17.6°C 40.2°F4.6°C 42% 2.0 mph SE3.2 kmh SE 3.4 mph5.5 kmh 29.78 in1008.5 mb 0.00 in0.0 mm 0.00 in0.0 mm 1.07 in27.2 mm
01:34 PM 63.7°F17.6°C 41.4°F5.2°C 44% 0.7 mph SE1.1 kmh SE 1.1 mph1.8 kmh 29.78 in1008.5 mb 0.00 in0.0 mm 0.00 in0.0 mm 1.07 in27.2 mm
01:35 PM 63.9°F17.7°C 39.7°F4.3°C 41% Calm Calm -- 29.79 in1008.8 mb 0.00 in0.0 mm 0.00 in0.0 mm 1.07 in27.2 mm
01:36 PM 64.2°F17.9°C 37.4°F3.0°C 37% 2.5 mph SE4.0 kmh SE 3.4 mph5.5 kmh 29.79 in1008.8 mb 0.00 in0.0 mm 0.00 in0.0 mm 1.07 in27.2 mm
01:37 PM 64.2°F17.9°C 38.7°F3.7°C 39% 2.5 mph S4.0 kmh S 3.4 mph5.5 kmh 29.79 in1008.8 mb 0.00 in0.0 mm 0.00 in0.0 mm 1.07 in27.2 mm
01:38 PM 63.9°F17.7°C 38.5°F3.6°C 39% 4.7 mph S7.6 kmh S 5.8 mph9.3 kmh 29.78 in1008.5 mb 0.00 in0.0 mm 0.00 in0.0 mm 1.07 in27.2 mm
01:39 PM 63.5°F17.5°C 38.1°F3.4°C 39% 1.3 mph SE2.1 kmh SE 2.2 mph3.5 kmh 29.78 in1008.5 mb 0.00 in0.0 mm 0.00 in0.0 mm 1.07 in27.2 mm
01:40 PM 63.3°F17.4°C 37.9°F3.3°C 39% 0.7 mph SE1.1 kmh SE 1.1 mph1.8 kmh 29.78 in1008.5 mb 0.00 in0.0 mm 0.00 in0.0 mm 1.07 in27.2 mm
01:42 PM 63.7°F17.6°C 40.2°F4.6°C 42% 1.6 mph E2.6 kmh E 3.4 mph5.5 kmh 29.78 in1008.5 mb 0.00 in0.0 mm 0.00 in0.0 mm 1.07 in27.2 mm
01:43 PM 63.7°F17.6°C 38.3°F3.5°C 39% 4.0 mph SE6.4 kmh SE 5.8 mph9.3 kmh 29.78 in1008.5 mb 0.00 in0.0 mm 0.00 in0.0 mm 1.07 in27.2 mm
01:44 PM 63.3°F17.4°C 37.9°F3.3°C 39% 3.1 mph SE5.0 kmh SE 4.5 mph7.2 kmh 29.78 in1008.5 mb 0.00 in0.0 mm 0.00 in0.0 mm 1.07 in27.2 mm
01:45 PM 63.0°F17.2°C 38.9°F3.8°C 41% 5.4 mph SE8.7 kmh SE 6.9 mph11.1 kmh 29.78 in1008.5 mb 0.00 in0.0 mm 0.00 in0.0 mm 1.07 in27.2 mm
01:47 PM 62.6°F17.0°C 38.6°F3.7°C 41% 2.9 mph SE4.7 kmh SE 4.5 mph7.2 kmh 29.79 in1008.8 mb 0.00 in0.0 mm 0.00 in0.0 mm 1.07 in27.2 mm
01:48 PM 62.4°F16.9°C 37.8°F3.2°C 40% 2.5 mph SE4.0 kmh SE 4.5 mph7.2 kmh 29.79 in1008.8 mb 0.00 in0.0 mm 0.00 in0.0 mm 1.07 in27.2 mm
01:50 PM 62.4°F16.9°C 37.8°F3.2°C 40% 3.1 mph SSW5.0 kmh SSW 4.5 mph7.2 kmh 29.78 in1008.5 mb 0.00 in0.0 mm 0.00 in0.0 mm 1.07 in27.2 mm
01:51 PM 62.6°F17.0°C 37.9°F3.3°C 40% 1.1 mph E1.8 kmh E 1.1 mph1.8 kmh 29.78 in1008.5 mb 0.00 in0.0 mm 0.00 in0.0 mm 1.07 in27.2 mm
01:52 PM 62.8°F17.1°C 40.0°F4.4°C 43% 0.7 mph E1.1 kmh E 1.1 mph1.8 kmh 29.78 in1008.5 mb 0.00 in0.0 mm 0.00 in0.0 mm 1.07 in27.2 mm
01:53 PM 62.8°F17.1°C 41.1°F5.1°C 45% 2.5 mph SE4.0 kmh SE 3.4 mph5.5 kmh 29.78 in1008.5 mb 0.00 in0.0 mm 0.00 in0.0 mm 1.07 in27.2 mm
01:54 PM 62.8°F17.1°C 37.5°F3.1°C 39% 2.2 mph SSE3.5 kmh SSE 2.2 mph3.5 kmh 29.78 in1008.5 mb 0.00 in0.0 mm 0.00 in0.0 mm 1.07 in27.2 mm
01:55 PM 62.8°F17.1°C 37.5°F3.1°C 39% 0.7 mph SE1.1 kmh SE 1.1 mph1.8 kmh 29.79 in1008.8 mb 0.00 in0.0 mm 0.00 in0.0 mm 1.07 in27.2 mm
01:56 PM 62.8°F17.1°C 37.5°F3.1°C 39% 3.4 mph WNW5.5 kmh WNW 4.5 mph7.2 kmh 29.79 in1008.8 mb 0.00 in0.0 mm 0.00 in0.0 mm 1.07 in27.2 mm
01:57 PM 62.8°F17.1°C 36.8°F2.7°C 38% 3.4 mph NW5.5 kmh NW 4.5 mph7.2 kmh 29.79 in1008.8 mb 0.00 in0.0 mm 0.00 in0.0 mm 1.07 in27.2 mm
01:58 PM 62.8°F17.1°C 36.8°F2.7°C 38% 3.4 mph S5.5 kmh S 4.5 mph7.2 kmh 29.79 in1008.8 mb 0.00 in0.0 mm 0.00 in0.0 mm 1.07 in27.2 mm
01:59 PM 62.8°F17.1°C 36.8°F2.7°C 38% 2.7 mph N4.3 kmh N 3.4 mph5.5 kmh 29.78 in1008.5 mb 0.00 in0.0 mm 0.00 in0.0 mm 1.07 in27.2 mm
02:03 PM 62.6°F17.0°C 36.6°F2.6°C 38% 3.4 mph N5.5 kmh N 3.4 mph5.5 kmh 29.78 in1008.5 mb 0.00 in0.0 mm 0.00 in0.0 mm 1.07 in27.2 mm
02:04 PM 62.4°F16.9°C 36.5°F2.5°C 38% 2.5 mph NNW4.0 kmh NNW 3.4 mph5.5 kmh 29.79 in1008.8 mb 0.00 in0.0 mm 0.00 in0.0 mm 1.07 in27.2 mm
02:05 PM 62.1°F16.7°C 36.2°F2.3°C 38% 2.5 mph W4.0 kmh W 3.4 mph5.5 kmh 29.79 in1008.8 mb 0.00 in0.0 mm 0.00 in0.0 mm 1.07 in27.2 mm
02:07 PM 62.2°F16.8°C 36.9°F2.7°C 39% 1.6 mph E2.6 kmh E 2.2 mph3.5 kmh 29.78 in1008.5 mb 0.00 in0.0 mm 0.00 in0.0 mm 1.07 in27.2 mm
02:08 PM 62.2°F16.8°C 38.2°F3.4°C 41% 0.9 mph E1.4 kmh E 2.2 mph3.5 kmh 29.78 in1008.5 mb 0.00 in0.0 mm 0.00 in0.0 mm 1.07 in27.2 mm
02:09 PM 62.2°F16.8°C 36.9°F2.7°C 39% 2.2 mph E3.5 kmh E 3.4 mph5.5 kmh 29.78 in1008.5 mb 0.00 in0.0 mm 0.00 in0.0 mm 1.07 in27.2 mm
02:10 PM 62.4°F16.9°C 37.1°F2.8°C 39% 7.4 mph SE11.9 kmh SE 9.2 mph14.8 kmh 29.79 in1008.8 mb 0.00 in0.0 mm 0.00 in0.0 mm 1.07 in27.2 mm
02:12 PM 62.4°F16.9°C 36.5°F2.5°C 38% 4.5 mph S7.2 kmh S 5.8 mph9.3 kmh 29.79 in1008.8 mb 0.00 in0.0 mm 0.00 in0.0 mm 1.07 in27.2 mm
02:14 PM 62.2°F16.8°C 36.9°F2.7°C 39% 1.8 mph SE2.9 kmh SE 3.4 mph5.5 kmh 29.78 in1008.5 mb 0.00 in0.0 mm 0.00 in0.0 mm 1.07 in27.2 mm
02:15 PM 61.7°F16.5°C 37.1°F2.8°C 40% 2.5 mph SE4.0 kmh SE 3.4 mph5.5 kmh 29.79 in1008.8 mb 0.00 in0.0 mm 0.00 in0.0 mm 1.07 in27.2 mm
02:16 PM 61.7°F16.5°C 35.8°F2.1°C 38% 2.2 mph SE3.5 kmh SE 2.2 mph3.5 kmh 29.79 in1008.8 mb 0.00 in0.0 mm 0.00 in0.0 mm 1.07 in27.2 mm
02:17 PM 61.7°F16.5°C 36.5°F2.5°C 39% 6.9 mph SE11.1 kmh SE 8.1 mph13.0 kmh 29.79 in1008.8 mb 0.00 in0.0 mm 0.00 in0.0 mm 1.07 in27.2 mm
02:18 PM 61.7°F16.5°C 37.8°F3.2°C 41% 1.3 mph ESE2.1 kmh ESE 2.2 mph3.5 kmh 29.79 in1008.8 mb 0.00 in0.0 mm 0.00 in0.0 mm 1.07 in27.2 mm
02:19 PM 61.7°F16.5°C 37.1°F2.8°C 40% 2.7 mph SSE4.3 kmh SSE 3.4 mph5.5 kmh 29.79 in1008.8 mb 0.00 in0.0 mm 0.00 in0.0 mm 1.07 in27.2 mm
02:20 PM 61.7°F16.5°C 37.8°F3.2°C 41% 0.7 mph E1.1 kmh E 1.1 mph1.8 kmh 29.78 in1008.5 mb 0.00 in0.0 mm 0.00 in0.0 mm 1.07 in27.2 mm
02:21 PM 61.9°F16.6°C 38.6°F3.7°C 42% Calm Calm -- 29.78 in1008.5 mb 0.00 in0.0 mm 0.00 in0.0 mm 1.07 in27.2 mm
02:22 PM 61.9°F16.6°C 37.3°F2.9°C 40% 2.5 mph SE4.0 kmh SE 3.4 mph5.5 kmh 29.78 in1008.5 mb 0.00 in0.0 mm 0.00 in0.0 mm 1.07 in27.2 mm
02:24 PM 61.9°F16.6°C 37.9°F3.3°C 41% 0.7 mph SE1.1 kmh SE 1.1 mph1.8 kmh 29.79 in1008.8 mb 0.00 in0.0 mm 0.00 in0.0 mm 1.07 in27.2 mm
02:25 PM 62.1°F16.7°C 38.1°F3.4°C 41% 3.8 mph SE6.1 kmh SE 5.8 mph9.3 kmh 29.78 in1008.5 mb 0.00 in0.0 mm 0.00 in0.0 mm 1.07 in27.2 mm
02:26 PM 62.1°F16.7°C 37.5°F3.1°C 40% 3.4 mph NE5.5 kmh NE 5.8 mph9.3 kmh 29.79 in1008.8 mb 0.00 in0.0 mm 0.00 in0.0 mm 1.07 in27.2 mm
02:27 PM 62.1°F16.7°C 38.1°F3.4°C 41% 0.9 mph E1.4 kmh E 1.1 mph1.8 kmh 29.78 in1008.5 mb 0.00 in0.0 mm 0.00 in0.0 mm 1.07 in27.2 mm
02:28 PM 61.9°F16.6°C 37.9°F3.3°C 41% 0.4 mph ENE0.6 kmh ENE 1.1 mph1.8 kmh 29.79 in1008.8 mb 0.00 in0.0 mm 0.00 in0.0 mm 1.07 in27.2 mm
02:29 PM 61.7°F16.5°C 37.8°F3.2°C 41% 1.8 mph NE2.9 kmh NE 2.2 mph3.5 kmh 29.78 in1008.5 mb 0.00 in0.0 mm 0.00 in0.0 mm 1.07 in27.2 mm
02:30 PM 61.9°F16.6°C 39.2°F4.0°C 43% 1.8 mph E2.9 kmh E 2.2 mph3.5 kmh 29.78 in1008.5 mb 0.00 in0.0 mm 0.00 in0.0 mm 1.07 in27.2 mm
02:31 PM 61.9°F16.6°C 39.2°F4.0°C 43% 0.9 mph E1.4 kmh E 1.1 mph1.8 kmh 29.78 in1008.5 mb 0.00 in0.0 mm 0.00 in0.0 mm 1.07 in27.2 mm
02:32 PM 61.9°F16.6°C 39.7°F4.3°C 44% 1.3 mph E2.1 kmh E 2.2 mph3.5 kmh 29.78 in1008.5 mb 0.00 in0.0 mm 0.00 in0.0 mm 1.07 in27.2 mm
02:34 PM 62.2°F16.8°C 38.8°F3.8°C 42% 1.6 mph ENE2.6 kmh ENE 2.2 mph3.5 kmh 29.79 in1008.8 mb 0.00 in0.0 mm 0.00 in0.0 mm 1.07 in27.2 mm
02:35 PM 62.2°F16.8°C 37.6°F3.1°C 40% 5.4 mph SE8.7 kmh SE 6.9 mph11.1 kmh 29.78 in1008.5 mb 0.00 in0.0 mm 0.00 in0.0 mm 1.07 in27.2 mm
02:36 PM 62.2°F16.8°C 38.2°F3.4°C 41% 0.7 mph SE1.1 kmh SE 1.1 mph1.8 kmh 29.79 in1008.8 mb 0.00 in0.0 mm 0.00 in0.0 mm 1.07 in27.2 mm
02:37 PM 62.2°F16.8°C 38.2°F3.4°C 41% 0.9 mph SE1.4 kmh SE 1.1 mph1.8 kmh 29.78 in1008.5 mb 0.00 in0.0 mm 0.00 in0.0 mm 1.07 in27.2 mm
02:38 PM 62.2°F16.8°C 38.2°F3.4°C 41% 0.7 mph SE1.1 kmh SE 2.2 mph3.5 kmh 29.78 in1008.5 mb 0.00 in0.0 mm 0.00 in0.0 mm 1.07 in27.2 mm
02:39 PM 62.6°F17.0°C 39.8°F4.3°C 43% 0.9 mph SE1.4 kmh SE 1.1 mph1.8 kmh 29.79 in1008.8 mb 0.00 in0.0 mm 0.00 in0.0 mm 1.07 in27.2 mm
02:40 PM 62.6°F17.0°C 39.8°F4.3°C 43% Calm Calm -- 29.79 in1008.8 mb 0.00 in0.0 mm 0.00 in0.0 mm 1.07 in27.2 mm
02:41 PM 62.6°F17.0°C 39.2°F4.0°C 42% 2.2 mph SE3.5 kmh SE 2.2 mph3.5 kmh 29.78 in1008.5 mb 0.00 in0.0 mm 0.00 in0.0 mm 1.07 in27.2 mm
02:42 PM 62.6°F17.0°C 37.9°F3.3°C 40% 3.4 mph SE5.5 kmh SE 4.5 mph7.2 kmh 29.78 in1008.5 mb 0.00 in0.0 mm 0.00 in0.0 mm 1.07 in27.2 mm
02:43 PM 62.4°F16.9°C 39.0°F3.9°C 42% 2.9 mph S4.7 kmh S 3.4 mph5.5 kmh 29.79 in1008.8 mb 0.00 in0.0 mm 0.00 in0.0 mm 1.07 in27.2 mm
02:44 PM 62.2°F16.8°C 38.2°F3.4°C 41% 0.7 mph E1.1 kmh E 1.1 mph1.8 kmh 29.79 in1008.8 mb 0.00 in0.0 mm 0.00 in0.0 mm 1.07 in27.2 mm
02:45 PM 62.1°F16.7°C 37.5°F3.1°C 40% 1.3 mph NNE2.1 kmh NNE 2.2 mph3.5 kmh 29.78 in1008.5 mb 0.00 in0.0 mm 0.00 in0.0 mm 1.07 in27.2 mm
02:46 PM 62.1°F16.7°C 38.1°F3.4°C 41% 2.7 mph SE4.3 kmh SE 4.5 mph7.2 kmh 29.79 in1008.8 mb 0.00 in0.0 mm 0.00 in0.0 mm 1.07 in27.2 mm
02:48 PM 61.7°F16.5°C 37.8°F3.2°C 41% 2.5 mph ESE4.0 kmh ESE 4.5 mph7.2 kmh 29.79 in1008.8 mb 0.00 in0.0 mm 0.00 in0.0 mm 1.07 in27.2 mm
02:50 PM 61.7°F16.5°C 38.4°F3.6°C 42% 1.3 mph WSW2.1 kmh WSW 3.4 mph5.5 kmh 29.79 in1008.8 mb 0.00 in0.0 mm 0.00 in0.0 mm 1.07 in27.2 mm
02:51 PM 61.5°F16.4°C 38.8°F3.8°C 43% 0.2 mph WSW0.3 kmh WSW 1.1 mph1.8 kmh 29.79 in1008.8 mb 0.00 in0.0 mm 0.00 in0.0 mm 1.07 in27.2 mm
02:52 PM 61.5°F16.4°C 38.2°F3.4°C 42% 2.9 mph SE4.7 kmh SE 3.4 mph5.5 kmh 29.79 in1008.8 mb 0.00 in0.0 mm 0.00 in0.0 mm 1.07 in27.2 mm
02:54 PM 61.5°F16.4°C 39.4°F4.1°C 44% 0.2 mph ESE0.3 kmh ESE 1.1 mph1.8 kmh 29.79 in1008.8 mb 0.00 in0.0 mm 0.00 in0.0 mm 1.07 in27.2 mm
02:55 PM 61.5°F16.4°C 38.8°F3.8°C 43% Calm Calm -- 29.79 in1008.8 mb 0.00 in0.0 mm 0.00 in0.0 mm 1.07 in27.2 mm
02:57 PM 61.9°F16.6°C 37.3°F2.9°C 40% 0.9 mph SE1.4 kmh SE 1.1 mph1.8 kmh 29.79 in1008.8 mb 0.00 in0.0 mm 0.00 in0.0 mm 1.07 in27.2 mm
02:58 PM 61.9°F16.6°C 37.9°F3.3°C 41% 1.8 mph SE2.9 kmh SE 2.2 mph3.5 kmh 29.79 in1008.8 mb 0.00 in0.0 mm 0.00 in0.0 mm 1.07 in27.2 mm
02:59 PM 61.9°F16.6°C 38.6°F3.7°C 42% 1.1 mph SE1.8 kmh SE 1.1 mph1.8 kmh 29.79 in1008.8 mb 0.00 in0.0 mm 0.00 in0.0 mm 1.07 in27.2 mm
03:00 PM 61.9°F16.6°C 39.7°F4.3°C 44% 1.8 mph E2.9 kmh E 2.2 mph3.5 kmh 29.79 in1008.8 mb 0.00 in0.0 mm 0.00 in0.0 mm 1.07 in27.2 mm
03:02 PM 61.7°F16.5°C 40.1°F4.5°C 45% Calm Calm -- 29.79 in1008.8 mb 0.00 in0.0 mm 0.00 in0.0 mm 1.07 in27.2 mm
03:04 PM 61.3°F16.3°C 39.2°F4.0°C 44% 0.9 mph E1.4 kmh E 1.1 mph1.8 kmh 29.79 in1008.8 mb 0.00 in0.0 mm 0.00 in0.0 mm 1.07 in27.2 mm
03:05 PM 61.2°F16.2°C 39.7°F4.3°C 45% 1.1 mph SE1.8 kmh SE 1.1 mph1.8 kmh 29.79 in1008.8 mb 0.00 in0.0 mm 0.00 in0.0 mm 1.07 in27.2 mm
03:06 PM 61.0°F16.1°C 39.5°F4.2°C 45% 2.9 mph SE4.7 kmh SE 4.5 mph7.2 kmh 29.79 in1008.8 mb 0.00 in0.0 mm 0.00 in0.0 mm 1.07 in27.2 mm
03:07 PM 60.8°F16.0°C 40.4°F4.7°C 47% 1.1 mph SE1.8 kmh SE 2.2 mph3.5 kmh 29.78 in1008.5 mb 0.00 in0.0 mm 0.00 in0.0 mm 1.07 in27.2 mm
03:08 PM 60.6°F15.9°C 40.3°F4.6°C 47% 1.8 mph SSE2.9 kmh SSE 2.2 mph3.5 kmh 29.79 in1008.8 mb 0.00 in0.0 mm 0.00 in0.0 mm 1.07 in27.2 mm
03:09 PM 60.6°F15.9°C 39.7°F4.3°C 46% 2.2 mph SE3.5 kmh SE 3.4 mph5.5 kmh 29.79 in1008.8 mb 0.00 in0.0 mm 0.00 in0.0 mm 1.07 in27.2 mm
03:10 PM 60.6°F15.9°C 40.8°F4.9°C 48% 0.9 mph SE1.4 kmh SE 1.1 mph1.8 kmh 29.78 in1008.5 mb 0.00 in0.0 mm 0.00 in0.0 mm 1.07 in27.2 mm
03:11 PM 60.4°F15.8°C 40.1°F4.5°C 47% 3.8 mph ESE6.1 kmh ESE 5.8 mph9.3 kmh 29.79 in1008.8 mb 0.00 in0.0 mm 0.00 in0.0 mm 1.07 in27.2 mm
03:12 PM 60.1°F15.6°C 39.3°F4.1°C 46% 1.6 mph E2.6 kmh E 2.2 mph3.5 kmh 29.79 in1008.8 mb 0.00 in0.0 mm 0.00 in0.0 mm 1.07 in27.2 mm
03:13 PM 59.9°F15.5°C 40.7°F4.8°C 49% 0.7 mph E1.1 kmh E 1.1 mph1.8 kmh 29.79 in1008.8 mb 0.00 in0.0 mm 0.00 in0.0 mm 1.07 in27.2 mm
03:14 PM 59.9°F15.5°C 41.2°F5.1°C 50% Calm Calm -- 29.79 in1008.8 mb 0.00 in0.0 mm 0.00 in0.0 mm 1.07 in27.2 mm
03:15 PM 59.9°F15.5°C 40.7°F4.8°C 49% 0.7 mph E1.1 kmh E 1.1 mph1.8 kmh 29.79 in1008.8 mb 0.00 in0.0 mm 0.00 in0.0 mm 1.07 in27.2 mm
03:16 PM 60.1°F15.6°C 39.3°F4.1°C 46% 1.6 mph E2.6 kmh E 2.2 mph3.5 kmh 29.79 in1008.8 mb 0.00 in0.0 mm 0.00 in0.0 mm 1.07 in27.2 mm
03:17 PM 60.3°F15.7°C 40.0°F4.4°C 47% 2.2 mph SE3.5 kmh SE 2.2 mph3.5 kmh 29.79 in1008.8 mb 0.00 in0.0 mm 0.00 in0.0 mm 1.07 in27.2 mm
03:18 PM 60.4°F15.8°C 40.6°F4.8°C 48% 1.3 mph ESE2.1 kmh ESE 2.2 mph3.5 kmh 29.79 in1008.8 mb 0.00 in0.0 mm 0.00 in0.0 mm 1.07 in27.2 mm
03:19 PM 60.4°F15.8°C 39.5°F4.2°C 46% 3.1 mph S5.0 kmh S 4.5 mph7.2 kmh 29.80 in1009.1 mb 0.00 in0.0 mm 0.00 in0.0 mm 1.07 in27.2 mm
03:20 PM 60.4°F15.8°C 39.5°F4.2°C 46% 1.8 mph ESE2.9 kmh ESE 2.2 mph3.5 kmh 29.79 in1008.8 mb 0.00 in0.0 mm 0.00 in0.0 mm 1.07 in27.2 mm
03:22 PM 60.4°F15.8°C 39.5°F4.2°C 46% 2.9 mph SE4.7 kmh SE 3.4 mph5.5 kmh 29.79 in1008.8 mb 0.00 in0.0 mm 0.00 in0.0 mm 1.07 in27.2 mm
03:24 PM 60.6°F15.9°C 40.8°F4.9°C 48% 0.9 mph E1.4 kmh E 1.1 mph1.8 kmh 29.79 in1008.8 mb 0.00 in0.0 mm 0.00 in0.0 mm 1.07 in27.2 mm
03:25 PM 60.8°F16.0°C 39.3°F4.1°C 45% 2.9 mph SE4.7 kmh SE 3.4 mph5.5 kmh 29.80 in1009.1 mb 0.00 in0.0 mm 0.00 in0.0 mm 1.07 in27.2 mm
03:26 PM 61.0°F16.1°C 40.1°F4.5°C 46% 2.9 mph SE4.7 kmh SE 3.4 mph5.5 kmh 29.80 in1009.1 mb 0.00 in0.0 mm 0.00 in0.0 mm 1.07 in27.2 mm
03:27 PM 61.0°F16.1°C 40.6°F4.8°C 47% 1.3 mph E2.1 kmh E 2.2 mph3.5 kmh 29.79 in1008.8 mb 0.00 in0.0 mm 0.00 in0.0 mm 1.07 in27.2 mm
03:28 PM 61.0°F16.1°C 40.6°F4.8°C 47% 1.3 mph SE2.1 kmh SE 3.4 mph5.5 kmh 29.79 in1008.8 mb 0.00 in0.0 mm 0.00 in0.0 mm 1.07 in27.2 mm
03:30 PM 61.0°F16.1°C 40.1°F4.5°C 46% 2.5 mph SSE4.0 kmh SSE 3.4 mph5.5 kmh 29.80 in1009.1 mb 0.00 in0.0 mm 0.00 in0.0 mm 1.07 in27.2 mm
03:31 PM 61.0°F16.1°C 40.1°F4.5°C 46% 0.9 mph SE1.4 kmh SE 1.1 mph1.8 kmh 29.79 in1008.8 mb 0.00 in0.0 mm 0.00 in0.0 mm 1.07 in27.2 mm
03:32 PM 61.0°F16.1°C 40.1°F4.5°C 46% 0.7 mph SE1.1 kmh SE 1.1 mph1.8 kmh 29.79 in1008.8 mb 0.00 in0.0 mm 0.00 in0.0 mm 1.07 in27.2 mm
03:33 PM 61.3°F16.3°C 40.3°F4.6°C 46% Calm Calm -- 29.79 in1008.8 mb 0.00 in0.0 mm 0.00 in0.0 mm 1.07 in27.2 mm
03:34 PM 61.3°F16.3°C 40.3°F4.6°C 46% Calm Calm -- 29.79 in1008.8 mb 0.00 in0.0 mm 0.00 in0.0 mm 1.07 in27.2 mm
03:36 PM 61.5°F16.4°C 42.2°F5.7°C 49% 0.2 mph E0.3 kmh E 1.1 mph1.8 kmh 29.79 in1008.8 mb 0.00 in0.0 mm 0.00 in0.0 mm 1.07 in27.2 mm
03:37 PM 61.3°F16.3°C 40.3°F4.6°C 46% 2.2 mph SSW3.5 kmh SSW 4.5 mph7.2 kmh 29.79 in1008.8 mb 0.00 in0.0 mm 0.00 in0.0 mm 1.07 in27.2 mm
03:38 PM 61.3°F16.3°C 40.3°F4.6°C 46% 3.8 mph SSE6.1 kmh SSE 4.5 mph7.2 kmh 29.79 in1008.8 mb 0.00 in0.0 mm 0.00 in0.0 mm 1.07 in27.2 mm
03:39 PM 61.3°F16.3°C 40.3°F4.6°C 46% 2.9 mph SSE4.7 kmh SSE 3.4 mph5.5 kmh 29.79 in1008.8 mb 0.00 in0.0 mm 0.00 in0.0 mm 1.07 in27.2 mm
03:40 PM 61.0°F16.1°C 40.6°F4.8°C 47% 1.6 mph SE2.6 kmh SE 2.2 mph3.5 kmh 29.80 in1009.1 mb 0.00 in0.0 mm 0.00 in0.0 mm 1.07 in27.2 mm
03:41 PM 61.0°F16.1°C 40.1°F4.5°C 46% 2.9 mph SSE4.7 kmh SSE 4.5 mph7.2 kmh 29.80 in1009.1 mb 0.00 in0.0 mm 0.00 in0.0 mm 1.07 in27.2 mm
03:42 PM 60.8°F16.0°C 39.9°F4.4°C 46% 3.4 mph SE5.5 kmh SE 4.5 mph7.2 kmh 29.79 in1008.8 mb 0.00 in0.0 mm 0.00 in0.0 mm 1.07 in27.2 mm
03:43 PM 60.8°F16.0°C 39.9°F4.4°C 46% 0.7 mph SE1.1 kmh SE 1.1 mph1.8 kmh 29.80 in1009.1 mb 0.00 in0.0 mm 0.00 in0.0 mm 1.07 in27.2 mm
03:44 PM 60.8°F16.0°C 40.4°F4.7°C 47% 0.2 mph ESE0.3 kmh ESE 1.1 mph1.8 kmh 29.79 in1008.8 mb 0.00 in0.0 mm 0.00 in0.0 mm 1.07 in27.2 mm
03:45 PM 60.8°F16.0°C 41.0°F5.0°C 48% 0.2 mph E0.3 kmh E 1.1 mph1.8 kmh 29.79 in1008.8 mb 0.00 in0.0 mm 0.00 in0.0 mm 1.07 in27.2 mm
03:46 PM 60.8°F16.0°C 40.4°F4.7°C 47% 2.2 mph SE3.5 kmh SE 3.4 mph5.5 kmh 29.79 in1008.8 mb 0.00 in0.0 mm 0.00 in0.0 mm 1.07 in27.2 mm
03:47 PM 60.8°F16.0°C 41.0°F5.0°C 48% 0.2 mph SE0.3 kmh SE 1.1 mph1.8 kmh 29.79 in1008.8 mb 0.00 in0.0 mm 0.00 in0.0 mm 1.07 in27.2 mm
03:48 PM 60.8°F16.0°C 39.9°F4.4°C 46% 2.9 mph SE4.7 kmh SE 4.5 mph7.2 kmh 29.79 in1008.8 mb 0.00 in0.0 mm 0.00 in0.0 mm 1.07 in27.2 mm
03:49 PM 60.4°F15.8°C 40.6°F4.8°C 48% 1.1 mph E1.8 kmh E 1.1 mph1.8 kmh 29.80 in1009.1 mb 0.00 in0.0 mm 0.00 in0.0 mm 1.07 in27.2 mm
03:50 PM 60.4°F15.8°C 41.2°F5.1°C 49% 0.2 mph E0.3 kmh E 1.1 mph1.8 kmh 29.79 in1008.8 mb 0.00 in0.0 mm 0.00 in0.0 mm 1.07 in27.2 mm
03:51 PM 60.4°F15.8°C 42.2°F5.7°C 51% Calm Calm -- 29.79 in1008.8 mb 0.00 in0.0 mm 0.00 in0.0 mm 1.07 in27.2 mm
03:52 PM 60.3°F15.7°C 41.1°F5.1°C 49% 1.1 mph E1.8 kmh E 1.1 mph1.8 kmh 29.80 in1009.1 mb 0.00 in0.0 mm 0.00 in0.0 mm 1.07 in27.2 mm
03:53 PM 60.3°F15.7°C 41.1°F5.1°C 49% 0.9 mph E1.4 kmh E 1.1 mph1.8 kmh 29.79 in1008.8 mb 0.00 in0.0 mm 0.00 in0.0 mm 1.07 in27.2 mm
03:55 PM 60.3°F15.7°C 41.6°F5.3°C 50% 0.7 mph E1.1 kmh E 1.1 mph1.8 kmh 29.80 in1009.1 mb 0.00 in0.0 mm 0.00 in0.0 mm 1.07 in27.2 mm
03:56 PM 60.3°F15.7°C 41.6°F5.3°C 50% 1.1 mph E1.8 kmh E 2.2 mph3.5 kmh 29.79 in1008.8 mb 0.00 in0.0 mm 0.00 in0.0 mm 1.07 in27.2 mm
03:57 PM 60.3°F15.7°C 41.1°F5.1°C 49% 2.5 mph SE4.0 kmh SE 3.4 mph5.5 kmh 29.80 in1009.1 mb 0.00 in0.0 mm 0.00 in0.0 mm 1.07 in27.2 mm
03:59 PM 60.3°F15.7°C 41.1°F5.1°C 49% 1.1 mph SE1.8 kmh SE 1.1 mph1.8 kmh 29.79 in1008.8 mb 0.00 in0.0 mm 0.00 in0.0 mm 1.07 in27.2 mm
04:00 PM 60.3°F15.7°C 41.6°F5.3°C 50% Calm Calm -- 29.80 in1009.1 mb 0.00 in0.0 mm 0.00 in0.0 mm 1.07 in27.2 mm
04:02 PM 60.4°F15.8°C 41.7°F5.4°C 50% Calm Calm -- 29.80 in1009.1 mb 0.00 in0.0 mm 0.00 in0.0 mm 1.07 in27.2 mm
04:03 PM 60.6°F15.9°C 41.3°F5.2°C 49% 0.2 mph SE0.3 kmh SE 1.1 mph1.8 kmh 29.80 in1009.1 mb 0.00 in0.0 mm 0.00 in0.0 mm 1.07 in27.2 mm
04:04 PM 60.6°F15.9°C 40.8°F4.9°C 48% 0.2 mph SE0.3 kmh SE 1.1 mph1.8 kmh 29.79 in1008.8 mb 0.00 in0.0 mm 0.00 in0.0 mm 1.07 in27.2 mm
04:05 PM 60.6°F15.9°C 41.9°F5.5°C 50% Calm Calm -- 29.79 in1008.8 mb 0.00 in0.0 mm 0.00 in0.0 mm 1.07 in27.2 mm
04:06 PM 60.6°F15.9°C 41.3°F5.2°C 49% Calm Calm -- 29.80 in1009.1 mb 0.00 in0.0 mm 0.00 in0.0 mm 1.07 in27.2 mm
04:07 PM 60.6°F15.9°C 41.9°F5.5°C 50% 0.7 mph SE1.1 kmh SE 1.1 mph1.8 kmh 29.79 in1008.8 mb 0.00 in0.0 mm 0.00 in0.0 mm 1.07 in27.2 mm
04:08 PM 60.8°F16.0°C 42.0°F5.6°C 50% 0.4 mph SE0.6 kmh SE 1.1 mph1.8 kmh 29.80 in1009.1 mb 0.00 in0.0 mm 0.00 in0.0 mm 1.07 in27.2 mm
04:09 PM 60.8°F16.0°C 42.0°F5.6°C 50% 0.7 mph SE1.1 kmh SE 1.1 mph1.8 kmh 29.80 in1009.1 mb 0.00 in0.0 mm 0.00 in0.0 mm 1.07 in27.2 mm
04:11 PM 60.8°F16.0°C 43.1°F6.2°C 52% 0.2 mph SE0.3 kmh SE 1.1 mph1.8 kmh 29.79 in1008.8 mb 0.00 in0.0 mm 0.00 in0.0 mm 1.07 in27.2 mm
04:13 PM 60.8°F16.0°C 42.0°F5.6°C 50% 0.7 mph SE1.1 kmh SE 1.1 mph1.8 kmh 29.79 in1008.8 mb 0.00 in0.0 mm 0.00 in0.0 mm 1.07 in27.2 mm
04:15 PM 60.8°F16.0°C 41.5°F5.3°C 49% 1.3 mph SE2.1 kmh SE 2.2 mph3.5 kmh 29.79 in1008.8 mb 0.00 in0.0 mm 0.00 in0.0 mm 1.07 in27.2 mm
04:16 PM 60.6°F15.9°C 41.9°F5.5°C 50% 0.7 mph SE1.1 kmh SE 1.1 mph1.8 kmh 29.79 in1008.8 mb 0.00 in0.0 mm 0.00 in0.0 mm 1.07 in27.2 mm
04:17 PM 60.4°F15.8°C 41.2°F5.1°C 49% Calm Calm -- 29.80 in1009.1 mb 0.00 in0.0 mm 0.00 in0.0 mm 1.07 in27.2 mm
04:18 PM 60.4°F15.8°C 39.5°F4.2°C 46% 1.6 mph ENE2.6 kmh ENE 2.2 mph3.5 kmh 29.80 in1009.1 mb 0.00 in0.0 mm 0.00 in0.0 mm 1.07 in27.2 mm
04:19 PM 60.4°F15.8°C 39.5°F4.2°C 46% 1.1 mph NE1.8 kmh NE 1.1 mph1.8 kmh 29.79 in1008.8 mb 0.00 in0.0 mm 0.00 in0.0 mm 1.07 in27.2 mm
04:20 PM 60.4°F15.8°C 41.2°F5.1°C 49% 1.3 mph ENE2.1 kmh ENE 2.2 mph3.5 kmh 29.79 in1008.8 mb 0.00 in0.0 mm 0.00 in0.0 mm 1.07 in27.2 mm
04:21 PM 60.3°F15.7°C 40.5°F4.7°C 48% 1.3 mph ENE2.1 kmh ENE 2.2 mph3.5 kmh 29.79 in1008.8 mb 0.00 in0.0 mm 0.00 in0.0 mm 1.07 in27.2 mm
04:22 PM 60.3°F15.7°C 41.1°F5.1°C 49% 0.9 mph E1.4 kmh E 2.2 mph3.5 kmh 29.79 in1008.8 mb 0.00 in0.0 mm 0.00 in0.0 mm 1.07 in27.2 mm
04:23 PM 59.9°F15.5°C 40.7°F4.8°C 49% 0.4 mph E0.6 kmh E 1.1 mph1.8 kmh 29.80 in1009.1 mb 0.00 in0.0 mm 0.00 in0.0 mm 1.07 in27.2 mm
04:24 PM 59.9°F15.5°C 39.6°F4.2°C 47% 1.3 mph E2.1 kmh E 2.2 mph3.5 kmh 29.80 in1009.1 mb 0.00 in0.0 mm 0.00 in0.0 mm 1.07 in27.2 mm
04:25 PM 59.9°F15.5°C 41.2°F5.1°C 50% 1.8 mph E2.9 kmh E 2.2 mph3.5 kmh 29.79 in1008.8 mb 0.00 in0.0 mm 0.00 in0.0 mm 1.07 in27.2 mm
04:26 PM 59.9°F15.5°C 41.2°F5.1°C 50% 0.7 mph E1.1 kmh E 1.1 mph1.8 kmh 29.79 in1008.8 mb 0.00 in0.0 mm 0.00 in0.0 mm 1.07 in27.2 mm
04:27 PM 59.7°F15.4°C 40.0°F4.4°C 48% 1.8 mph E2.9 kmh E 2.2 mph3.5 kmh 29.80 in1009.1 mb 0.00 in0.0 mm 0.00 in0.0 mm 1.07 in27.2 mm
04:28 PM 59.7°F15.4°C 40.0°F4.4°C 48% Calm Calm -- 29.79 in1008.8 mb 0.00 in0.0 mm 0.00 in0.0 mm 1.07 in27.2 mm
04:31 PM 59.9°F15.5°C 40.2°F4.6°C 48% 2.5 mph SE4.0 kmh SE 3.4 mph5.5 kmh 29.79 in1008.8 mb 0.00 in0.0 mm 0.00 in0.0 mm 1.07 in27.2 mm
04:32 PM 59.7°F15.4°C 38.9°F3.8°C 46% 0.9 mph SE1.4 kmh SE 1.1 mph1.8 kmh 29.79 in1008.8 mb 0.00 in0.0 mm 0.00 in0.0 mm 1.07 in27.2 mm
04:33 PM 59.7°F15.4°C 38.9°F3.8°C 46% 1.8 mph WNW2.9 kmh WNW 3.4 mph5.5 kmh 29.79 in1008.8 mb 0.00 in0.0 mm 0.00 in0.0 mm 1.07 in27.2 mm
04:34 PM 59.9°F15.5°C 38.5°F3.6°C 45% 3.6 mph WNW5.8 kmh WNW 4.5 mph7.2 kmh 29.79 in1008.8 mb 0.00 in0.0 mm 0.00 in0.0 mm 1.07 in27.2 mm
04:35 PM 59.9°F15.5°C 38.5°F3.6°C 45% Calm Calm -- 29.79 in1008.8 mb 0.00 in0.0 mm 0.00 in0.0 mm 1.07 in27.2 mm
04:37 PM 59.9°F15.5°C 39.1°F3.9°C 46% Calm Calm -- 29.79 in1008.8 mb 0.00 in0.0 mm 0.00 in0.0 mm 1.07 in27.2 mm
04:38 PM 60.1°F15.6°C 38.7°F3.7°C 45% Calm Calm -- 29.79 in1008.8 mb 0.00 in0.0 mm 0.00 in0.0 mm 1.07 in27.2 mm
04:39 PM 60.1°F15.6°C 39.3°F4.1°C 46% 0.2 mph ENE0.3 kmh ENE 1.1 mph1.8 kmh 29.79 in1008.8 mb 0.00 in0.0 mm 0.00 in0.0 mm 1.07 in27.2 mm
04:40 PM 60.1°F15.6°C 39.8°F4.3°C 47% 2.5 mph NNW4.0 kmh NNW 3.4 mph5.5 kmh 29.79 in1008.8 mb 0.00 in0.0 mm 0.00 in0.0 mm 1.07 in27.2 mm
04:41 PM 60.1°F15.6°C 40.3°F4.6°C 48% 2.5 mph N4.0 kmh N 3.4 mph5.5 kmh 29.80 in1009.1 mb 0.00 in0.0 mm 0.00 in0.0 mm 1.07 in27.2 mm
04:42 PM 59.9°F15.5°C 40.2°F4.6°C 48% 2.7 mph NW4.3 kmh NW 3.4 mph5.5 kmh 29.80 in1009.1 mb 0.00 in0.0 mm 0.00 in0.0 mm 1.07 in27.2 mm
04:43 PM 59.5°F15.3°C 39.8°F4.3°C 48% 4.9 mph NNW7.9 kmh NNW 5.8 mph9.3 kmh 29.79 in1008.8 mb 0.00 in0.0 mm 0.00 in0.0 mm 1.07 in27.2 mm
04:44 PM 59.5°F15.3°C 39.3°F4.1°C 47% 2.7 mph NE4.3 kmh NE 3.4 mph5.5 kmh 29.80 in1009.1 mb 0.00 in0.0 mm 0.00 in0.0 mm 1.07 in27.2 mm
04:45 PM 59.4°F15.2°C 39.2°F4.0°C 47% Calm Calm -- 29.80 in1009.1 mb 0.00 in0.0 mm 0.00 in0.0 mm 1.07 in27.2 mm
04:46 PM 59.4°F15.2°C 39.7°F4.3°C 48% Calm Calm -- 29.79 in1008.8 mb 0.00 in0.0 mm 0.00 in0.0 mm 1.07 in27.2 mm
04:48 PM 59.4°F15.2°C 39.7°F4.3°C 48% Calm Calm -- 29.79 in1008.8 mb 0.00 in0.0 mm 0.00 in0.0 mm 1.07 in27.2 mm
04:49 PM 59.4°F15.2°C 39.2°F4.0°C 47% 1.1 mph E1.8 kmh E 1.1 mph1.8 kmh 29.80 in1009.1 mb 0.00 in0.0 mm 0.00 in0.0 mm 1.07 in27.2 mm
04:50 PM 59.2°F15.1°C 39.5°F4.2°C 48% 1.1 mph E1.8 kmh E 1.1 mph1.8 kmh 29.80 in1009.1 mb 0.00 in0.0 mm 0.00 in0.0 mm 1.07 in27.2 mm
04:51 PM 59.2°F15.1°C 39.0°F3.9°C 47% 0.7 mph E1.1 kmh E 1.1 mph1.8 kmh 29.79 in1008.8 mb 0.00 in0.0 mm 0.00 in0.0 mm 1.07 in27.2 mm
04:52 PM 59.0°F15.0°C 38.2°F3.4°C 46% Calm Calm -- 29.80 in1009.1 mb 0.00 in0.0 mm 0.00 in0.0 mm 1.07 in27.2 mm
04:54 PM 59.0°F15.0°C 40.9°F4.9°C 51% 0.2 mph E0.3 kmh E 1.1 mph1.8 kmh 29.80 in1009.1 mb 0.00 in0.0 mm 0.00 in0.0 mm 1.07 in27.2 mm
04:55 PM 58.8°F14.9°C 40.7°F4.8°C 51% Calm Calm -- 29.80 in1009.1 mb 0.00 in0.0 mm 0.00 in0.0 mm 1.07 in27.2 mm
04:56 PM 58.6°F14.8°C 42.0°F5.6°C 54% Calm Calm -- 29.79 in1008.8 mb 0.00 in0.0 mm 0.00 in0.0 mm 1.07 in27.2 mm
04:57 PM 58.6°F14.8°C 40.0°F4.4°C 50% Calm Calm -- 29.80 in1009.1 mb 0.00 in0.0 mm 0.00 in0.0 mm 1.07 in27.2 mm
04:58 PM 58.5°F14.7°C 38.3°F3.5°C 47% 1.1 mph E1.8 kmh E 2.2 mph3.5 kmh 29.80 in1009.1 mb 0.00 in0.0 mm 0.00 in0.0 mm 1.07 in27.2 mm
04:59 PM 58.5°F14.7°C 39.9°F4.4°C 50% 0.9 mph E1.4 kmh E 1.1 mph1.8 kmh 29.80 in1009.1 mb 0.00 in0.0 mm 0.00 in0.0 mm 1.07 in27.2 mm
05:00 PM 58.5°F14.7°C 40.4°F4.7°C 51% 0.2 mph E0.3 kmh E 1.1 mph1.8 kmh 29.80 in1009.1 mb 0.00 in0.0 mm 0.00 in0.0 mm 1.07 in27.2 mm
05:01 PM 58.5°F14.7°C 40.9°F4.9°C 52% 0.9 mph E1.4 kmh E 1.1 mph1.8 kmh 29.80 in1009.1 mb 0.00 in0.0 mm 0.00 in0.0 mm 1.07 in27.2 mm
05:02 PM 58.5°F14.7°C 39.9°F4.4°C 50% 2.7 mph SE4.3 kmh SE 3.4 mph5.5 kmh 29.80 in1009.1 mb 0.00 in0.0 mm 0.00 in0.0 mm 1.07 in27.2 mm
05:03 PM 58.5°F14.7°C 40.4°F4.7°C 51% Calm Calm -- 29.80 in1009.1 mb 0.00 in0.0 mm 0.00 in0.0 mm 1.07 in27.2 mm
05:04 PM 58.5°F14.7°C 42.9°F6.1°C 56% Calm Calm -- 29.80 in1009.1 mb 0.00 in0.0 mm 0.00 in0.0 mm 1.07 in27.2 mm
05:06 PM 58.5°F14.7°C 41.4°F5.2°C 53% 0.7 mph SE1.1 kmh SE 1.1 mph1.8 kmh 29.80 in1009.1 mb 0.00 in0.0 mm 0.00 in0.0 mm 1.07 in27.2 mm
05:07 PM 58.3°F14.6°C 41.7°F5.4°C 54% 0.2 mph E0.3 kmh E 1.1 mph1.8 kmh 29.80 in1009.1 mb 0.00 in0.0 mm 0.00 in0.0 mm 1.07 in27.2 mm
05:09 PM 58.1°F14.5°C 41.5°F5.3°C 54% Calm Calm -- 29.79 in1008.8 mb 0.00 in0.0 mm 0.00 in0.0 mm 1.07 in27.2 mm
05:10 PM 57.9°F14.4°C 40.9°F4.9°C 53% 0.7 mph E1.1 kmh E 1.1 mph1.8 kmh 29.79 in1008.8 mb 0.00 in0.0 mm 0.00 in0.0 mm 1.07 in27.2 mm
05:11 PM 57.9°F14.4°C 40.4°F4.7°C 52% 1.8 mph ESE2.9 kmh ESE 2.2 mph3.5 kmh 29.80 in1009.1 mb 0.00 in0.0 mm 0.00 in0.0 mm 1.07 in27.2 mm
05:12 PM 57.7°F14.3°C 39.2°F4.0°C 50% 1.3 mph SE2.1 kmh SE 2.2 mph3.5 kmh 29.80 in1009.1 mb 0.00 in0.0 mm 0.00 in0.0 mm 1.07 in27.2 mm
05:14 PM 57.9°F14.4°C 39.4°F4.1°C 50% 0.7 mph ESE1.1 kmh ESE 1.1 mph1.8 kmh 29.80 in1009.1 mb 0.00 in0.0 mm 0.00 in0.0 mm 1.07 in27.2 mm
05:16 PM 58.1°F14.5°C 40.6°F4.8°C 52% 0.2 mph ESE0.3 kmh ESE 1.1 mph1.8 kmh 29.80 in1009.1 mb 0.00 in0.0 mm 0.00 in0.0 mm 1.07 in27.2 mm
05:17 PM 57.9°F14.4°C 40.9°F4.9°C 53% Calm Calm -- 29.80 in1009.1 mb 0.00 in0.0 mm 0.00 in0.0 mm 1.07 in27.2 mm
05:19 PM 57.9°F14.4°C 40.4°F4.7°C 52% 0.4 mph ESE0.6 kmh ESE 1.1 mph1.8 kmh 29.80 in1009.1 mb 0.00 in0.0 mm 0.00 in0.0 mm 1.07 in27.2 mm
05:20 PM 57.9°F14.4°C 39.9°F4.4°C 51% Calm Calm -- 29.80 in1009.1 mb 0.00 in0.0 mm 0.00 in0.0 mm 1.07 in27.2 mm
05:21 PM 57.7°F14.3°C 42.6°F5.9°C 57% Calm Calm -- 29.80 in1009.1 mb 0.00 in0.0 mm 0.00 in0.0 mm 1.07 in27.2 mm
05:22 PM 57.7°F14.3°C 41.2°F5.1°C 54% Calm Calm -- 29.80 in1009.1 mb 0.00 in0.0 mm 0.00 in0.0 mm 1.07 in27.2 mm
05:23 PM 57.7°F14.3°C 42.6°F5.9°C 57% Calm Calm -- 29.81 in1009.5 mb 0.00 in0.0 mm 0.00 in0.0 mm 1.07 in27.2 mm
05:24 PM 57.6°F14.2°C 44.2°F6.8°C 61% Calm Calm -- 29.81 in1009.5 mb 0.00 in0.0 mm 0.00 in0.0 mm 1.07 in27.2 mm
05:25 PM 57.6°F14.2°C 46.7°F8.2°C 67% 1.1 mph ESE1.8 kmh ESE 2.2 mph3.5 kmh 29.81 in1009.5 mb 0.07 in1.8 mm 4.20 in106.7 mm 1.08 in27.4 mm
05:26 PM 57.2°F14.0°C 46.3°F7.9°C 67% 1.3 mph SE2.1 kmh SE 2.2 mph3.5 kmh 29.81 in1009.5 mb 0.12 in3.0 mm 3.00 in76.2 mm 1.09 in27.7 mm
05:27 PM 56.7°F13.7°C 45.1°F7.3°C 65% 1.3 mph SE2.1 kmh SE 2.2 mph3.5 kmh 29.81 in1009.5 mb 0.19 in4.8 mm 4.20 in106.7 mm 1.10 in27.9 mm
05:28 PM 56.1°F13.4°C 46.5°F8.1°C 70% Calm Calm -- 29.81 in1009.5 mb 0.24 in6.1 mm 3.00 in76.2 mm 1.11 in28.2 mm
05:29 PM 55.6°F13.1°C 47.1°F8.4°C 73% 2.0 mph NW3.2 kmh NW 3.4 mph5.5 kmh 29.81 in1009.5 mb 0.31 in7.9 mm 4.20 in106.7 mm 1.12 in28.4 mm
05:31 PM 54.3°F12.4°C 47.9°F8.8°C 79% 1.6 mph NE2.6 kmh NE 2.2 mph3.5 kmh 29.81 in1009.5 mb 0.35 in8.9 mm 1.20 in30.5 mm 1.13 in28.7 mm
05:32 PM 53.6°F12.0°C 47.6°F8.7°C 80% 0.2 mph NE0.3 kmh NE 1.1 mph1.8 kmh 29.81 in1009.5 mb 0.35 in8.9 mm 0.00 in0.0 mm 1.13 in28.7 mm
05:33 PM 53.1°F11.7°C 46.8°F8.2°C 79% 1.3 mph NNE2.1 kmh NNE 2.2 mph3.5 kmh 29.81 in1009.5 mb 0.35 in8.9 mm 0.00 in0.0 mm 1.13 in28.7 mm
05:34 PM 52.9°F11.6°C 47.2°F8.4°C 81% Calm Calm -- 29.81 in1009.5 mb 0.35 in8.9 mm 0.00 in0.0 mm 1.13 in28.7 mm
05:36 PM 52.3°F11.3°C 48.2°F9.0°C 86% 1.1 mph NE1.8 kmh NE 1.1 mph1.8 kmh 29.81 in1009.5 mb 0.17 in4.3 mm 0.00 in0.0 mm 1.13 in28.7 mm
05:37 PM 52.2°F11.2°C 47.2°F8.4°C 83% 2.5 mph NNE4.0 kmh NNE 3.4 mph5.5 kmh 29.81 in1009.5 mb 0.12 in3.0 mm 0.00 in0.0 mm 1.13 in28.7 mm
05:39 PM 52.0°F11.1°C 47.0°F8.3°C 83% 2.2 mph NE3.5 kmh NE 2.2 mph3.5 kmh 29.81 in1009.5 mb 0.05 in1.3 mm 0.00 in0.0 mm 1.13 in28.7 mm
05:42 PM 52.0°F11.1°C 47.3°F8.5°C 84% Calm Calm -- 29.81 in1009.5 mb 0.00 in0.0 mm 0.00 in0.0 mm 1.13 in28.7 mm
05:43 PM 51.6°F10.9°C 46.9°F8.3°C 84% Calm Calm -- 29.81 in1009.5 mb 0.00 in0.0 mm 0.00 in0.0 mm 1.13 in28.7 mm
05:44 PM 51.6°F10.9°C 47.2°F8.4°C 85% 0.4 mph NE0.6 kmh NE 1.1 mph1.8 kmh 29.81 in1009.5 mb 0.00 in0.0 mm 0.00 in0.0 mm 1.13 in28.7 mm
05:45 PM 51.6°F10.9°C 47.6°F8.7°C 86% Calm Calm -- 29.81 in1009.5 mb 0.00 in0.0 mm 0.00 in0.0 mm 1.13 in28.7 mm
05:46 PM 51.4°F10.8°C 47.7°F8.7°C 87% 0.4 mph NE0.6 kmh NE 1.1 mph1.8 kmh 29.81 in1009.5 mb 0.00 in0.0 mm 0.00 in0.0 mm 1.13 in28.7 mm
05:47 PM 51.3°F10.7°C 47.9°F8.8°C 88% Calm Calm -- 29.81 in1009.5 mb 0.00 in0.0 mm 0.00 in0.0 mm 1.13 in28.7 mm
05:49 PM 50.9°F10.5°C 47.8°F8.8°C 89% 0.2 mph NE0.3 kmh NE 1.1 mph1.8 kmh 29.82 in1009.8 mb 0.00 in0.0 mm 0.00 in0.0 mm 1.13 in28.7 mm
05:50 PM 50.7°F10.4°C 47.6°F8.7°C 89% Calm Calm -- 29.82 in1009.8 mb 0.00 in0.0 mm 0.00 in0.0 mm 1.13 in28.7 mm
05:51 PM 50.5°F10.3°C 47.1°F8.4°C 88% Calm Calm -- 29.82 in1009.8 mb 0.00 in0.0 mm 0.00 in0.0 mm 1.13 in28.7 mm
05:52 PM 50.5°F10.3°C 47.1°F8.4°C 88% Calm Calm -- 29.82 in1009.8 mb 0.00 in0.0 mm 0.00 in0.0 mm 1.13 in28.7 mm
05:54 PM 50.5°F10.3°C 47.1°F8.4°C 88% Calm Calm -- 29.81 in1009.5 mb 0.00 in0.0 mm 0.00 in0.0 mm 1.13 in28.7 mm
05:56 PM 50.5°F10.3°C 47.4°F8.6°C 89% Calm Calm -- 29.81 in1009.5 mb 0.00 in0.0 mm 0.00 in0.0 mm 1.13 in28.7 mm
05:57 PM 50.7°F10.4°C 47.3°F8.5°C 88% 0.9 mph NE1.4 kmh NE 1.1 mph1.8 kmh 29.81 in1009.5 mb 0.00 in0.0 mm 0.00 in0.0 mm 1.13 in28.7 mm
05:58 PM 50.9°F10.5°C 46.9°F8.3°C 86% 0.9 mph NE1.4 kmh NE 1.1 mph1.8 kmh 29.81 in1009.5 mb 0.00 in0.0 mm 0.00 in0.0 mm 1.13 in28.7 mm
05:59 PM 50.9°F10.5°C 46.6°F8.1°C 85% 1.3 mph NE2.1 kmh NE 2.2 mph3.5 kmh 29.81 in1009.5 mb 0.00 in0.0 mm 0.00 in0.0 mm 1.13 in28.7 mm
06:00 PM 50.9°F10.5°C 47.5°F8.6°C 88% 1.1 mph NNE1.8 kmh NNE 1.1 mph1.8 kmh 29.81 in1009.5 mb 0.00 in0.0 mm 0.00 in0.0 mm 1.13 in28.7 mm
06:01 PM 50.9°F10.5°C 47.2°F8.4°C 87% 0.9 mph NE1.4 kmh NE 1.1 mph1.8 kmh 29.81 in1009.5 mb 0.00 in0.0 mm 0.00 in0.0 mm 1.13 in28.7 mm
06:02 PM 50.9°F10.5°C 46.6°F8.1°C 85% 0.4 mph NE0.6 kmh NE 1.1 mph1.8 kmh 29.81 in1009.5 mb 0.00 in0.0 mm 0.00 in0.0 mm 1.13 in28.7 mm
06:03 PM 50.7°F10.4°C 47.3°F8.5°C 88% Calm Calm -- 29.82 in1009.8 mb 0.00 in0.0 mm 0.00 in0.0 mm 1.13 in28.7 mm
06:04 PM 50.7°F10.4°C 47.6°F8.7°C 89% 0.2 mph NE0.3 kmh NE 1.1 mph1.8 kmh 29.82 in1009.8 mb 0.00 in0.0 mm 0.00 in0.0 mm 1.13 in28.7 mm
06:06 PM 50.9°F10.5°C 46.9°F8.3°C 86% 1.6 mph N2.6 kmh N 2.2 mph3.5 kmh 29.81 in1009.5 mb 0.00 in0.0 mm 0.00 in0.0 mm 1.13 in28.7 mm
06:07 PM 50.9°F10.5°C 47.2°F8.4°C 87% 1.3 mph NE2.1 kmh NE 2.2 mph3.5 kmh 29.82 in1009.8 mb 0.00 in0.0 mm 0.00 in0.0 mm 1.13 in28.7 mm
06:08 PM 51.1°F10.6°C 47.4°F8.6°C 87% 2.2 mph NNE3.5 kmh NNE 2.2 mph3.5 kmh 29.82 in1009.8 mb 0.00 in0.0 mm 0.00 in0.0 mm 1.13 in28.7 mm
06:09 PM 51.3°F10.7°C 47.3°F8.5°C 86% 2.2 mph NNE3.5 kmh NNE 2.2 mph3.5 kmh 29.82 in1009.8 mb 0.00 in0.0 mm 0.00 in0.0 mm 1.13 in28.7 mm
06:10 PM 51.3°F10.7°C 47.3°F8.5°C 86% 2.2 mph N3.5 kmh N 2.2 mph3.5 kmh 29.82 in1009.8 mb 0.00 in0.0 mm 0.00 in0.0 mm 1.13 in28.7 mm
06:11 PM 51.3°F10.7°C 47.6°F8.7°C 87% 1.1 mph NE1.8 kmh NE 1.1 mph1.8 kmh 29.82 in1009.8 mb 0.00 in0.0 mm 0.00 in0.0 mm 1.13 in28.7 mm
06:12 PM 51.1°F10.6°C 46.7°F8.2°C 85% 1.6 mph NE2.6 kmh NE 2.2 mph3.5 kmh 29.82 in1009.8 mb 0.00 in0.0 mm 0.00 in0.0 mm 1.13 in28.7 mm
06:13 PM 50.9°F10.5°C 46.6°F8.1°C 85% 2.2 mph NNE3.5 kmh NNE 2.2 mph3.5 kmh 29.82 in1009.8 mb 0.00 in0.0 mm 0.00 in0.0 mm 1.13 in28.7 mm
06:15 PM 51.1°F10.6°C 46.7°F8.2°C 85% 0.9 mph NNE1.4 kmh NNE 1.1 mph1.8 kmh 29.82 in1009.8 mb 0.00 in0.0 mm 0.00 in0.0 mm 1.13 in28.7 mm
06:16 PM 51.4°F10.8°C 47.0°F8.3°C 85% 1.1 mph NE1.8 kmh NE 1.1 mph1.8 kmh 29.82 in1009.8 mb 0.00 in0.0 mm 0.00 in0.0 mm 1.13 in28.7 mm
06:17 PM 51.4°F10.8°C 45.8°F7.7°C 81% 0.9 mph NE1.4 kmh NE 1.1 mph1.8 kmh 29.82 in1009.8 mb 0.00 in0.0 mm 0.00 in0.0 mm 1.13 in28.7 mm
06:19 PM 51.6°F10.9°C 46.6°F8.1°C 83% 0.4 mph NE0.6 kmh NE 1.1 mph1.8 kmh 29.82 in1009.8 mb 0.00 in0.0 mm 0.00 in0.0 mm 1.13 in28.7 mm
06:20 PM 51.6°F10.9°C 45.6°F7.6°C 80% 0.7 mph NE1.1 kmh NE 1.1 mph1.8 kmh 29.82 in1009.8 mb 0.00 in0.0 mm 0.00 in0.0 mm 1.13 in28.7 mm
06:21 PM 51.6°F10.9°C 46.6°F8.1°C 83% Calm Calm -- 29.82 in1009.8 mb 0.00 in0.0 mm 0.00 in0.0 mm 1.13 in28.7 mm
06:23 PM 51.8°F11.0°C 48.1°F8.9°C 87% 0.2 mph NE0.3 kmh NE 1.1 mph1.8 kmh 29.82 in1009.8 mb 0.00 in0.0 mm 0.00 in0.0 mm 1.13 in28.7 mm
06:24 PM 51.3°F10.7°C 47.6°F8.7°C 87% Calm Calm -- 29.82 in1009.8 mb 0.00 in0.0 mm 0.00 in0.0 mm 1.13 in28.7 mm
06:25 PM 50.9°F10.5°C 47.5°F8.6°C 88% Calm Calm -- 29.81 in1009.5 mb 0.00 in0.0 mm 0.00 in0.0 mm 1.13 in28.7 mm
06:26 PM 50.9°F10.5°C 47.5°F8.6°C 88% Calm Calm -- 29.82 in1009.8 mb 0.00 in0.0 mm 0.00 in0.0 mm 1.13 in28.7 mm
06:27 PM 50.7°F10.4°C 47.6°F8.7°C 89% Calm Calm -- 29.82 in1009.8 mb 0.00 in0.0 mm 0.00 in0.0 mm 1.13 in28.7 mm
06:28 PM 50.7°F10.4°C 47.6°F8.7°C 89% Calm Calm -- 29.82 in1009.8 mb 0.00 in0.0 mm 0.00 in0.0 mm 1.13 in28.7 mm
06:30 PM 50.7°F10.4°C 47.6°F8.7°C 89% 0.7 mph NE1.1 kmh NE 1.1 mph1.8 kmh 29.83 in1010.2 mb 0.00 in0.0 mm 0.00 in0.0 mm 1.13 in28.7 mm
06:31 PM 50.9°F10.5°C 47.2°F8.4°C 87% 1.1 mph NE1.8 kmh NE 1.1 mph1.8 kmh 29.82 in1009.8 mb 0.00 in0.0 mm 0.00 in0.0 mm 1.13 in28.7 mm
06:32 PM 50.9°F10.5°C 47.2°F8.4°C 87% 0.9 mph NE1.4 kmh NE 1.1 mph1.8 kmh 29.82 in1009.8 mb 0.00 in0.0 mm 0.00 in0.0 mm 1.13 in28.7 mm
06:33 PM 51.1°F10.6°C 47.1°F8.4°C 86% Calm Calm -- 29.83 in1010.2 mb 0.00 in0.0 mm 0.00 in0.0 mm 1.13 in28.7 mm
06:34 PM 51.3°F10.7°C 47.6°F8.7°C 87% 0.4 mph NE0.6 kmh NE 1.1 mph1.8 kmh 29.82 in1009.8 mb 0.00 in0.0 mm 0.00 in0.0 mm 1.13 in28.7 mm
06:35 PM 51.3°F10.7°C 47.9°F8.8°C 88% Calm Calm -- 29.82 in1009.8 mb 0.00 in0.0 mm 0.00 in0.0 mm 1.13 in28.7 mm
06:36 PM 51.3°F10.7°C 47.9°F8.8°C 88% Calm Calm -- 29.82 in1009.8 mb 0.00 in0.0 mm 0.00 in0.0 mm 1.13 in28.7 mm
06:37 PM 51.3°F10.7°C 47.6°F8.7°C 87% Calm Calm -- 29.83 in1010.2 mb 0.00 in0.0 mm 0.00 in0.0 mm 1.13 in28.7 mm
06:39 PM 51.1°F10.6°C 47.4°F8.6°C 87% Calm Calm -- 29.83 in1010.2 mb 0.07 in1.8 mm 2.10 in53.3 mm 1.14 in29.0 mm
06:40 PM 51.1°F10.6°C 47.7°F8.7°C 88% 0.2 mph NE0.3 kmh NE 1.1 mph1.8 kmh 29.82 in1009.8 mb 0.07 in1.8 mm 0.00 in0.0 mm 1.14 in29.0 mm
06:42 PM 51.1°F10.6°C 48.0°F8.9°C 89% 1.1 mph NE1.8 kmh NE 1.1 mph1.8 kmh 29.83 in1010.2 mb 0.07 in1.8 mm 0.00 in0.0 mm 1.14 in29.0 mm
06:43 PM 50.5°F10.3°C 48.0°F8.9°C 91% Calm Calm -- 29.82 in1009.8 mb 0.07 in1.8 mm 0.00 in0.0 mm 1.14 in29.0 mm
06:44 PM 50.2°F10.1°C 47.7°F8.7°C 91% Calm Calm -- 29.82 in1009.8 mb 0.07 in1.8 mm 0.00 in0.0 mm 1.14 in29.0 mm
06:45 PM 50.2°F10.1°C 47.7°F8.7°C 91% Calm Calm -- 29.82 in1009.8 mb 0.07 in1.8 mm 0.00 in0.0 mm 1.14 in29.0 mm
06:46 PM 50.2°F10.1°C 48.0°F8.9°C 92% 0.7 mph NE1.1 kmh NE 1.1 mph1.8 kmh 29.82 in1009.8 mb 0.07 in1.8 mm 0.00 in0.0 mm 1.14 in29.0 mm
06:47 PM 50.2°F10.1°C 48.0°F8.9°C 92% 0.2 mph NE0.3 kmh NE 1.1 mph1.8 kmh 29.82 in1009.8 mb 0.07 in1.8 mm 0.00 in0.0 mm 1.14 in29.0 mm
06:48 PM 50.2°F10.1°C 48.0°F8.9°C 92% 0.2 mph NE0.3 kmh NE 1.1 mph1.8 kmh 29.82 in1009.8 mb 0.00 in0.0 mm 0.00 in0.0 mm 1.14 in29.0 mm
06:50 PM 50.4°F10.2°C 47.9°F8.8°C 91% 1.1 mph NE1.8 kmh NE 1.1 mph1.8 kmh 29.83 in1010.2 mb 0.00 in0.0 mm 0.00 in0.0 mm 1.14 in29.0 mm
06:51 PM 50.5°F10.3°C 48.3°F9.1°C 92% 1.3 mph NE2.1 kmh NE 2.2 mph3.5 kmh 29.82 in1009.8 mb 0.00 in0.0 mm 0.00 in0.0 mm 1.14 in29.0 mm
06:52 PM 50.5°F10.3°C 48.0°F8.9°C 91% 0.9 mph NE1.4 kmh NE 2.2 mph3.5 kmh 29.82 in1009.8 mb 0.00 in0.0 mm 0.00 in0.0 mm 1.14 in29.0 mm
06:53 PM 50.7°F10.4°C 47.9°F8.8°C 90% 2.0 mph NNE3.2 kmh NNE 2.2 mph3.5 kmh 29.83 in1010.2 mb 0.00 in0.0 mm 0.00 in0.0 mm 1.14 in29.0 mm
06:54 PM 50.7°F10.4°C 47.9°F8.8°C 90% 1.1 mph NE1.8 kmh NE 1.1 mph1.8 kmh 29.82 in1009.8 mb 0.00 in0.0 mm 0.00 in0.0 mm 1.14 in29.0 mm
06:55 PM 50.9°F10.5°C 48.4°F9.1°C 91% 0.7 mph NE1.1 kmh NE 1.1 mph1.8 kmh 29.82 in1009.8 mb 0.05 in1.3 mm 3.00 in76.2 mm 1.15 in29.2 mm
06:56 PM 50.9°F10.5°C 48.4°F9.1°C 91% 1.6 mph NE2.6 kmh NE 2.2 mph3.5 kmh 29.82 in1009.8 mb 0.05 in1.3 mm 0.00 in0.0 mm 1.15 in29.2 mm
06:57 PM 50.9°F10.5°C 48.4°F9.1°C 91% 1.1 mph NE1.8 kmh NE 1.1 mph1.8 kmh 29.82 in1009.8 mb 0.05 in1.3 mm 0.00 in0.0 mm 1.15 in29.2 mm
06:58 PM 50.9°F10.5°C 48.4°F9.1°C 91% 0.9 mph NE1.4 kmh NE 2.2 mph3.5 kmh 29.82 in1009.8 mb 0.05 in1.3 mm 0.00 in0.0 mm 1.15 in29.2 mm
06:59 PM 50.7°F10.4°C 48.2°F9.0°C 91% 0.9 mph NE1.4 kmh NE 1.1 mph1.8 kmh 29.82 in1009.8 mb 0.05 in1.3 mm 0.00 in0.0 mm 1.15 in29.2 mm
07:00 PM 50.7°F10.4°C 48.2°F9.0°C 91% 1.1 mph NE1.8 kmh NE 1.1 mph1.8 kmh 29.82 in1009.8 mb 0.05 in1.3 mm 0.00 in0.0 mm 1.15 in29.2 mm
07:01 PM 50.5°F10.3°C 48.3°F9.1°C 92% Calm Calm -- 29.83 in1010.2 mb 0.05 in1.3 mm 0.00 in0.0 mm 1.15 in29.2 mm
07:02 PM 50.5°F10.3°C 48.3°F9.1°C 92% Calm Calm -- 29.83 in1010.2 mb 0.05 in1.3 mm 0.00 in0.0 mm 1.15 in29.2 mm
07:03 PM 50.5°F10.3°C 48.0°F8.9°C 91% 1.1 mph NE1.8 kmh NE 1.1 mph1.8 kmh 29.82 in1009.8 mb 0.05 in1.3 mm 0.00 in0.0 mm 1.15 in29.2 mm
07:04 PM 50.5°F10.3°C 47.7°F8.7°C 90% Calm Calm -- 29.82 in1009.8 mb 0.00 in0.0 mm 0.00 in0.0 mm 1.15 in29.2 mm
07:06 PM 50.4°F10.2°C 47.6°F8.7°C 90% 0.7 mph NE1.1 kmh NE 1.1 mph1.8 kmh 29.82 in1009.8 mb 0.00 in0.0 mm 0.00 in0.0 mm 1.15 in29.2 mm
07:07 PM 50.4°F10.2°C 47.3°F8.5°C 89% 0.9 mph NE1.4 kmh NE 1.1 mph1.8 kmh 29.82 in1009.8 mb 0.00 in0.0 mm 0.00 in0.0 mm 1.15 in29.2 mm
07:08 PM 50.4°F10.2°C 47.3°F8.5°C 89% Calm Calm -- 29.83 in1010.2 mb 0.00 in0.0 mm 0.00 in0.0 mm 1.15 in29.2 mm
07:10 PM 50.5°F10.3°C 46.8°F8.2°C 87% 0.9 mph ENE1.4 kmh ENE 1.1 mph1.8 kmh 29.82 in1009.8 mb 0.00 in0.0 mm 0.00 in0.0 mm 1.15 in29.2 mm
07:11 PM 50.5°F10.3°C 47.4°F8.6°C 89% 0.7 mph ENE1.1 kmh ENE 1.1 mph1.8 kmh 29.83 in1010.2 mb 0.00 in0.0 mm 0.00 in0.0 mm 1.15 in29.2 mm
07:12 PM 50.5°F10.3°C 47.1°F8.4°C 88% 1.1 mph E1.8 kmh E 1.1 mph1.8 kmh 29.83 in1010.2 mb 0.00 in0.0 mm 0.00 in0.0 mm 1.15 in29.2 mm
07:13 PM 50.5°F10.3°C 47.1°F8.4°C 88% 0.4 mph E0.6 kmh E 1.1 mph1.8 kmh 29.83 in1010.2 mb 0.00 in0.0 mm 0.00 in0.0 mm 1.15 in29.2 mm
07:14 PM 50.5°F10.3°C 46.8°F8.2°C 87% Calm Calm -- 29.83 in1010.2 mb 0.00 in0.0 mm 0.00 in0.0 mm 1.15 in29.2 mm
07:15 PM 50.5°F10.3°C 47.1°F8.4°C 88% Calm Calm -- 29.83 in1010.2 mb 0.00 in0.0 mm 0.00 in0.0 mm 1.15 in29.2 mm
07:17 PM 50.5°F10.3°C 47.1°F8.4°C 88% Calm Calm -- 29.83 in1010.2 mb 0.00 in0.0 mm 0.00 in0.0 mm 1.15 in29.2 mm
07:20 PM 50.5°F10.3°C 48.0°F8.9°C 91% 0.7 mph E1.1 kmh E 1.1 mph1.8 kmh 29.83 in1010.2 mb 0.00 in0.0 mm 0.00 in0.0 mm 1.15 in29.2 mm
07:21 PM 50.4°F10.2°C 48.2°F9.0°C 92% Calm Calm -- 29.83 in1010.2 mb 0.00 in0.0 mm 0.00 in0.0 mm 1.15 in29.2 mm
07:22 PM 50.2°F10.1°C 48.0°F8.9°C 92% Calm Calm -- 29.83 in1010.2 mb 0.00 in0.0 mm 0.00 in0.0 mm 1.15 in29.2 mm
07:23 PM 50.2°F10.1°C 48.0°F8.9°C 92% Calm Calm -- 29.83 in1010.2 mb 0.00 in0.0 mm 0.00 in0.0 mm 1.15 in29.2 mm
07:24 PM 50.0°F10.0°C 48.1°F8.9°C 93% Calm Calm -- 29.83 in1010.2 mb 0.00 in0.0 mm 0.00 in0.0 mm 1.15 in29.2 mm
07:25 PM 50.0°F10.0°C 48.1°F8.9°C 93% Calm Calm -- 29.84 in1010.5 mb 0.00 in0.0 mm 0.00 in0.0 mm 1.15 in29.2 mm
07:26 PM 50.0°F10.0°C 48.1°F8.9°C 93% Calm Calm -- 29.83 in1010.2 mb 0.00 in0.0 mm 0.00 in0.0 mm 1.15 in29.2 mm
07:27 PM 49.8°F9.9°C 47.9°F8.8°C 93% Calm Calm -- 29.83 in1010.2 mb 0.00 in0.0 mm 0.00 in0.0 mm 1.15 in29.2 mm
07:28 PM 49.8°F9.9°C 47.9°F8.8°C 93% Calm Calm -- 29.83 in1010.2 mb 0.00 in0.0 mm 0.00 in0.0 mm 1.15 in29.2 mm
07:29 PM 49.8°F9.9°C 47.9°F8.8°C 93% Calm Calm -- 29.83 in1010.2 mb 0.00 in0.0 mm 0.00 in0.0 mm 1.15 in29.2 mm
07:31 PM 49.6°F9.8°C 46.8°F8.2°C 90% Calm Calm -- 29.83 in1010.2 mb 0.00 in0.0 mm 0.00 in0.0 mm 1.15 in29.2 mm
07:33 PM 49.8°F9.9°C 47.6°F8.7°C 92% Calm Calm -- 29.83 in1010.2 mb 0.00 in0.0 mm 0.00 in0.0 mm 1.15 in29.2 mm
07:34 PM 50.0°F10.0°C 48.1°F8.9°C 93% Calm Calm -- 29.83 in1010.2 mb 0.00 in0.0 mm 0.00 in0.0 mm 1.15 in29.2 mm
07:36 PM 50.0°F10.0°C 48.1°F8.9°C 93% Calm Calm -- 29.84 in1010.5 mb 0.00 in0.0 mm 0.00 in0.0 mm 1.15 in29.2 mm
07:38 PM 49.8°F9.9°C 47.9°F8.8°C 93% Calm Calm -- 29.84 in1010.5 mb 0.00 in0.0 mm 0.00 in0.0 mm 1.15 in29.2 mm
07:39 PM 49.8°F9.9°C 47.6°F8.7°C 92% 0.9 mph E1.4 kmh E 1.1 mph1.8 kmh 29.83 in1010.2 mb 0.00 in0.0 mm 0.00 in0.0 mm 1.15 in29.2 mm
07:40 PM 49.6°F9.8°C 47.1°F8.4°C 91% 1.1 mph E1.8 kmh E 1.1 mph1.8 kmh 29.84 in1010.5 mb 0.00 in0.0 mm 0.00 in0.0 mm 1.15 in29.2 mm
07:41 PM 49.6°F9.8°C 47.1°F8.4°C 91% 1.1 mph E1.8 kmh E 1.1 mph1.8 kmh 29.84 in1010.5 mb 0.00 in0.0 mm 0.00 in0.0 mm 1.15 in29.2 mm
07:42 PM 49.6°F9.8°C 47.1°F8.4°C 91% 1.1 mph E1.8 kmh E 1.1 mph1.8 kmh 29.84 in1010.5 mb 0.00 in0.0 mm 0.00 in0.0 mm 1.15 in29.2 mm
07:43 PM 50.2°F10.1°C 47.7°F8.7°C 91% Calm Calm -- 29.83 in1010.2 mb 0.00 in0.0 mm 0.00 in0.0 mm 1.15 in29.2 mm
07:44 PM 50.2°F10.1°C 47.7°F8.7°C 91% 0.2 mph E0.3 kmh E 1.1 mph1.8 kmh 29.84 in1010.5 mb 0.00 in0.0 mm 0.00 in0.0 mm 1.15 in29.2 mm
07:45 PM 50.2°F10.1°C 48.0°F8.9°C 92% 0.4 mph E0.6 kmh E 1.1 mph1.8 kmh 29.84 in1010.5 mb 0.00 in0.0 mm 0.00 in0.0 mm 1.15 in29.2 mm
07:46 PM 50.0°F10.0°C 47.8°F8.8°C 92% Calm Calm -- 29.84 in1010.5 mb 0.00 in0.0 mm 0.00 in0.0 mm 1.15 in29.2 mm
07:47 PM 50.0°F10.0°C 48.1°F8.9°C 93% Calm Calm -- 29.84 in1010.5 mb 0.00 in0.0 mm 0.00 in0.0 mm 1.15 in29.2 mm
07:48 PM 50.0°F10.0°C 48.1°F8.9°C 93% Calm Calm -- 29.85 in1010.8 mb 0.00 in0.0 mm 0.00 in0.0 mm 1.15 in29.2 mm
07:49 PM 49.6°F9.8°C 47.7°F8.7°C 93% Calm Calm -- 29.84 in1010.5 mb 0.00 in0.0 mm 0.00 in0.0 mm 1.15 in29.2 mm
07:50 PM 49.6°F9.8°C 47.9°F8.8°C 94% Calm Calm -- 29.84 in1010.5 mb 0.00 in0.0 mm 0.00 in0.0 mm 1.15 in29.2 mm
07:52 PM 49.6°F9.8°C 47.9°F8.8°C 94% Calm Calm -- 29.84 in1010.5 mb 0.00 in0.0 mm 0.00 in0.0 mm 1.15 in29.2 mm
07:54 PM 49.5°F9.7°C 47.8°F8.8°C 94% Calm Calm -- 29.84 in1010.5 mb 0.00 in0.0 mm 0.00 in0.0 mm 1.15 in29.2 mm
07:55 PM 49.5°F9.7°C 47.8°F8.8°C 94% Calm Calm -- 29.84 in1010.5 mb 0.00 in0.0 mm 0.00 in0.0 mm 1.15 in29.2 mm
07:56 PM 49.5°F9.7°C 47.8°F8.8°C 94% Calm Calm -- 29.83 in1010.2 mb 0.00 in0.0 mm 0.00 in0.0 mm 1.15 in29.2 mm
07:57 PM 49.5°F9.7°C 47.8°F8.8°C 94% Calm Calm -- 29.84 in1010.5 mb 0.00 in0.0 mm 0.00 in0.0 mm 1.15 in29.2 mm
07:58 PM 49.5°F9.7°C 47.8°F8.8°C 94% Calm Calm -- 29.84 in1010.5 mb 0.00 in0.0 mm 0.00 in0.0 mm 1.15 in29.2 mm
08:00 PM 49.5°F9.7°C 47.8°F8.8°C 94% Calm Calm -- 29.84 in1010.5 mb 0.00 in0.0 mm 0.00 in0.0 mm 1.15 in29.2 mm
08:01 PM 49.5°F9.7°C 47.8°F8.8°C 94% Calm Calm -- 29.84 in1010.5 mb 0.00 in0.0 mm 0.00 in0.0 mm 1.15 in29.2 mm
08:02 PM 49.5°F9.7°C 47.8°F8.8°C 94% Calm Calm -- 29.84 in1010.5 mb 0.00 in0.0 mm 0.00 in0.0 mm 1.15 in29.2 mm
08:03 PM 49.5°F9.7°C 47.8°F8.8°C 94% Calm Calm -- 29.84 in1010.5 mb 0.00 in0.0 mm 0.00 in0.0 mm 1.15 in29.2 mm
08:04 PM 49.5°F9.7°C 48.1°F8.9°C 95% Calm Calm -- 29.84 in1010.5 mb 0.00 in0.0 mm 0.00 in0.0 mm 1.15 in29.2 mm
08:05 PM 49.5°F9.7°C 48.1°F8.9°C 95% Calm Calm -- 29.84 in1010.5 mb 0.00 in0.0 mm 0.00 in0.0 mm 1.15 in29.2 mm
08:07 PM 49.3°F9.6°C 47.9°F8.8°C 95% Calm Calm -- 29.84 in1010.5 mb 0.00 in0.0 mm 0.00 in0.0 mm 1.15 in29.2 mm
08:08 PM 49.3°F9.6°C 47.9°F8.8°C 95% Calm Calm -- 29.85 in1010.8 mb 0.00 in0.0 mm 0.00 in0.0 mm 1.15 in29.2 mm
08:09 PM 49.3°F9.6°C 47.9°F8.8°C 95% Calm Calm -- 29.85 in1010.8 mb 0.00 in0.0 mm 0.00 in0.0 mm 1.15 in29.2 mm
08:10 PM 49.1°F9.5°C 47.7°F8.7°C 95% Calm Calm -- 29.85 in1010.8 mb 0.00 in0.0 mm 0.00 in0.0 mm 1.15 in29.2 mm
08:11 PM 49.1°F9.5°C 47.7°F8.7°C 95% Calm Calm -- 29.85 in1010.8 mb 0.00 in0.0 mm 0.00 in0.0 mm 1.15 in29.2 mm
08:13 PM 49.1°F9.5°C 47.7°F8.7°C 95% Calm Calm -- 29.85 in1010.8 mb 0.00 in0.0 mm 0.00 in0.0 mm 1.15 in29.2 mm
08:14 PM 49.1°F9.5°C 47.7°F8.7°C 95% Calm Calm -- 29.85 in1010.8 mb 0.00 in0.0 mm 0.00 in0.0 mm 1.15 in29.2 mm
08:15 PM 49.1°F9.5°C 47.7°F8.7°C 95% Calm Calm -- 29.86 in1011.2 mb 0.00 in0.0 mm 0.00 in0.0 mm 1.15 in29.2 mm
08:16 PM 49.1°F9.5°C 47.7°F8.7°C 95% Calm Calm -- 29.85 in1010.8 mb 0.00 in0.0 mm 0.00 in0.0 mm 1.15 in29.2 mm
08:17 PM 49.1°F9.5°C 47.7°F8.7°C 95% Calm Calm -- 29.85 in1010.8 mb 0.00 in0.0 mm 0.00 in0.0 mm 1.15 in29.2 mm
08:18 PM 49.1°F9.5°C 47.7°F8.7°C 95% Calm Calm -- 29.86 in1011.2 mb 0.00 in0.0 mm 0.00 in0.0 mm 1.15 in29.2 mm
08:19 PM 49.3°F9.6°C 47.9°F8.8°C 95% Calm Calm -- 29.85 in1010.8 mb 0.00 in0.0 mm 0.00 in0.0 mm 1.15 in29.2 mm
08:21 PM 49.3°F9.6°C 47.9°F8.8°C 95% Calm Calm -- 29.85 in1010.8 mb 0.00 in0.0 mm 0.00 in0.0 mm 1.15 in29.2 mm
08:23 PM 49.6°F9.8°C 48.2°F9.0°C 95% 0.4 mph E0.6 kmh E 1.1 mph1.8 kmh 29.86 in1011.2 mb 0.00 in0.0 mm 0.00 in0.0 mm 1.15 in29.2 mm
08:24 PM 49.6°F9.8°C 48.2°F9.0°C 95% 1.1 mph E1.8 kmh E 1.1 mph1.8 kmh 29.85 in1010.8 mb 0.00 in0.0 mm 0.00 in0.0 mm 1.15 in29.2 mm
08:26 PM 49.6°F9.8°C 48.2°F9.0°C 95% 1.6 mph ENE2.6 kmh ENE 2.2 mph3.5 kmh 29.86 in1011.2 mb 0.00 in0.0 mm 0.00 in0.0 mm 1.15 in29.2 mm
08:27 PM 50.0°F10.0°C 48.3°F9.1°C 94% 1.3 mph NE2.1 kmh NE 2.2 mph3.5 kmh 29.86 in1011.2 mb 0.00 in0.0 mm 0.00 in0.0 mm 1.15 in29.2 mm
08:28 PM 50.0°F10.0°C 48.3°F9.1°C 94% 0.7 mph NE1.1 kmh NE 1.1 mph1.8 kmh 29.86 in1011.2 mb 0.00 in0.0 mm 0.00 in0.0 mm 1.15 in29.2 mm
08:29 PM 50.0°F10.0°C 48.3°F9.1°C 94% 1.1 mph NE1.8 kmh NE 1.1 mph1.8 kmh 29.86 in1011.2 mb 0.00 in0.0 mm 0.00 in0.0 mm 1.15 in29.2 mm
08:30 PM 50.0°F10.0°C 48.3°F9.1°C 94% 1.1 mph NE1.8 kmh NE 1.1 mph1.8 kmh 29.86 in1011.2 mb 0.00 in0.0 mm 0.00 in0.0 mm 1.15 in29.2 mm
08:31 PM 49.8°F9.9°C 48.1°F8.9°C 94% 0.9 mph NE1.4 kmh NE 1.1 mph1.8 kmh 29.87 in1011.5 mb 0.00 in0.0 mm 0.00 in0.0 mm 1.15 in29.2 mm
08:32 PM 49.8°F9.9°C 47.9°F8.8°C 93% 0.7 mph NE1.1 kmh NE 1.1 mph1.8 kmh 29.86 in1011.2 mb 0.00 in0.0 mm 0.00 in0.0 mm 1.15 in29.2 mm
08:34 PM 49.6°F9.8°C 47.7°F8.7°C 93% Calm Calm -- 29.86 in1011.2 mb 0.00 in0.0 mm 0.00 in0.0 mm 1.15 in29.2 mm
08:35 PM 49.6°F9.8°C 47.7°F8.7°C 93% Calm Calm -- 29.87 in1011.5 mb 0.00 in0.0 mm 0.00 in0.0 mm 1.15 in29.2 mm
08:37 PM 49.8°F9.9°C 47.9°F8.8°C 93% Calm Calm -- 29.86 in1011.2 mb 0.00 in0.0 mm 0.00 in0.0 mm 1.15 in29.2 mm
08:39 PM 49.6°F9.8°C 47.7°F8.7°C 93% Calm Calm -- 29.87 in1011.5 mb 0.00 in0.0 mm 0.00 in0.0 mm 1.15 in29.2 mm
08:41 PM 49.6°F9.8°C 47.7°F8.7°C 93% Calm Calm -- 29.86 in1011.2 mb 0.00 in0.0 mm 0.00 in0.0 mm 1.15 in29.2 mm
08:42 PM 49.6°F9.8°C 47.7°F8.7°C 93% Calm Calm -- 29.87 in1011.5 mb 0.00 in0.0 mm 0.00 in0.0 mm 1.15 in29.2 mm
08:44 PM 49.8°F9.9°C 48.1°F8.9°C 94% 0.9 mph NE1.4 kmh NE 1.1 mph1.8 kmh 29.87 in1011.5 mb 0.00 in0.0 mm 0.00 in0.0 mm 1.15 in29.2 mm
08:46 PM 49.8°F9.9°C 48.1°F8.9°C 94% 0.7 mph NE1.1 kmh NE 1.1 mph1.8 kmh 29.86 in1011.2 mb 0.00 in0.0 mm 0.00 in0.0 mm 1.15 in29.2 mm
08:47 PM 49.8°F9.9°C 48.1°F8.9°C 94% Calm Calm -- 29.86 in1011.2 mb 0.00 in0.0 mm 0.00 in0.0 mm 1.15 in29.2 mm
08:48 PM 49.8°F9.9°C 48.1°F8.9°C 94% Calm Calm -- 29.87 in1011.5 mb 0.00 in0.0 mm 0.00 in0.0 mm 1.15 in29.2 mm
08:49 PM 49.8°F9.9°C 48.1°F8.9°C 94% 0.7 mph NE1.1 kmh NE 1.1 mph1.8 kmh 29.88 in1011.9 mb 0.00 in0.0 mm 0.00 in0.0 mm 1.15 in29.2 mm
08:50 PM 49.6°F9.8°C 47.7°F8.7°C 93% 0.4 mph NE0.6 kmh NE 1.1 mph1.8 kmh 29.87 in1011.5 mb 0.00 in0.0 mm 0.00 in0.0 mm 1.15 in29.2 mm
08:53 PM 49.8°F9.9°C 46.7°F8.2°C 89% 0.2 mph WSW0.3 kmh WSW 1.1 mph1.8 kmh 29.88 in1011.9 mb 0.00 in0.0 mm 0.00 in0.0 mm 1.15 in29.2 mm
08:54 PM 50.0°F10.0°C 46.9°F8.3°C 89% Calm Calm -- 29.87 in1011.5 mb 0.00 in0.0 mm 0.00 in0.0 mm 1.15 in29.2 mm
08:55 PM 50.2°F10.1°C 46.5°F8.1°C 87% Calm Calm -- 29.86 in1011.2 mb 0.00 in0.0 mm 0.00 in0.0 mm 1.15 in29.2 mm
08:56 PM 50.2°F10.1°C 47.1°F8.4°C 89% Calm Calm -- 29.87 in1011.5 mb 0.00 in0.0 mm 0.00 in0.0 mm 1.15 in29.2 mm
08:57 PM 50.2°F10.1°C 47.1°F8.4°C 89% 0.9 mph WSW1.4 kmh WSW 1.1 mph1.8 kmh 29.87 in1011.5 mb 0.00 in0.0 mm 0.00 in0.0 mm 1.15 in29.2 mm
08:58 PM 50.2°F10.1°C 47.1°F8.4°C 89% Calm Calm -- 29.88 in1011.9 mb 0.00 in0.0 mm 0.00 in0.0 mm 1.15 in29.2 mm
08:59 PM 50.2°F10.1°C 46.8°F8.2°C 88% Calm Calm -- 29.87 in1011.5 mb 0.00 in0.0 mm 0.00 in0.0 mm 1.15 in29.2 mm
09:00 PM 50.2°F10.1°C 46.8°F8.2°C 88% Calm Calm -- 29.87 in1011.5 mb 0.00 in0.0 mm 0.00 in0.0 mm 1.15 in29.2 mm
09:01 PM 50.2°F10.1°C 47.4°F8.6°C 90% Calm Calm -- 29.88 in1011.9 mb 0.00 in0.0 mm 0.00 in0.0 mm 1.15 in29.2 mm
09:02 PM 50.2°F10.1°C 47.7°F8.7°C 91% Calm Calm -- 29.88 in1011.9 mb 0.00 in0.0 mm 0.00 in0.0 mm 1.15 in29.2 mm
09:05 PM 49.8°F9.9°C 47.9°F8.8°C 93% 0.2 mph ESE0.3 kmh ESE 1.1 mph1.8 kmh 29.88 in1011.9 mb 0.00 in0.0 mm 0.00 in0.0 mm 1.15 in29.2 mm
09:06 PM 49.5°F9.7°C 47.8°F8.8°C 94% Calm Calm -- 29.88 in1011.9 mb 0.00 in0.0 mm 0.00 in0.0 mm 1.15 in29.2 mm
09:07 PM 49.1°F9.5°C 47.4°F8.6°C 94% Calm Calm -- 29.88 in1011.9 mb 0.00 in0.0 mm 0.00 in0.0 mm 1.15 in29.2 mm
09:08 PM 48.9°F9.4°C 47.5°F8.6°C 95% Calm Calm -- 29.88 in1011.9 mb 0.00 in0.0 mm 0.00 in0.0 mm 1.15 in29.2 mm
09:09 PM 48.9°F9.4°C 47.5°F8.6°C 95% Calm Calm -- 29.88 in1011.9 mb 0.00 in0.0 mm 0.00 in0.0 mm 1.15 in29.2 mm
09:10 PM 48.7°F9.3°C 47.3°F8.5°C 95% Calm Calm -- 29.88 in1011.9 mb 0.00 in0.0 mm 0.00 in0.0 mm 1.15 in29.2 mm
09:11 PM 48.7°F9.3°C 47.3°F8.5°C 95% Calm Calm -- 29.88 in1011.9 mb 0.00 in0.0 mm 0.00 in0.0 mm 1.15 in29.2 mm
09:13 PM 48.7°F9.3°C 47.3°F8.5°C 95% Calm Calm -- 29.88 in1011.9 mb 0.00 in0.0 mm 0.00 in0.0 mm 1.15 in29.2 mm
09:14 PM 48.7°F9.3°C 47.3°F8.5°C 95% Calm Calm -- 29.88 in1011.9 mb 0.00 in0.0 mm 0.00 in0.0 mm 1.15 in29.2 mm
09:15 PM 48.7°F9.3°C 47.1°F8.4°C 94% Calm Calm -- 29.89 in1012.2 mb 0.00 in0.0 mm 0.00 in0.0 mm 1.15 in29.2 mm
09:16 PM 48.7°F9.3°C 47.1°F8.4°C 94% Calm Calm -- 29.88 in1011.9 mb 0.00 in0.0 mm 0.00 in0.0 mm 1.15 in29.2 mm
09:17 PM 48.9°F9.4°C 47.2°F8.4°C 94% Calm Calm -- 29.89 in1012.2 mb 0.00 in0.0 mm 0.00 in0.0 mm 1.15 in29.2 mm
09:19 PM 49.1°F9.5°C 47.4°F8.6°C 94% Calm Calm -- 29.89 in1012.2 mb 0.00 in0.0 mm 0.00 in0.0 mm 1.15 in29.2 mm
09:21 PM 49.1°F9.5°C 47.4°F8.6°C 94% Calm Calm -- 29.89 in1012.2 mb 0.00 in0.0 mm 0.00 in0.0 mm 1.15 in29.2 mm
09:22 PM 49.1°F9.5°C 47.4°F8.6°C 94% Calm Calm -- 29.88 in1011.9 mb 0.00 in0.0 mm 0.00 in0.0 mm 1.15 in29.2 mm
09:23 PM 49.1°F9.5°C 47.4°F8.6°C 94% Calm Calm -- 29.89 in1012.2 mb 0.00 in0.0 mm 0.00 in0.0 mm 1.15 in29.2 mm
09:24 PM 49.1°F9.5°C 47.4°F8.6°C 94% Calm Calm -- 29.89 in1012.2 mb 0.00 in0.0 mm 0.00 in0.0 mm 1.15 in29.2 mm
09:25 PM 49.1°F9.5°C 47.4°F8.6°C 94% Calm Calm -- 29.89 in1012.2 mb 0.00 in0.0 mm 0.00 in0.0 mm 1.15 in29.2 mm
09:27 PM 49.1°F9.5°C 47.7°F8.7°C 95% 0.9 mph E1.4 kmh E 1.1 mph1.8 kmh 29.89 in1012.2 mb 0.00 in0.0 mm 0.00 in0.0 mm 1.15 in29.2 mm
09:29 PM 49.1°F9.5°C 47.7°F8.7°C 95% 0.9 mph E1.4 kmh E 1.1 mph1.8 kmh 29.89 in1012.2 mb 0.00 in0.0 mm 0.00 in0.0 mm 1.15 in29.2 mm
09:30 PM 49.3°F9.6°C 47.9°F8.8°C 95% 1.1 mph ENE1.8 kmh ENE 1.1 mph1.8 kmh 29.89 in1012.2 mb 0.00 in0.0 mm 0.00 in0.0 mm 1.15 in29.2 mm
09:31 PM 49.3°F9.6°C 47.9°F8.8°C 95% 0.7 mph E1.1 kmh E 1.1 mph1.8 kmh 29.89 in1012.2 mb 0.00 in0.0 mm 0.00 in0.0 mm 1.15 in29.2 mm
09:32 PM 49.3°F9.6°C 47.9°F8.8°C 95% 0.2 mph E0.3 kmh E 1.1 mph1.8 kmh 29.89 in1012.2 mb 0.00 in0.0 mm 0.00 in0.0 mm 1.15 in29.2 mm
09:33 PM 49.1°F9.5°C 47.7°F8.7°C 95% 0.2 mph E0.3 kmh E 1.1 mph1.8 kmh 29.89 in1012.2 mb 0.00 in0.0 mm 0.00 in0.0 mm 1.15 in29.2 mm
09:34 PM 49.1°F9.5°C 47.7°F8.7°C 95% Calm Calm -- 29.89 in1012.2 mb 0.00 in0.0 mm 0.00 in0.0 mm 1.15 in29.2 mm
09:35 PM 49.1°F9.5°C 47.7°F8.7°C 95% Calm Calm -- 29.90 in1012.5 mb 0.00 in0.0 mm 0.00 in0.0 mm 1.15 in29.2 mm
09:36 PM 49.1°F9.5°C 47.7°F8.7°C 95% Calm Calm -- 29.89 in1012.2 mb 0.00 in0.0 mm 0.00 in0.0 mm 1.15 in29.2 mm
09:37 PM 49.1°F9.5°C 47.7°F8.7°C 95% Calm Calm -- 29.89 in1012.2 mb 0.00 in0.0 mm 0.00 in0.0 mm 1.15 in29.2 mm
09:38 PM 48.9°F9.4°C 47.5°F8.6°C 95% Calm Calm -- 29.89 in1012.2 mb 0.00 in0.0 mm 0.00 in0.0 mm 1.15 in29.2 mm
09:39 PM 48.9°F9.4°C 47.5°F8.6°C 95% Calm Calm -- 29.89 in1012.2 mb 0.00 in0.0 mm 0.00 in0.0 mm 1.15 in29.2 mm
09:40 PM 48.9°F9.4°C 47.5°F8.6°C 95% 0.4 mph E0.6 kmh E 1.1 mph1.8 kmh 29.90 in1012.5 mb 0.00 in0.0 mm 0.00 in0.0 mm 1.15 in29.2 mm
09:41 PM 48.9°F9.4°C 47.5°F8.6°C 95% 0.2 mph E0.3 kmh E 1.1 mph1.8 kmh 29.89 in1012.2 mb 0.00 in0.0 mm 0.00 in0.0 mm 1.15 in29.2 mm
09:42 PM 48.9°F9.4°C 47.2°F8.4°C 94% 0.7 mph E1.1 kmh E 1.1 mph1.8 kmh 29.89 in1012.2 mb 0.00 in0.0 mm 0.00 in0.0 mm 1.15 in29.2 mm
09:43 PM 48.9°F9.4°C 47.0°F8.3°C 93% 0.7 mph E1.1 kmh E 1.1 mph1.8 kmh 29.89 in1012.2 mb 0.00 in0.0 mm 0.00 in0.0 mm 1.15 in29.2 mm
09:45 PM 48.9°F9.4°C 47.0°F8.3°C 93% 0.9 mph E1.4 kmh E 1.1 mph1.8 kmh 29.89 in1012.2 mb 0.00 in0.0 mm 0.00 in0.0 mm 1.15 in29.2 mm
09:47 PM 49.3°F9.6°C 47.1°F8.4°C 92% 1.3 mph NE2.1 kmh NE 2.2 mph3.5 kmh 29.89 in1012.2 mb 0.00 in0.0 mm 0.00 in0.0 mm 1.15 in29.2 mm
09:49 PM 49.5°F9.7°C 47.6°F8.7°C 93% 1.1 mph NE1.8 kmh NE 1.1 mph1.8 kmh 29.89 in1012.2 mb 0.00 in0.0 mm 0.00 in0.0 mm 1.15 in29.2 mm
09:50 PM 49.5°F9.7°C 47.6°F8.7°C 93% 0.7 mph NE1.1 kmh NE 1.1 mph1.8 kmh 29.89 in1012.2 mb 0.00 in0.0 mm 0.00 in0.0 mm 1.15 in29.2 mm
09:51 PM 49.5°F9.7°C 47.6°F8.7°C 93% 1.8 mph NE2.9 kmh NE 2.2 mph3.5 kmh 29.89 in1012.2 mb 0.00 in0.0 mm 0.00 in0.0 mm 1.15 in29.2 mm
09:52 PM 49.5°F9.7°C 47.3°F8.5°C 92% 1.1 mph NE1.8 kmh NE 1.1 mph1.8 kmh 29.89 in1012.2 mb 0.00 in0.0 mm 0.00 in0.0 mm 1.15 in29.2 mm
09:53 PM 49.5°F9.7°C 47.3°F8.5°C 92% 0.9 mph NE1.4 kmh NE 1.1 mph1.8 kmh 29.89 in1012.2 mb 0.00 in0.0 mm 0.00 in0.0 mm 1.15 in29.2 mm
09:54 PM 49.5°F9.7°C 47.3°F8.5°C 92% Calm Calm -- 29.89 in1012.2 mb 0.00 in0.0 mm 0.00 in0.0 mm 1.15 in29.2 mm
09:56 PM 49.5°F9.7°C 47.3°F8.5°C 92% 0.2 mph NE0.3 kmh NE 1.1 mph1.8 kmh 29.89 in1012.2 mb 0.00 in0.0 mm 0.00 in0.0 mm 1.15 in29.2 mm
09:58 PM 49.5°F9.7°C 47.3°F8.5°C 92% Calm Calm -- 29.89 in1012.2 mb 0.00 in0.0 mm 0.00 in0.0 mm 1.15 in29.2 mm
09:59 PM 49.3°F9.6°C 47.1°F8.4°C 92% Calm Calm -- 29.89 in1012.2 mb 0.00 in0.0 mm 0.00 in0.0 mm 1.15 in29.2 mm
10:01 PM 49.3°F9.6°C 47.4°F8.6°C 93% Calm Calm -- 29.89 in1012.2 mb 0.00 in0.0 mm 0.00 in0.0 mm 1.15 in29.2 mm
10:02 PM 49.1°F9.5°C 47.2°F8.4°C 93% Calm Calm -- 29.89 in1012.2 mb 0.00 in0.0 mm 0.00 in0.0 mm 1.15 in29.2 mm
10:03 PM 49.1°F9.5°C 47.2°F8.4°C 93% Calm Calm -- 29.89 in1012.2 mb 0.00 in0.0 mm 0.00 in0.0 mm 1.15 in29.2 mm
10:04 PM 48.9°F9.4°C 47.0°F8.3°C 93% 0.9 mph NE1.4 kmh NE 1.1 mph1.8 kmh 29.89 in1012.2 mb 0.00 in0.0 mm 0.00 in0.0 mm 1.15 in29.2 mm
10:05 PM 48.7°F9.3°C 46.8°F8.2°C 93% 0.2 mph NE0.3 kmh NE 1.1 mph1.8 kmh 29.89 in1012.2 mb 0.00 in0.0 mm 0.00 in0.0 mm 1.15 in29.2 mm
10:06 PM 48.6°F9.2°C 46.4°F8.0°C 92% 0.7 mph NE1.1 kmh NE 1.1 mph1.8 kmh 29.89 in1012.2 mb 0.00 in0.0 mm 0.00 in0.0 mm 1.15 in29.2 mm
10:08 PM 48.6°F9.2°C 46.4°F8.0°C 92% 0.7 mph NE1.1 kmh NE 1.1 mph1.8 kmh 29.89 in1012.2 mb 0.00 in0.0 mm 0.00 in0.0 mm 1.15 in29.2 mm
10:09 PM 48.6°F9.2°C 46.4°F8.0°C 92% Calm Calm -- 29.89 in1012.2 mb 0.00 in0.0 mm 0.00 in0.0 mm 1.15 in29.2 mm
10:10 PM 48.6°F9.2°C 46.4°F8.0°C 92% Calm Calm -- 29.89 in1012.2 mb 0.00 in0.0 mm 0.00 in0.0 mm 1.15 in29.2 mm
10:11 PM 48.6°F9.2°C 46.4°F8.0°C 92% Calm Calm -- 29.89 in1012.2 mb 0.00 in0.0 mm 0.00 in0.0 mm 1.15 in29.2 mm
10:12 PM 48.4°F9.1°C 46.2°F7.9°C 92% Calm Calm -- 29.89 in1012.2 mb 0.00 in0.0 mm 0.00 in0.0 mm 1.15 in29.2 mm
10:13 PM 48.4°F9.1°C 46.5°F8.1°C 93% Calm Calm -- 29.90 in1012.5 mb 0.00 in0.0 mm 0.00 in0.0 mm 1.15 in29.2 mm
10:14 PM 48.4°F9.1°C 46.5°F8.1°C 93% Calm Calm -- 29.89 in1012.2 mb 0.00 in0.0 mm 0.00 in0.0 mm 1.15 in29.2 mm
10:16 PM 48.2°F9.0°C 46.3°F7.9°C 93% Calm Calm -- 29.89 in1012.2 mb 0.00 in0.0 mm 0.00 in0.0 mm 1.15 in29.2 mm
10:17 PM 48.2°F9.0°C 46.0°F7.8°C 92% Calm Calm -- 29.90 in1012.5 mb 0.00 in0.0 mm 0.00 in0.0 mm 1.15 in29.2 mm
10:18 PM 48.2°F9.0°C 46.0°F7.8°C 92% Calm Calm -- 29.90 in1012.5 mb 0.00 in0.0 mm 0.00 in0.0 mm 1.15 in29.2 mm
10:19 PM 48.2°F9.0°C 45.7°F7.6°C 91% Calm Calm -- 29.89 in1012.2 mb 0.00 in0.0 mm 0.00 in0.0 mm 1.15 in29.2 mm
10:20 PM 48.2°F9.0°C 45.4°F7.4°C 90% Calm Calm -- 29.89 in1012.2 mb 0.00 in0.0 mm 0.00 in0.0 mm 1.15 in29.2 mm
10:21 PM 48.2°F9.0°C 45.4°F7.4°C 90% Calm Calm -- 29.89 in1012.2 mb 0.00 in0.0 mm 0.00 in0.0 mm 1.15 in29.2 mm
10:22 PM 48.4°F9.1°C 45.6°F7.6°C 90% 0.2 mph NE0.3 kmh NE 1.1 mph1.8 kmh 29.90 in1012.5 mb 0.00 in0.0 mm 0.00 in0.0 mm 1.15 in29.2 mm
10:23 PM 48.4°F9.1°C 45.6°F7.6°C 90% 0.4 mph NE0.6 kmh NE 1.1 mph1.8 kmh 29.89 in1012.2 mb 0.00 in0.0 mm 0.00 in0.0 mm 1.15 in29.2 mm
10:24 PM 48.4°F9.1°C 45.6°F7.6°C 90% 1.1 mph NE1.8 kmh NE 1.1 mph1.8 kmh 29.89 in1012.2 mb 0.00 in0.0 mm 0.00 in0.0 mm 1.15 in29.2 mm
10:25 PM 48.6°F9.2°C 45.8°F7.7°C 90% 0.2 mph NE0.3 kmh NE 1.1 mph1.8 kmh 29.90 in1012.5 mb 0.00 in0.0 mm 0.00 in0.0 mm 1.15 in29.2 mm
10:26 PM 48.6°F9.2°C 45.8°F7.7°C 90% 0.4 mph NE0.6 kmh NE 1.1 mph1.8 kmh 29.89 in1012.2 mb 0.00 in0.0 mm 0.00 in0.0 mm 1.15 in29.2 mm
10:28 PM 48.6°F9.2°C 45.8°F7.7°C 90% 0.9 mph NE1.4 kmh NE 1.1 mph1.8 kmh 29.89 in1012.2 mb 0.00 in0.0 mm 0.00 in0.0 mm 1.15 in29.2 mm
10:29 PM 48.6°F9.2°C 45.8°F7.7°C 90% 0.9 mph NE1.4 kmh NE 1.1 mph1.8 kmh 29.89 in1012.2 mb 0.00 in0.0 mm 0.00 in0.0 mm 1.15 in29.2 mm
10:31 PM 48.6°F9.2°C 46.1°F7.8°C 91% 1.1 mph NE1.8 kmh NE 1.1 mph1.8 kmh 29.90 in1012.5 mb 0.00 in0.0 mm 0.00 in0.0 mm 1.15 in29.2 mm
10:32 PM 48.6°F9.2°C 45.8°F7.7°C 90% 0.4 mph NE0.6 kmh NE 1.1 mph1.8 kmh 29.90 in1012.5 mb 0.00 in0.0 mm 0.00 in0.0 mm 1.15 in29.2 mm
10:33 PM 48.6°F9.2°C 45.8°F7.7°C 90% Calm Calm -- 29.89 in1012.2 mb 0.00 in0.0 mm 0.00 in0.0 mm 1.15 in29.2 mm
10:36 PM 48.6°F9.2°C 46.1°F7.8°C 91% 1.1 mph NE1.8 kmh NE 1.1 mph1.8 kmh 29.90 in1012.5 mb 0.00 in0.0 mm 0.00 in0.0 mm 1.15 in29.2 mm
10:37 PM 48.6°F9.2°C 46.1°F7.8°C 91% Calm Calm -- 29.90 in1012.5 mb 0.00 in0.0 mm 0.00 in0.0 mm 1.15 in29.2 mm
10:39 PM 48.6°F9.2°C 46.1°F7.8°C 91% Calm Calm -- 29.90 in1012.5 mb 0.00 in0.0 mm 0.00 in0.0 mm 1.15 in29.2 mm
10:40 PM 48.6°F9.2°C 46.1°F7.8°C 91% Calm Calm -- 29.90 in1012.5 mb 0.00 in0.0 mm 0.00 in0.0 mm 1.15 in29.2 mm
10:41 PM 48.4°F9.1°C 45.9°F7.7°C 91% Calm Calm -- 29.90 in1012.5 mb 0.00 in0.0 mm 0.00 in0.0 mm 1.15 in29.2 mm
10:42 PM 48.4°F9.1°C 45.9°F7.7°C 91% Calm Calm -- 29.89 in1012.2 mb 0.00 in0.0 mm 0.00 in0.0 mm 1.15 in29.2 mm
10:44 PM 48.2°F9.0°C 45.4°F7.4°C 90% Calm Calm -- 29.89 in1012.2 mb 0.00 in0.0 mm 0.00 in0.0 mm 1.15 in29.2 mm
10:48 PM 48.4°F9.1°C 45.9°F7.7°C 91% Calm Calm -- 29.90 in1012.5 mb 0.00 in0.0 mm 0.00 in0.0 mm 1.15 in29.2 mm
10:49 PM 48.2°F9.0°C 45.7°F7.6°C 91% Calm Calm -- 29.90 in1012.5 mb 0.00 in0.0 mm 0.00 in0.0 mm 1.15 in29.2 mm
10:50 PM 48.2°F9.0°C 45.7°F7.6°C 91% Calm Calm -- 29.90 in1012.5 mb 0.00 in0.0 mm 0.00 in0.0 mm 1.15 in29.2 mm
10:51 PM 48.0°F8.9°C 45.5°F7.5°C 91% Calm Calm -- 29.89 in1012.2 mb 0.00 in0.0 mm 0.00 in0.0 mm 1.15 in29.2 mm
10:52 PM 48.0°F8.9°C 45.8°F7.7°C 92% Calm Calm -- 29.89 in1012.2 mb 0.00 in0.0 mm 0.00 in0.0 mm 1.15 in29.2 mm
10:53 PM 48.0°F8.9°C 45.8°F7.7°C 92% Calm Calm -- 29.90 in1012.5 mb 0.00 in0.0 mm 0.00 in0.0 mm 1.15 in29.2 mm
10:54 PM 47.8°F8.8°C 45.6°F7.6°C 92% Calm Calm -- 29.90 in1012.5 mb 0.00 in0.0 mm 0.00 in0.0 mm 1.15 in29.2 mm
10:55 PM 47.7°F8.7°C 45.8°F7.7°C 93% Calm Calm -- 29.90 in1012.5 mb 0.00 in0.0 mm 0.00 in0.0 mm 1.15 in29.2 mm
10:57 PM 47.7°F8.7°C 45.8°F7.7°C 93% Calm Calm -- 29.90 in1012.5 mb 0.00 in0.0 mm 0.00 in0.0 mm 1.15 in29.2 mm
10:58 PM 47.7°F8.7°C 45.8°F7.7°C 93% Calm Calm -- 29.90 in1012.5 mb 0.00 in0.0 mm 0.00 in0.0 mm 1.15 in29.2 mm
11:00 PM 47.7°F8.7°C 45.2°F7.3°C 91% 0.7 mph NE1.1 kmh NE 1.1 mph1.8 kmh 29.89 in1012.2 mb 0.00 in0.0 mm 0.00 in0.0 mm 1.15 in29.2 mm
11:01 PM 47.7°F8.7°C 44.9°F7.2°C 90% Calm Calm -- 29.89 in1012.2 mb 0.00 in0.0 mm 0.00 in0.0 mm 1.15 in29.2 mm
11:02 PM 47.7°F8.7°C 44.9°F7.2°C 90% Calm Calm -- 29.89 in1012.2 mb 0.00 in0.0 mm 0.00 in0.0 mm 1.15 in29.2 mm
11:03 PM 47.8°F8.8°C 45.0°F7.2°C 90% 0.7 mph NE1.1 kmh NE 1.1 mph1.8 kmh 29.90 in1012.5 mb 0.00 in0.0 mm 0.00 in0.0 mm 1.15 in29.2 mm
11:04 PM 48.0°F8.9°C 45.2°F7.3°C 90% Calm Calm -- 29.89 in1012.2 mb 0.00 in0.0 mm 0.00 in0.0 mm 1.15 in29.2 mm
11:05 PM 48.0°F8.9°C 45.2°F7.3°C 90% 0.7 mph E1.1 kmh E 2.2 mph3.5 kmh 29.90 in1012.5 mb 0.00 in0.0 mm 0.00 in0.0 mm 1.15 in29.2 mm
11:06 PM 48.0°F8.9°C 45.2°F7.3°C 90% Calm Calm -- 29.89 in1012.2 mb 0.00 in0.0 mm 0.00 in0.0 mm 1.15 in29.2 mm
11:07 PM 48.0°F8.9°C 45.2°F7.3°C 90% Calm Calm -- 29.89 in1012.2 mb 0.00 in0.0 mm 0.00 in0.0 mm 1.15 in29.2 mm
11:08 PM 48.0°F8.9°C 45.5°F7.5°C 91% Calm Calm -- 29.89 in1012.2 mb 0.00 in0.0 mm 0.00 in0.0 mm 1.15 in29.2 mm
11:09 PM 48.0°F8.9°C 45.2°F7.3°C 90% Calm Calm -- 29.89 in1012.2 mb 0.00 in0.0 mm 0.00 in0.0 mm 1.15 in29.2 mm
11:10 PM 48.0°F8.9°C 45.5°F7.5°C 91% Calm Calm -- 29.89 in1012.2 mb 0.00 in0.0 mm 0.00 in0.0 mm 1.15 in29.2 mm
11:11 PM 47.8°F8.8°C 45.3°F7.4°C 91% Calm Calm -- 29.90 in1012.5 mb 0.00 in0.0 mm 0.00 in0.0 mm 1.15 in29.2 mm
11:12 PM 47.8°F8.8°C 45.0°F7.2°C 90% Calm Calm -- 29.89 in1012.2 mb 0.00 in0.0 mm 0.00 in0.0 mm 1.15 in29.2 mm
11:13 PM 47.8°F8.8°C 44.7°F7.1°C 89% 1.3 mph NE2.1 kmh NE 2.2 mph3.5 kmh 29.90 in1012.5 mb 0.00 in0.0 mm 0.00 in0.0 mm 1.15 in29.2 mm
11:14 PM 48.0°F8.9°C 44.3°F6.8°C 87% 2.5 mph NNE4.0 kmh NNE 3.4 mph5.5 kmh 29.90 in1012.5 mb 0.00 in0.0 mm 0.00 in0.0 mm 1.15 in29.2 mm
11:15 PM 48.4°F9.1°C 44.4°F6.9°C 86% 3.6 mph N5.8 kmh N 4.5 mph7.2 kmh 29.90 in1012.5 mb 0.00 in0.0 mm 0.00 in0.0 mm 1.15 in29.2 mm
11:16 PM 48.9°F9.4°C 44.6°F7.0°C 85% 3.4 mph NW5.5 kmh NW 3.4 mph5.5 kmh 29.89 in1012.2 mb 0.00 in0.0 mm 0.00 in0.0 mm 1.15 in29.2 mm
11:18 PM 49.1°F9.5°C 44.8°F7.1°C 85% 2.9 mph NW4.7 kmh NW 4.5 mph7.2 kmh 29.89 in1012.2 mb 0.00 in0.0 mm 0.00 in0.0 mm 1.15 in29.2 mm
11:20 PM 49.3°F9.6°C 45.0°F7.2°C 85% 2.9 mph NNW4.7 kmh NNW 3.4 mph5.5 kmh 29.90 in1012.5 mb 0.00 in0.0 mm 0.00 in0.0 mm 1.15 in29.2 mm
11:21 PM 49.3°F9.6°C 44.7°F7.1°C 84% 2.5 mph NW4.0 kmh NW 3.4 mph5.5 kmh 29.90 in1012.5 mb 0.00 in0.0 mm 0.00 in0.0 mm 1.15 in29.2 mm
11:22 PM 49.5°F9.7°C 44.9°F7.2°C 84% 2.2 mph N3.5 kmh N 3.4 mph5.5 kmh 29.90 in1012.5 mb 0.00 in0.0 mm 0.00 in0.0 mm 1.15 in29.2 mm
11:23 PM 49.5°F9.7°C 44.9°F7.2°C 84% 1.1 mph NNE1.8 kmh NNE 1.1 mph1.8 kmh 29.90 in1012.5 mb 0.00 in0.0 mm 0.00 in0.0 mm 1.15 in29.2 mm
11:24 PM 49.5°F9.7°C 44.9°F7.2°C 84% 1.3 mph NE2.1 kmh NE 2.2 mph3.5 kmh 29.90 in1012.5 mb 0.00 in0.0 mm 0.00 in0.0 mm 1.15 in29.2 mm
11:25 PM 49.5°F9.7°C 44.9°F7.2°C 84% Calm Calm -- 29.90 in1012.5 mb 0.00 in0.0 mm 0.00 in0.0 mm 1.15 in29.2 mm
11:26 PM 49.5°F9.7°C 44.9°F7.2°C 84% Calm Calm -- 29.90 in1012.5 mb 0.00 in0.0 mm 0.00 in0.0 mm 1.15 in29.2 mm
11:28 PM 49.3°F9.6°C 44.7°F7.1°C 84% 0.2 mph ESE0.3 kmh ESE 1.1 mph1.8 kmh 29.90 in1012.5 mb 0.00 in0.0 mm 0.00 in0.0 mm 1.15 in29.2 mm
11:29 PM 49.3°F9.6°C 44.7°F7.1°C 84% 0.2 mph ESE0.3 kmh ESE 1.1 mph1.8 kmh 29.90 in1012.5 mb 0.00 in0.0 mm 0.00 in0.0 mm 1.15 in29.2 mm
11:30 PM 49.1°F9.5°C 44.5°F6.9°C 84% 2.5 mph SE4.0 kmh SE 3.4 mph5.5 kmh 29.89 in1012.2 mb 0.00 in0.0 mm 0.00 in0.0 mm 1.15 in29.2 mm
11:31 PM 49.3°F9.6°C 44.4°F6.9°C 83% 2.5 mph SE4.0 kmh SE 3.4 mph5.5 kmh 29.90 in1012.5 mb 0.00 in0.0 mm 0.00 in0.0 mm 1.15 in29.2 mm
11:32 PM 49.1°F9.5°C 44.8°F7.1°C 85% 0.2 mph SE0.3 kmh SE 1.1 mph1.8 kmh 29.90 in1012.5 mb 0.00 in0.0 mm 0.00 in0.0 mm 1.15 in29.2 mm
11:33 PM 49.1°F9.5°C 44.8°F7.1°C 85% Calm Calm -- 29.90 in1012.5 mb 0.00 in0.0 mm 0.00 in0.0 mm 1.15 in29.2 mm
11:34 PM 49.1°F9.5°C 44.8°F7.1°C 85% 0.2 mph ESE0.3 kmh ESE 1.1 mph1.8 kmh 29.90 in1012.5 mb 0.00 in0.0 mm 0.00 in0.0 mm 1.15 in29.2 mm
11:35 PM 48.9°F9.4°C 44.0°F6.7°C 83% 1.6 mph ESE2.6 kmh ESE 2.2 mph3.5 kmh 29.90 in1012.5 mb 0.00 in0.0 mm 0.00 in0.0 mm 1.15 in29.2 mm
11:36 PM 48.9°F9.4°C 44.0°F6.7°C 83% 1.1 mph SE1.8 kmh SE 1.1 mph1.8 kmh 29.90 in1012.5 mb 0.00 in0.0 mm 0.00 in0.0 mm 1.15 in29.2 mm
11:37 PM 48.9°F9.4°C 43.7°F6.5°C 82% 0.7 mph ESE1.1 kmh ESE 1.1 mph1.8 kmh 29.91 in1012.9 mb 0.00 in0.0 mm 0.00 in0.0 mm 1.15 in29.2 mm
11:38 PM 49.1°F9.5°C 43.8°F6.6°C 82% 0.4 mph ESE0.6 kmh ESE 1.1 mph1.8 kmh 29.90 in1012.5 mb 0.00 in0.0 mm 0.00 in0.0 mm 1.15 in29.2 mm
11:40 PM 49.1°F9.5°C 44.2°F6.8°C 83% 0.2 mph NE0.3 kmh NE 1.1 mph1.8 kmh 29.90 in1012.5 mb 0.00 in0.0 mm 0.00 in0.0 mm 1.15 in29.2 mm
11:41 PM 49.3°F9.6°C 44.0°F6.7°C 82% 3.4 mph N5.5 kmh N 3.4 mph5.5 kmh 29.90 in1012.5 mb 0.00 in0.0 mm 0.00 in0.0 mm 1.15 in29.2 mm
11:43 PM 49.3°F9.6°C 44.0°F6.7°C 82% 0.2 mph NE0.3 kmh NE 1.1 mph1.8 kmh 29.90 in1012.5 mb 0.00 in0.0 mm 0.00 in0.0 mm 1.15 in29.2 mm
11:44 PM 49.3°F9.6°C 44.0°F6.7°C 82% 0.7 mph E1.1 kmh E 1.1 mph1.8 kmh 29.90 in1012.5 mb 0.00 in0.0 mm 0.00 in0.0 mm 1.15 in29.2 mm
11:45 PM 49.3°F9.6°C 44.0°F6.7°C 82% 0.2 mph ENE0.3 kmh ENE 1.1 mph1.8 kmh 29.90 in1012.5 mb 0.00 in0.0 mm 0.00 in0.0 mm 1.15 in29.2 mm
11:46 PM 49.3°F9.6°C 44.4°F6.9°C 83% 0.9 mph ENE1.4 kmh ENE 1.1 mph1.8 kmh 29.89 in1012.2 mb 0.00 in0.0 mm 0.00 in0.0 mm 1.15 in29.2 mm
11:47 PM 49.3°F9.6°C 44.0°F6.7°C 82% 1.8 mph NNE2.9 kmh NNE 2.2 mph3.5 kmh 29.90 in1012.5 mb 0.00 in0.0 mm 0.00 in0.0 mm 1.15 in29.2 mm
11:49 PM 49.1°F9.5°C 44.2°F6.8°C 83% Calm Calm -- 29.89 in1012.2 mb 0.00 in0.0 mm 0.00 in0.0 mm 1.15 in29.2 mm
11:50 PM 49.1°F9.5°C 44.2°F6.8°C 83% Calm Calm -- 29.89 in1012.2 mb 0.00 in0.0 mm 0.00 in0.0 mm 1.15 in29.2 mm
11:51 PM 49.1°F9.5°C 44.5°F6.9°C 84% 0.4 mph NE0.6 kmh NE 1.1 mph1.8 kmh 29.90 in1012.5 mb 0.00 in0.0 mm 0.00 in0.0 mm 1.15 in29.2 mm
11:53 PM 48.9°F9.4°C 44.3°F6.8°C 84% Calm Calm -- 29.90 in1012.5 mb 0.00 in0.0 mm 0.00 in0.0 mm 1.15 in29.2 mm
11:54 PM 48.9°F9.4°C 44.6°F7.0°C 85% 0.7 mph ENE1.1 kmh ENE 1.1 mph1.8 kmh 29.89 in1012.2 mb 0.00 in0.0 mm 0.00 in0.0 mm 1.15 in29.2 mm
11:55 PM 48.7°F9.3°C 44.7°F7.1°C 86% Calm Calm -- 29.91 in1012.9 mb 0.00 in0.0 mm 0.00 in0.0 mm 1.15 in29.2 mm
11:58 PM 48.6°F9.2°C 44.9°F7.2°C 87% Calm Calm -- 29.90 in1012.5 mb 0.00 in0.0 mm 0.00 in0.0 mm 1.15 in29.2 mm
11:59 PM 47.8°F8.8°C 44.7°F7.1°C 89% 0.2 mph ENE0.3 kmh ENE 1.1 mph1.8 kmh 29.89 in1012.2 mb 0.00 in0.0 mm 0.00 in0.0 mm 1.15 in29.2 mm